﻿<?xml version="1.0" encoding="utf-8"?><gpx creator="Garmin Desktop App" version="1.1" xsi:schemaLocation="http://www.topografix.com/GPX/1/1 http://www.topografix.com/GPX/1/1/gpx.xsd http://www.garmin.com/xmlschemas/WaypointExtension/v1 http://www8.garmin.com/xmlschemas/WaypointExtensionv1.xsd http://www.garmin.com/xmlschemas/TrackPointExtension/v1 http://www.garmin.com/xmlschemas/TrackPointExtensionv1.xsd http://www.garmin.com/xmlschemas/GpxExtensions/v3 http://www8.garmin.com/xmlschemas/GpxExtensionsv3.xsd http://www.garmin.com/xmlschemas/ActivityExtension/v1 http://www8.garmin.com/xmlschemas/ActivityExtensionv1.xsd http://www.garmin.com/xmlschemas/AdventuresExtensions/v1 http://www8.garmin.com/xmlschemas/AdventuresExtensionv1.xsd http://www.garmin.com/xmlschemas/PressureExtension/v1 http://www.garmin.com/xmlschemas/PressureExtensionv1.xsd http://www.garmin.com/xmlschemas/TripExtensions/v1 http://www.garmin.com/xmlschemas/TripExtensionsv1.xsd http://www.garmin.com/xmlschemas/TripMetaDataExtensions/v1 http://www.garmin.com/xmlschemas/TripMetaDataExtensionsv1.xsd http://www.garmin.com/xmlschemas/ViaPointTransportationModeExtensions/v1 http://www.garmin.com/xmlschemas/ViaPointTransportationModeExtensionsv1.xsd http://www.garmin.com/xmlschemas/CreationTimeExtension/v1 http://www.garmin.com/xmlschemas/CreationTimeExtensionsv1.xsd http://www.garmin.com/xmlschemas/AccelerationExtension/v1 http://www.garmin.com/xmlschemas/AccelerationExtensionv1.xsd http://www.garmin.com/xmlschemas/PowerExtension/v1 http://www.garmin.com/xmlschemas/PowerExtensionv1.xsd http://www.garmin.com/xmlschemas/VideoExtension/v1 http://www.garmin.com/xmlschemas/VideoExtensionv1.xsd" xmlns="http://www.topografix.com/GPX/1/1" xmlns:xsi="http://www.w3.org/2001/XMLSchema-instance" xmlns:wptx1="http://www.garmin.com/xmlschemas/WaypointExtension/v1" xmlns:gpxtrx="http://www.garmin.com/xmlschemas/GpxExtensions/v3" xmlns:gpxtpx="http://www.garmin.com/xmlschemas/TrackPointExtension/v1" xmlns:gpxx="http://www.garmin.com/xmlschemas/GpxExtensions/v3" xmlns:trp="http://www.garmin.com/xmlschemas/TripExtensions/v1" xmlns:adv="http://www.garmin.com/xmlschemas/AdventuresExtensions/v1" xmlns:prs="http://www.garmin.com/xmlschemas/PressureExtension/v1" xmlns:tmd="http://www.garmin.com/xmlschemas/TripMetaDataExtensions/v1" xmlns:vptm="http://www.garmin.com/xmlschemas/ViaPointTransportationModeExtensions/v1" xmlns:ctx="http://www.garmin.com/xmlschemas/CreationTimeExtension/v1" xmlns:gpxacc="http://www.garmin.com/xmlschemas/AccelerationExtension/v1" xmlns:gpxpx="http://www.garmin.com/xmlschemas/PowerExtension/v1" xmlns:vidx1="http://www.garmin.com/xmlschemas/VideoExtension/v1">

  <metadata>
    <link href="http://www.garmin.com">
      <text>Garmin International</text>
    </link>
    <time>2026-04-25T18:11:26Z</time>
    <bounds maxlat="59.079608134925365" maxlon="30.031679039821029" minlat="59.063285971060395" minlon="30.003186352550983" />
  </metadata>

  <trk>
    <name>Трек 023</name>
    <extensions>
      <gpxx:TrackExtension>
        <gpxx:DisplayColor>Cyan</gpxx:DisplayColor>
      </gpxx:TrackExtension>
    </extensions>
    <trkseg>
      <trkpt lat="59.063911931589246" lon="30.03080690279603">
        <ele>93.010000000000005</ele>
        <time>2026-04-25T08:37:37Z</time>
      </trkpt>
      <trkpt lat="59.06401326879859" lon="30.030703973025084">
        <ele>93.140000000000001</ele>
        <time>2026-04-25T08:37:57Z</time>
      </trkpt>
      <trkpt lat="59.064064733684063" lon="30.030479673296213">
        <ele>92.879999999999995</ele>
        <time>2026-04-25T08:38:16Z</time>
      </trkpt>
      <trkpt lat="59.064133884385228" lon="30.030303569510579">
        <ele>92.629999999999995</ele>
        <time>2026-04-25T08:38:32Z</time>
      </trkpt>
      <trkpt lat="59.064187863841653" lon="30.03020248375833">
        <ele>92.340000000000003</ele>
        <time>2026-04-25T08:38:46Z</time>
      </trkpt>
      <trkpt lat="59.064195323735476" lon="30.030180942267179">
        <ele>92.140000000000001</ele>
        <time>2026-04-25T08:38:51Z</time>
      </trkpt>
      <trkpt lat="59.064245447516441" lon="30.029934681952">
        <ele>92.069999999999993</ele>
        <time>2026-04-25T08:39:09Z</time>
      </trkpt>
      <trkpt lat="59.064259780570865" lon="30.029820688068867">
        <ele>91.75</ele>
        <time>2026-04-25T08:39:27Z</time>
      </trkpt>
      <trkpt lat="59.064277550205588" lon="30.0297309178859">
        <ele>91.870000000000005</ele>
        <time>2026-04-25T08:39:37Z</time>
      </trkpt>
      <trkpt lat="59.064306719228625" lon="30.029592616483569">
        <ele>91.790000000000006</ele>
        <time>2026-04-25T08:39:57Z</time>
      </trkpt>
      <trkpt lat="59.064421718940139" lon="30.02962002530694">
        <ele>91.409999999999997</ele>
        <time>2026-04-25T08:40:16Z</time>
      </trkpt>
      <trkpt lat="59.064570078626275" lon="30.02958188764751">
        <ele>91.290000000000006</ele>
        <time>2026-04-25T08:40:35Z</time>
      </trkpt>
      <trkpt lat="59.06467049382627" lon="30.029361275956035">
        <ele>90.609999999999999</ele>
        <time>2026-04-25T08:40:56Z</time>
      </trkpt>
      <trkpt lat="59.06475942581892" lon="30.029181987047195">
        <ele>90.510000000000005</ele>
        <time>2026-04-25T08:41:14Z</time>
      </trkpt>
      <trkpt lat="59.064780548214912" lon="30.029073441401124">
        <ele>89.849999999999994</ele>
        <time>2026-04-25T08:41:30Z</time>
      </trkpt>
      <trkpt lat="59.064786918461323" lon="30.028981743380427">
        <ele>89.840000000000003</ele>
        <time>2026-04-25T08:41:34Z</time>
      </trkpt>
      <trkpt lat="59.064917676150799" lon="30.02874537371099">
        <ele>89.340000000000003</ele>
        <time>2026-04-25T08:41:49Z</time>
      </trkpt>
      <trkpt lat="59.064949192106724" lon="30.028759203851223">
        <ele>88.400000000000006</ele>
        <time>2026-04-25T08:42:11Z</time>
      </trkpt>
      <trkpt lat="59.064996466040611" lon="30.028838161379099">
        <ele>88.950000000000003</ele>
        <time>2026-04-25T08:42:29Z</time>
      </trkpt>
      <trkpt lat="59.065091600641608" lon="30.028730286285281">
        <ele>88.640000000000001</ele>
        <time>2026-04-25T08:42:44Z</time>
      </trkpt>
      <trkpt lat="59.0651801135391" lon="30.028544291853905">
        <ele>88.030000000000001</ele>
        <time>2026-04-25T08:43:03Z</time>
      </trkpt>
      <trkpt lat="59.065229147672653" lon="30.028340611606836">
        <ele>87.019999999999996</ele>
        <time>2026-04-25T08:43:24Z</time>
      </trkpt>
      <trkpt lat="59.065315229818225" lon="30.028176661580801">
        <ele>86.579999999999998</ele>
        <time>2026-04-25T08:43:43Z</time>
      </trkpt>
      <trkpt lat="59.0654063411057" lon="30.028020506724715">
        <ele>86.920000000000002</ele>
        <time>2026-04-25T08:44:00Z</time>
      </trkpt>
      <trkpt lat="59.065527124330401" lon="30.027790339663625">
        <ele>86.650000000000006</ele>
        <time>2026-04-25T08:44:19Z</time>
      </trkpt>
      <trkpt lat="59.065586384385824" lon="30.02753552980721">
        <ele>86.950000000000003</ele>
        <time>2026-04-25T08:44:38Z</time>
      </trkpt>
      <trkpt lat="59.065670035779476" lon="30.027289688587189">
        <ele>86.25</ele>
        <time>2026-04-25T08:44:56Z</time>
      </trkpt>
      <trkpt lat="59.065796686336398" lon="30.027179718017578">
        <ele>85.719999999999999</ele>
        <time>2026-04-25T08:45:12Z</time>
      </trkpt>
      <trkpt lat="59.065958205610514" lon="30.026994310319424">
        <ele>85.420000000000002</ele>
        <time>2026-04-25T08:45:32Z</time>
      </trkpt>
      <trkpt lat="59.066047305241227" lon="30.026806555688381">
        <ele>85.040000000000006</ele>
        <time>2026-04-25T08:45:48Z</time>
      </trkpt>
      <trkpt lat="59.06615300104022" lon="30.026660710573196">
        <ele>84.650000000000006</ele>
        <time>2026-04-25T08:46:05Z</time>
      </trkpt>
      <trkpt lat="59.06629373319447" lon="30.026384526863694">
        <ele>84.409999999999997</ele>
        <time>2026-04-25T08:46:26Z</time>
      </trkpt>
      <trkpt lat="59.066422479227185" lon="30.026237089186907">
        <ele>84.269999999999996</ele>
        <time>2026-04-25T08:46:45Z</time>
      </trkpt>
      <trkpt lat="59.066533204168081" lon="30.026133488863707">
        <ele>84.459999999999994</ele>
        <time>2026-04-25T08:47:02Z</time>
      </trkpt>
      <trkpt lat="59.066603360697627" lon="30.025987476110458">
        <ele>84.549999999999997</ele>
        <time>2026-04-25T08:47:17Z</time>
      </trkpt>
      <trkpt lat="59.066659351810813" lon="30.025785220786929">
        <ele>84.510000000000005</ele>
        <time>2026-04-25T08:47:37Z</time>
      </trkpt>
      <trkpt lat="59.066733028739691" lon="30.02565479837358">
        <ele>84.730000000000004</ele>
        <time>2026-04-25T08:47:50Z</time>
      </trkpt>
      <trkpt lat="59.066780637949705" lon="30.025519262999296">
        <ele>84.280000000000001</ele>
        <time>2026-04-25T08:48:05Z</time>
      </trkpt>
      <trkpt lat="59.066829504445195" lon="30.025419350713491">
        <ele>84.159999999999997</ele>
        <time>2026-04-25T08:48:16Z</time>
      </trkpt>
      <trkpt lat="59.066837467253208" lon="30.025406610220671">
        <ele>84.280000000000001</ele>
        <time>2026-04-25T08:48:18Z</time>
      </trkpt>
      <trkpt lat="59.066888932138681" lon="30.025303345173597">
        <ele>83.780000000000001</ele>
        <time>2026-04-25T08:48:28Z</time>
      </trkpt>
      <trkpt lat="59.066912652924657" lon="30.025211311876774">
        <ele>83.879999999999995</ele>
        <time>2026-04-25T08:48:34Z</time>
      </trkpt>
      <trkpt lat="59.066927321255207" lon="30.025170911103487">
        <ele>83.599999999999994</ele>
        <time>2026-04-25T08:48:37Z</time>
      </trkpt>
      <trkpt lat="59.066982809454203" lon="30.024947114288807">
        <ele>83.459999999999994</ele>
        <time>2026-04-25T08:48:54Z</time>
      </trkpt>
      <trkpt lat="59.067094875499606" lon="30.024769082665443">
        <ele>83.739999999999995</ele>
        <time>2026-04-25T08:49:13Z</time>
      </trkpt>
      <trkpt lat="59.06724851578474" lon="30.024668835103512">
        <ele>83.810000000000002</ele>
        <time>2026-04-25T08:49:34Z</time>
      </trkpt>
      <trkpt lat="59.067382961511612" lon="30.02466238103807">
        <ele>83.709999999999994</ele>
        <time>2026-04-25T08:49:51Z</time>
      </trkpt>
      <trkpt lat="59.067496201023459" lon="30.024592559784651">
        <ele>83.879999999999995</ele>
        <time>2026-04-25T08:50:11Z</time>
      </trkpt>
      <trkpt lat="59.067653529345989" lon="30.024470435455441">
        <ele>84.260000000000005</ele>
        <time>2026-04-25T08:50:31Z</time>
      </trkpt>
      <trkpt lat="59.067685883492231" lon="30.024402961134911">
        <ele>83.75</ele>
        <time>2026-04-25T08:50:41Z</time>
      </trkpt>
      <trkpt lat="59.067709855735302" lon="30.024379659444094">
        <ele>84.25</ele>
        <time>2026-04-25T08:50:45Z</time>
      </trkpt>
      <trkpt lat="59.067820496857166" lon="30.024098781868815">
        <ele>83.150000000000006</ele>
        <time>2026-04-25T08:51:07Z</time>
      </trkpt>
      <trkpt lat="59.06784363090992" lon="30.023984704166651">
        <ele>83.010000000000005</ele>
        <time>2026-04-25T08:51:17Z</time>
      </trkpt>
      <trkpt lat="59.067860227078199" lon="30.023872889578342">
        <ele>83.099999999999994</ele>
        <time>2026-04-25T08:51:33Z</time>
      </trkpt>
      <trkpt lat="59.067850084975362" lon="30.023800972849131">
        <ele>81.930000000000007</ele>
        <time>2026-04-25T08:52:04Z</time>
      </trkpt>
      <trkpt lat="59.067901046946645" lon="30.023732744157314">
        <ele>81.409999999999997</ele>
        <time>2026-04-25T08:52:29Z</time>
      </trkpt>
      <trkpt lat="59.067888138815761" lon="30.023735677823424">
        <ele>82.269999999999996</ele>
        <time>2026-04-25T08:52:34Z</time>
      </trkpt>
      <trkpt lat="59.067829214036465" lon="30.023943381384015">
        <ele>81.950000000000003</ele>
        <time>2026-04-25T08:53:08Z</time>
      </trkpt>
      <trkpt lat="59.067791998386383" lon="30.02409559674561">
        <ele>80.329999999999998</ele>
        <time>2026-04-25T08:53:23Z</time>
      </trkpt>
      <trkpt lat="59.067801386117935" lon="30.024013873189688">
        <ele>80.769999999999996</ele>
        <time>2026-04-25T08:53:28Z</time>
      </trkpt>
      <trkpt lat="59.067839523777366" lon="30.023881020024419">
        <ele>81.290000000000006</ele>
        <time>2026-04-25T08:53:35Z</time>
      </trkpt>
      <trkpt lat="59.067886881530285" lon="30.02365437336266">
        <ele>80.829999999999998</ele>
        <time>2026-04-25T08:53:52Z</time>
      </trkpt>
      <trkpt lat="59.067917140200734" lon="30.023546917364001">
        <ele>80.400000000000006</ele>
        <time>2026-04-25T08:54:00Z</time>
      </trkpt>
      <trkpt lat="59.067983441054821" lon="30.023357821628451">
        <ele>79.849999999999994</ele>
        <time>2026-04-25T08:54:23Z</time>
      </trkpt>
      <trkpt lat="59.068129453808069" lon="30.023205438628793">
        <ele>79.689999999999998</ele>
        <time>2026-04-25T08:54:41Z</time>
      </trkpt>
      <trkpt lat="59.068159880116582" lon="30.02322387881577">
        <ele>80.120000000000005</ele>
        <time>2026-04-25T08:55:07Z</time>
      </trkpt>
      <trkpt lat="59.068189216777682" lon="30.022994130849838">
        <ele>80.310000000000002</ele>
        <time>2026-04-25T08:55:26Z</time>
      </trkpt>
      <trkpt lat="59.06826339662075" lon="30.022716857492924">
        <ele>79.859999999999999</ele>
        <time>2026-04-25T08:55:46Z</time>
      </trkpt>
      <trkpt lat="59.068278986960649" lon="30.0225212238729">
        <ele>80</ele>
        <time>2026-04-25T08:56:04Z</time>
      </trkpt>
      <trkpt lat="59.068329613655806" lon="30.022427262738347">
        <ele>79.75</ele>
        <time>2026-04-25T08:56:24Z</time>
      </trkpt>
      <trkpt lat="59.068390801548958" lon="30.022373367100954">
        <ele>80.390000000000001</ele>
        <time>2026-04-25T08:56:38Z</time>
      </trkpt>
      <trkpt lat="59.068441512063146" lon="30.022336151450872">
        <ele>80.180000000000007</ele>
        <time>2026-04-25T08:56:55Z</time>
      </trkpt>
      <trkpt lat="59.06852038577199" lon="30.022287871688604">
        <ele>79.890000000000001</ele>
        <time>2026-04-25T08:57:13Z</time>
      </trkpt>
      <trkpt lat="59.068626835942268" lon="30.022137919440866">
        <ele>80.480000000000004</ele>
        <time>2026-04-25T08:57:32Z</time>
      </trkpt>
      <trkpt lat="59.068731358274817" lon="30.021989727392793">
        <ele>80.409999999999997</ele>
        <time>2026-04-25T08:57:51Z</time>
      </trkpt>
      <trkpt lat="59.068858176469803" lon="30.021837512031198">
        <ele>80.700000000000003</ele>
        <time>2026-04-25T08:58:13Z</time>
      </trkpt>
      <trkpt lat="59.068968901410699" lon="30.021656127646565">
        <ele>81</ele>
        <time>2026-04-25T08:58:29Z</time>
      </trkpt>
      <trkpt lat="59.069118769839406" lon="30.021680016070604">
        <ele>81.609999999999999</ele>
        <time>2026-04-25T08:58:48Z</time>
      </trkpt>
      <trkpt lat="59.069247851148248" lon="30.02162310294807">
        <ele>81.620000000000005</ele>
        <time>2026-04-25T08:59:07Z</time>
      </trkpt>
      <trkpt lat="59.069364443421364" lon="30.021586641669273">
        <ele>80.760000000000005</ele>
        <time>2026-04-25T08:59:25Z</time>
      </trkpt>
      <trkpt lat="59.069461086764932" lon="30.021473318338394">
        <ele>81.219999999999999</ele>
        <time>2026-04-25T08:59:43Z</time>
      </trkpt>
      <trkpt lat="59.069601818919182" lon="30.021270727738738">
        <ele>80.040000000000006</ele>
        <time>2026-04-25T09:00:04Z</time>
      </trkpt>
      <trkpt lat="59.069654038175941" lon="30.02116478048265">
        <ele>80.599999999999994</ele>
        <time>2026-04-25T09:00:23Z</time>
      </trkpt>
      <trkpt lat="59.069720422849059" lon="30.020985826849937">
        <ele>80.329999999999998</ele>
        <time>2026-04-25T09:00:57Z</time>
      </trkpt>
      <trkpt lat="59.069722769781947" lon="30.020890859887004">
        <ele>80.450000000000003</ele>
        <time>2026-04-25T09:01:12Z</time>
      </trkpt>
      <trkpt lat="59.069729475304484" lon="30.020998734980822">
        <ele>79.859999999999999</ele>
        <time>2026-04-25T09:01:42Z</time>
      </trkpt>
      <trkpt lat="59.069773480296135" lon="30.020843585953116">
        <ele>80.159999999999997</ele>
        <time>2026-04-25T09:02:02Z</time>
      </trkpt>
      <trkpt lat="59.069872302934527" lon="30.020617106929421">
        <ele>79.099999999999994</ele>
        <time>2026-04-25T09:02:23Z</time>
      </trkpt>
      <trkpt lat="59.069930976256728" lon="30.020605707541108">
        <ele>79.019999999999996</ele>
        <time>2026-04-25T09:02:47Z</time>
      </trkpt>
      <trkpt lat="59.069938184693456" lon="30.020578298717737">
        <ele>79.280000000000001</ele>
        <time>2026-04-25T09:02:56Z</time>
      </trkpt>
      <trkpt lat="59.069937597960234" lon="30.02057402394712">
        <ele>79.519999999999996</ele>
        <time>2026-04-25T09:03:01Z</time>
      </trkpt>
      <trkpt lat="59.069926869124174" lon="30.020593302324414">
        <ele>79.959999999999994</ele>
        <time>2026-04-25T09:03:04Z</time>
      </trkpt>
      <trkpt lat="59.069984201341867" lon="30.020482996478677">
        <ele>79.239999999999995</ele>
        <time>2026-04-25T09:03:29Z</time>
      </trkpt>
      <trkpt lat="59.06999995931983" lon="30.020571509376168">
        <ele>79.799999999999997</ele>
        <time>2026-04-25T09:03:56Z</time>
      </trkpt>
      <trkpt lat="59.070026697590947" lon="30.020592045038939">
        <ele>79.599999999999994</ele>
        <time>2026-04-25T09:04:07Z</time>
      </trkpt>
      <trkpt lat="59.070073720067739" lon="30.020797401666641">
        <ele>80.099999999999994</ele>
        <time>2026-04-25T09:04:27Z</time>
      </trkpt>
      <trkpt lat="59.070005491375923" lon="30.020917430520058">
        <ele>80.010000000000005</ele>
        <time>2026-04-25T09:04:53Z</time>
      </trkpt>
      <trkpt lat="59.070010771974921" lon="30.020909048616886">
        <ele>79.819999999999993</ele>
        <time>2026-04-25T09:04:56Z</time>
      </trkpt>
      <trkpt lat="59.070041701197624" lon="30.02075876109302">
        <ele>79.280000000000001</ele>
        <time>2026-04-25T09:05:20Z</time>
      </trkpt>
      <trkpt lat="59.070042120292783" lon="30.020444188266993">
        <ele>78.950000000000003</ele>
        <time>2026-04-25T09:05:36Z</time>
      </trkpt>
      <trkpt lat="59.070072965696454" lon="30.020267581567168">
        <ele>79.510000000000005</ele>
        <time>2026-04-25T09:05:56Z</time>
      </trkpt>
      <trkpt lat="59.070182936266065" lon="30.020175715908408">
        <ele>78.969999999999999</ele>
        <time>2026-04-25T09:06:12Z</time>
      </trkpt>
      <trkpt lat="59.070279831066728" lon="30.020004054531455">
        <ele>79.069999999999993</ele>
        <time>2026-04-25T09:06:34Z</time>
      </trkpt>
      <trkpt lat="59.070282177999616" lon="30.019948733970523">
        <ele>79.459999999999994</ele>
        <time>2026-04-25T09:06:53Z</time>
      </trkpt>
      <trkpt lat="59.070339426398277" lon="30.019913110882044">
        <ele>79.75</ele>
        <time>2026-04-25T09:07:13Z</time>
      </trkpt>
      <trkpt lat="59.070367757230997" lon="30.019936831668019">
        <ele>80.310000000000002</ele>
        <time>2026-04-25T09:07:31Z</time>
      </trkpt>
      <trkpt lat="59.070477476343513" lon="30.019764248281717">
        <ele>80.519999999999996</ele>
        <time>2026-04-25T09:07:50Z</time>
      </trkpt>
      <trkpt lat="59.070660872384906" lon="30.019595017656684">
        <ele>80.090000000000003</ele>
        <time>2026-04-25T09:08:13Z</time>
      </trkpt>
      <trkpt lat="59.070800598710775" lon="30.019419165328145">
        <ele>79.859999999999999</ele>
        <time>2026-04-25T09:08:36Z</time>
      </trkpt>
      <trkpt lat="59.070880813524127" lon="30.019108029082417">
        <ele>79.969999999999999</ele>
        <time>2026-04-25T09:09:00Z</time>
      </trkpt>
      <trkpt lat="59.070935631170869" lon="30.018872581422329">
        <ele>79.950000000000003</ele>
        <time>2026-04-25T09:09:19Z</time>
      </trkpt>
      <trkpt lat="59.070927836000919" lon="30.018783984705806">
        <ele>79.459999999999994</ele>
        <time>2026-04-25T09:09:38Z</time>
      </trkpt>
      <trkpt lat="59.070950718596578" lon="30.01865079626441">
        <ele>80.870000000000005</ele>
        <time>2026-04-25T09:09:55Z</time>
      </trkpt>
      <trkpt lat="59.071021126583219" lon="30.01845239661634">
        <ele>80.609999999999999</ele>
        <time>2026-04-25T09:10:15Z</time>
      </trkpt>
      <trkpt lat="59.07113797031343" lon="30.018342509865761">
        <ele>80.849999999999994</ele>
        <time>2026-04-25T09:10:35Z</time>
      </trkpt>
      <trkpt lat="59.071251042187214" lon="30.018332367762923">
        <ele>80.930000000000007</ele>
        <time>2026-04-25T09:10:51Z</time>
      </trkpt>
      <trkpt lat="59.071388337761164" lon="30.018385173752904">
        <ele>80.659999999999997</ele>
        <time>2026-04-25T09:11:11Z</time>
      </trkpt>
      <trkpt lat="59.071516497060657" lon="30.018372517079115">
        <ele>80.540000000000006</ele>
        <time>2026-04-25T09:11:33Z</time>
      </trkpt>
      <trkpt lat="59.071668460965157" lon="30.018201442435384">
        <ele>80.930000000000007</ele>
        <time>2026-04-25T09:11:55Z</time>
      </trkpt>
      <trkpt lat="59.0717697981745" lon="30.018093567341566">
        <ele>81.079999999999998</ele>
        <time>2026-04-25T09:12:16Z</time>
      </trkpt>
      <trkpt lat="59.071916900575161" lon="30.017966078594327">
        <ele>81.25</ele>
        <time>2026-04-25T09:12:38Z</time>
      </trkpt>
      <trkpt lat="59.071997869759798" lon="30.017749071121216">
        <ele>82.349999999999994</ele>
        <time>2026-04-25T09:12:56Z</time>
      </trkpt>
      <trkpt lat="59.072003988549113" lon="30.017711687833071">
        <ele>82.060000000000002</ele>
        <time>2026-04-25T09:12:58Z</time>
      </trkpt>
      <trkpt lat="59.072066517546773" lon="30.017548575997353">
        <ele>82.109999999999999</ele>
        <time>2026-04-25T09:13:14Z</time>
      </trkpt>
      <trkpt lat="59.072103649377823" lon="30.01747221685946">
        <ele>82.450000000000003</ele>
        <time>2026-04-25T09:13:25Z</time>
      </trkpt>
      <trkpt lat="59.072204064577818" lon="30.017337016761303">
        <ele>82.780000000000001</ele>
        <time>2026-04-25T09:13:42Z</time>
      </trkpt>
      <trkpt lat="59.072220576927066" lon="30.017288569360971">
        <ele>82.200000000000003</ele>
        <time>2026-04-25T09:13:58Z</time>
      </trkpt>
      <trkpt lat="59.072256702929735" lon="30.01716535538435">
        <ele>83.560000000000002</ele>
        <time>2026-04-25T09:14:29Z</time>
      </trkpt>
      <trkpt lat="59.072332894429564" lon="30.01701339147985">
        <ele>82.430000000000007</ele>
        <time>2026-04-25T09:14:43Z</time>
      </trkpt>
      <trkpt lat="59.072408666834235" lon="30.016819518059492">
        <ele>83.819999999999993</ele>
        <time>2026-04-25T09:14:59Z</time>
      </trkpt>
      <trkpt lat="59.072468765079975" lon="30.016679037362337">
        <ele>83.109999999999999</ele>
        <time>2026-04-25T09:15:17Z</time>
      </trkpt>
      <trkpt lat="59.072558199986815" lon="30.016569318249822">
        <ele>82.569999999999993</ele>
        <time>2026-04-25T09:15:34Z</time>
      </trkpt>
      <trkpt lat="59.072675043717027" lon="30.016398159787059">
        <ele>82.939999999999998</ele>
        <time>2026-04-25T09:15:55Z</time>
      </trkpt>
      <trkpt lat="59.072783086448908" lon="30.016176626086235">
        <ele>82.299999999999997</ele>
        <time>2026-04-25T09:16:09Z</time>
      </trkpt>
      <trkpt lat="59.07285014167428" lon="30.016012927517295">
        <ele>82.560000000000002</ele>
        <time>2026-04-25T09:16:26Z</time>
      </trkpt>
      <trkpt lat="59.072993975132704" lon="30.01595308072865">
        <ele>82.879999999999995</ele>
        <time>2026-04-25T09:16:44Z</time>
      </trkpt>
      <trkpt lat="59.07309589907527" lon="30.015882169827819">
        <ele>82.719999999999999</ele>
        <time>2026-04-25T09:16:58Z</time>
      </trkpt>
      <trkpt lat="59.073187680914998" lon="30.015786197036505">
        <ele>82.609999999999999</ele>
        <time>2026-04-25T09:17:18Z</time>
      </trkpt>
      <trkpt lat="59.073311230167747" lon="30.015714447945356">
        <ele>82.319999999999993</ele>
        <time>2026-04-25T09:17:38Z</time>
      </trkpt>
      <trkpt lat="59.073471073061228" lon="30.015615960583091">
        <ele>82.519999999999996</ele>
        <time>2026-04-25T09:17:55Z</time>
      </trkpt>
      <trkpt lat="59.073579199612141" lon="30.01542778685689">
        <ele>82.219999999999999</ele>
        <time>2026-04-25T09:18:09Z</time>
      </trkpt>
      <trkpt lat="59.073642818257213" lon="30.015225447714329">
        <ele>81.819999999999993</ele>
        <time>2026-04-25T09:18:23Z</time>
      </trkpt>
      <trkpt lat="59.073698977008462" lon="30.015134923160076">
        <ele>82.989999999999995</ele>
        <time>2026-04-25T09:18:37Z</time>
      </trkpt>
      <trkpt lat="59.073761254549026" lon="30.014964854344726">
        <ele>82.269999999999996</ele>
        <time>2026-04-25T09:18:50Z</time>
      </trkpt>
      <trkpt lat="59.073861921206117" lon="30.014842059463263">
        <ele>81.719999999999999</ele>
        <time>2026-04-25T09:19:05Z</time>
      </trkpt>
      <trkpt lat="59.073952781036496" lon="30.014695795252919">
        <ele>80.719999999999999</ele>
        <time>2026-04-25T09:19:20Z</time>
      </trkpt>
      <trkpt lat="59.073988907039165" lon="30.01463720574975">
        <ele>81.769999999999996</ele>
        <time>2026-04-25T09:19:33Z</time>
      </trkpt>
      <trkpt lat="59.074049424380064" lon="30.014559673145413">
        <ele>82.310000000000002</ele>
        <time>2026-04-25T09:19:43Z</time>
      </trkpt>
      <trkpt lat="59.074112037196755" lon="30.014397734776139">
        <ele>81.280000000000001</ele>
        <time>2026-04-25T09:19:58Z</time>
      </trkpt>
      <trkpt lat="59.074097201228142" lon="30.014313329011202">
        <ele>81.5</ele>
        <time>2026-04-25T09:20:11Z</time>
      </trkpt>
      <trkpt lat="59.074090830981731" lon="30.014277454465628">
        <ele>81.510000000000005</ele>
        <time>2026-04-25T09:20:25Z</time>
      </trkpt>
      <trkpt lat="59.074086807668209" lon="30.014276616275311">
        <ele>81.719999999999999</ele>
        <time>2026-04-25T09:21:00Z</time>
      </trkpt>
      <trkpt lat="59.074086640030146" lon="30.014248872175813">
        <ele>81.25</ele>
        <time>2026-04-25T09:21:17Z</time>
      </trkpt>
      <trkpt lat="59.074087478220463" lon="30.014209058135748">
        <ele>81.409999999999997</ele>
        <time>2026-04-25T09:21:48Z</time>
      </trkpt>
      <trkpt lat="59.074066691100597" lon="30.014249961823225">
        <ele>81.390000000000001</ele>
        <time>2026-04-25T09:22:16Z</time>
      </trkpt>
      <trkpt lat="59.074047580361366" lon="30.01427510753274">
        <ele>80.950000000000003</ele>
        <time>2026-04-25T09:22:44Z</time>
      </trkpt>
      <trkpt lat="59.074080102145672" lon="30.014251470565796">
        <ele>80.920000000000002</ele>
        <time>2026-04-25T09:23:09Z</time>
      </trkpt>
      <trkpt lat="59.074106086045504" lon="30.014222301542759">
        <ele>80.700000000000003</ele>
        <time>2026-04-25T09:23:26Z</time>
      </trkpt>
      <trkpt lat="59.074218152090907" lon="30.014119790866971">
        <ele>80.870000000000005</ele>
        <time>2026-04-25T09:23:47Z</time>
      </trkpt>
      <trkpt lat="59.074356034398079" lon="30.014030104503036">
        <ele>81.569999999999993</ele>
        <time>2026-04-25T09:24:07Z</time>
      </trkpt>
      <trkpt lat="59.074445301666856" lon="30.013793483376503">
        <ele>80.629999999999995</ele>
        <time>2026-04-25T09:24:27Z</time>
      </trkpt>
      <trkpt lat="59.074456198140979" lon="30.013589803129435">
        <ele>81.430000000000007</ele>
        <time>2026-04-25T09:24:43Z</time>
      </trkpt>
      <trkpt lat="59.074517553672194" lon="30.013466086238623">
        <ele>80.540000000000006</ele>
        <time>2026-04-25T09:24:59Z</time>
      </trkpt>
      <trkpt lat="59.074603551998734" lon="30.013298783451319">
        <ele>80.760000000000005</ele>
        <time>2026-04-25T09:25:15Z</time>
      </trkpt>
      <trkpt lat="59.074647640809417" lon="30.013182526454329">
        <ele>80.569999999999993</ele>
        <time>2026-04-25T09:25:27Z</time>
      </trkpt>
      <trkpt lat="59.074715282768011" lon="30.013086553663015">
        <ele>80.170000000000002</ele>
        <time>2026-04-25T09:25:40Z</time>
      </trkpt>
      <trkpt lat="59.074795329943299" lon="30.012989239767194">
        <ele>80.209999999999994</ele>
        <time>2026-04-25T09:25:53Z</time>
      </trkpt>
      <trkpt lat="59.074832294136286" lon="30.012832079082727">
        <ele>80.200000000000003</ele>
        <time>2026-04-25T09:26:07Z</time>
      </trkpt>
      <trkpt lat="59.074921645224094" lon="30.012757647782564">
        <ele>80.230000000000004</ele>
        <time>2026-04-25T09:26:21Z</time>
      </trkpt>
      <trkpt lat="59.07496489584446" lon="30.012665027752519">
        <ele>80.040000000000006</ele>
        <time>2026-04-25T09:26:33Z</time>
      </trkpt>
      <trkpt lat="59.075019462034106" lon="30.012649605050683">
        <ele>79.719999999999999</ele>
        <time>2026-04-25T09:26:50Z</time>
      </trkpt>
      <trkpt lat="59.075123146176338" lon="30.012566791847348">
        <ele>79.310000000000002</ele>
        <time>2026-04-25T09:27:06Z</time>
      </trkpt>
      <trkpt lat="59.075180059298873" lon="30.012468975037336">
        <ele>79.239999999999995</ele>
        <time>2026-04-25T09:27:18Z</time>
      </trkpt>
      <trkpt lat="59.07526639290154" lon="30.012325812131166">
        <ele>80.180000000000007</ele>
        <time>2026-04-25T09:27:33Z</time>
      </trkpt>
      <trkpt lat="59.075344260782003" lon="30.012212824076414">
        <ele>79.840000000000003</ele>
        <time>2026-04-25T09:27:47Z</time>
      </trkpt>
      <trkpt lat="59.075389774516225" lon="30.012113749980927">
        <ele>79.700000000000003</ele>
        <time>2026-04-25T09:27:58Z</time>
      </trkpt>
      <trkpt lat="59.075461188331246" lon="30.011975280940533">
        <ele>79.670000000000002</ele>
        <time>2026-04-25T09:28:13Z</time>
      </trkpt>
      <trkpt lat="59.075514161959291" lon="30.011892300099134">
        <ele>79.489999999999995</ele>
        <time>2026-04-25T09:28:25Z</time>
      </trkpt>
      <trkpt lat="59.075569985434413" lon="30.011822730302811">
        <ele>78.890000000000001</ele>
        <time>2026-04-25T09:28:37Z</time>
      </trkpt>
      <trkpt lat="59.075638381764293" lon="30.011704629287124">
        <ele>79.680000000000007</ele>
        <time>2026-04-25T09:28:52Z</time>
      </trkpt>
      <trkpt lat="59.075709376484156" lon="30.011622738093138">
        <ele>78.989999999999995</ele>
        <time>2026-04-25T09:29:05Z</time>
      </trkpt>
      <trkpt lat="59.075753213837743" lon="30.011587534099817">
        <ele>79.340000000000003</ele>
        <time>2026-04-25T09:29:16Z</time>
      </trkpt>
      <trkpt lat="59.075818257406354" lon="30.011445293202996">
        <ele>79.459999999999994</ele>
        <time>2026-04-25T09:29:30Z</time>
      </trkpt>
      <trkpt lat="59.075854551047087" lon="30.01139122992754">
        <ele>79.189999999999998</ele>
        <time>2026-04-25T09:29:38Z</time>
      </trkpt>
      <trkpt lat="59.075909871608019" lon="30.0113017950207">
        <ele>79.590000000000003</ele>
        <time>2026-04-25T09:29:50Z</time>
      </trkpt>
      <trkpt lat="59.07596074976027" lon="30.011193500831723">
        <ele>79.650000000000006</ele>
        <time>2026-04-25T09:30:05Z</time>
      </trkpt>
      <trkpt lat="59.075967287644744" lon="30.011168271303177">
        <ele>79.719999999999999</ele>
        <time>2026-04-25T09:30:07Z</time>
      </trkpt>
      <trkpt lat="59.076024368405342" lon="30.011018319055438">
        <ele>79.579999999999998</ele>
        <time>2026-04-25T09:30:21Z</time>
      </trkpt>
      <trkpt lat="59.076085975393653" lon="30.010857805609703">
        <ele>79.780000000000001</ele>
        <time>2026-04-25T09:30:35Z</time>
      </trkpt>
      <trkpt lat="59.076163256540895" lon="30.010784966871142">
        <ele>79.879999999999995</ele>
        <time>2026-04-25T09:30:50Z</time>
      </trkpt>
      <trkpt lat="59.076268617063761" lon="30.010670721530914">
        <ele>79.909999999999997</ele>
        <time>2026-04-25T09:31:13Z</time>
      </trkpt>
      <trkpt lat="59.076372887939215" lon="30.010683294385672">
        <ele>79.519999999999996</ele>
        <time>2026-04-25T09:31:39Z</time>
      </trkpt>
      <trkpt lat="59.076488306745887" lon="30.010619256645441">
        <ele>79.739999999999995</ele>
        <time>2026-04-25T09:31:52Z</time>
      </trkpt>
      <trkpt lat="59.076564246788621" lon="30.010426221415401">
        <ele>79.689999999999998</ele>
        <time>2026-04-25T09:32:08Z</time>
      </trkpt>
      <trkpt lat="59.076639600098133" lon="30.010215500369668">
        <ele>79.680000000000007</ele>
        <time>2026-04-25T09:32:27Z</time>
      </trkpt>
      <trkpt lat="59.076751247048378" lon="30.010053897276521">
        <ele>79.680000000000007</ele>
        <time>2026-04-25T09:32:46Z</time>
      </trkpt>
      <trkpt lat="59.07679483294487" lon="30.009968653321266">
        <ele>79.569999999999993</ele>
        <time>2026-04-25T09:33:01Z</time>
      </trkpt>
      <trkpt lat="59.076857613399625" lon="30.00980906188488">
        <ele>79.189999999999998</ele>
        <time>2026-04-25T09:33:20Z</time>
      </trkpt>
      <trkpt lat="59.077080069109797" lon="30.009632706642151">
        <ele>79.359999999999999</ele>
        <time>2026-04-25T09:33:38Z</time>
      </trkpt>
      <trkpt lat="59.077297579497099" lon="30.009399019181728">
        <ele>78.620000000000005</ele>
        <time>2026-04-25T09:34:00Z</time>
      </trkpt>
      <trkpt lat="59.077392630279064" lon="30.009169355034828">
        <ele>78.829999999999998</ele>
        <time>2026-04-25T09:34:20Z</time>
      </trkpt>
      <trkpt lat="59.077455913648009" lon="30.009002303704619">
        <ele>78.849999999999994</ele>
        <time>2026-04-25T09:34:41Z</time>
      </trkpt>
      <trkpt lat="59.077554736286402" lon="30.008774567395449">
        <ele>79.079999999999998</ele>
        <time>2026-04-25T09:34:59Z</time>
      </trkpt>
      <trkpt lat="59.077648110687733" lon="30.008582454174757">
        <ele>78.540000000000006</ele>
        <time>2026-04-25T09:35:19Z</time>
      </trkpt>
      <trkpt lat="59.077696306630969" lon="30.008457647636533">
        <ele>78.939999999999998</ele>
        <time>2026-04-25T09:35:37Z</time>
      </trkpt>
      <trkpt lat="59.07770711928606" lon="30.008435854688287">
        <ele>79.239999999999995</ele>
        <time>2026-04-25T09:35:41Z</time>
      </trkpt>
      <trkpt lat="59.077748693525791" lon="30.008340133354068">
        <ele>78.579999999999998</ele>
        <time>2026-04-25T09:35:59Z</time>
      </trkpt>
      <trkpt lat="59.077878780663013" lon="30.008193030953407">
        <ele>78.680000000000007</ele>
        <time>2026-04-25T09:36:18Z</time>
      </trkpt>
      <trkpt lat="59.077886659651995" lon="30.008182469755411">
        <ele>78.519999999999996</ele>
        <time>2026-04-25T09:36:20Z</time>
      </trkpt>
      <trkpt lat="59.078077180311084" lon="30.007865382358432">
        <ele>79.159999999999997</ele>
        <time>2026-04-25T09:36:40Z</time>
      </trkpt>
      <trkpt lat="59.078165190294385" lon="30.007688608020544">
        <ele>79.209999999999994</ele>
        <time>2026-04-25T09:36:55Z</time>
      </trkpt>
      <trkpt lat="59.078263426199555" lon="30.007509402930737">
        <ele>78.909999999999997</ele>
        <time>2026-04-25T09:37:17Z</time>
      </trkpt>
      <trkpt lat="59.078360740095377" lon="30.007372023537755">
        <ele>78.709999999999994</ele>
        <time>2026-04-25T09:37:34Z</time>
      </trkpt>
      <trkpt lat="59.078397788107395" lon="30.007312344387174">
        <ele>79.049999999999997</ele>
        <time>2026-04-25T09:37:41Z</time>
      </trkpt>
      <trkpt lat="59.078630805015564" lon="30.007201032713056">
        <ele>79.180000000000007</ele>
        <time>2026-04-25T09:38:03Z</time>
      </trkpt>
      <trkpt lat="59.07878503203392" lon="30.007112016901374">
        <ele>79.480000000000004</ele>
        <time>2026-04-25T09:38:21Z</time>
      </trkpt>
      <trkpt lat="59.078925680369139" lon="30.006993161514401">
        <ele>79.390000000000001</ele>
        <time>2026-04-25T09:38:43Z</time>
      </trkpt>
      <trkpt lat="59.078960213810205" lon="30.006924346089363">
        <ele>79.090000000000003</ele>
        <time>2026-04-25T09:38:50Z</time>
      </trkpt>
      <trkpt lat="59.079032298177481" lon="30.006796019151807">
        <ele>78.959999999999994</ele>
        <time>2026-04-25T09:38:59Z</time>
      </trkpt>
      <trkpt lat="59.079087451100349" lon="30.00668378546834">
        <ele>79.069999999999993</ele>
        <time>2026-04-25T09:39:11Z</time>
      </trkpt>
      <trkpt lat="59.079181831330061" lon="30.006444314494729">
        <ele>79.799999999999997</ele>
        <time>2026-04-25T09:39:31Z</time>
      </trkpt>
      <trkpt lat="59.079275792464614" lon="30.006278604269028">
        <ele>79.920000000000002</ele>
        <time>2026-04-25T09:39:51Z</time>
      </trkpt>
      <trkpt lat="59.079369753599167" lon="30.006063776090741">
        <ele>80.269999999999996</ele>
        <time>2026-04-25T09:40:12Z</time>
      </trkpt>
      <trkpt lat="59.079461703076959" lon="30.005884571000934">
        <ele>80.150000000000006</ele>
        <time>2026-04-25T09:40:28Z</time>
      </trkpt>
      <trkpt lat="59.079551640897989" lon="30.005654906854033">
        <ele>80.079999999999998</ele>
        <time>2026-04-25T09:40:46Z</time>
      </trkpt>
      <trkpt lat="59.079582318663597" lon="30.005488274618983">
        <ele>79.900000000000006</ele>
        <time>2026-04-25T09:41:03Z</time>
      </trkpt>
      <trkpt lat="59.079584833234549" lon="30.005435552448034">
        <ele>79.590000000000003</ele>
        <time>2026-04-25T09:41:28Z</time>
      </trkpt>
      <trkpt lat="59.079566895961761" lon="30.005354834720492">
        <ele>78.950000000000003</ele>
        <time>2026-04-25T09:41:58Z</time>
      </trkpt>
      <trkpt lat="59.079530602321029" lon="30.005286438390613">
        <ele>79.629999999999995</ele>
        <time>2026-04-25T09:42:24Z</time>
      </trkpt>
      <trkpt lat="59.079542504623532" lon="30.00525894574821">
        <ele>79.280000000000001</ele>
        <time>2026-04-25T09:42:54Z</time>
      </trkpt>
      <trkpt lat="59.079549545422196" lon="30.00526481308043">
        <ele>79.180000000000007</ele>
        <time>2026-04-25T09:43:24Z</time>
      </trkpt>
      <trkpt lat="59.079552311450243" lon="30.005278643220663">
        <ele>80.239999999999995</ele>
        <time>2026-04-25T09:43:50Z</time>
      </trkpt>
      <trkpt lat="59.079552479088306" lon="30.005277218297124">
        <ele>80.25</ele>
        <time>2026-04-25T09:43:51Z</time>
      </trkpt>
      <trkpt lat="59.079600507393479" lon="30.005305632948875">
        <ele>79.549999999999997</ele>
        <time>2026-04-25T09:44:17Z</time>
      </trkpt>
      <trkpt lat="59.079608134925365" lon="30.00531854107976">
        <ele>79.859999999999999</ele>
        <time>2026-04-25T09:44:47Z</time>
      </trkpt>
      <trkpt lat="59.079574858769774" lon="30.005340334028006">
        <ele>79.950000000000003</ele>
        <time>2026-04-25T09:45:17Z</time>
      </trkpt>
      <trkpt lat="59.079573266208172" lon="30.005360366776586">
        <ele>80.150000000000006</ele>
        <time>2026-04-25T09:45:43Z</time>
      </trkpt>
      <trkpt lat="59.079570332542062" lon="30.005187867209315">
        <ele>80.090000000000003</ele>
        <time>2026-04-25T09:46:03Z</time>
      </trkpt>
      <trkpt lat="59.079548036679626" lon="30.00498334877193">
        <ele>80.090000000000003</ele>
        <time>2026-04-25T09:46:25Z</time>
      </trkpt>
      <trkpt lat="59.079496739432216" lon="30.004846304655075">
        <ele>80.569999999999993</ele>
        <time>2026-04-25T09:46:47Z</time>
      </trkpt>
      <trkpt lat="59.079474862664938" lon="30.004682438448071">
        <ele>80.459999999999994</ele>
        <time>2026-04-25T09:47:10Z</time>
      </trkpt>
      <trkpt lat="59.079436976462603" lon="30.004649413749576">
        <ele>81.060000000000002</ele>
        <time>2026-04-25T09:47:33Z</time>
      </trkpt>
      <trkpt lat="59.079447034746408" lon="30.004579843953252">
        <ele>81.030000000000001</ele>
        <time>2026-04-25T09:47:54Z</time>
      </trkpt>
      <trkpt lat="59.079432869330049" lon="30.004371218383312">
        <ele>81.200000000000003</ele>
        <time>2026-04-25T09:48:14Z</time>
      </trkpt>
      <trkpt lat="59.079442340880632" lon="30.004321513697505">
        <ele>81.239999999999995</ele>
        <time>2026-04-25T09:48:22Z</time>
      </trkpt>
      <trkpt lat="59.07945005223155" lon="30.004052706062794">
        <ele>81.560000000000002</ele>
        <time>2026-04-25T09:48:39Z</time>
      </trkpt>
      <trkpt lat="59.079446448013186" lon="30.004022363573313">
        <ele>81.349999999999994</ele>
        <time>2026-04-25T09:48:41Z</time>
      </trkpt>
      <trkpt lat="59.079431276768446" lon="30.003993362188339">
        <ele>81.840000000000003</ele>
        <time>2026-04-25T09:48:46Z</time>
      </trkpt>
      <trkpt lat="59.079344188794494" lon="30.003925384953618">
        <ele>81.319999999999993</ele>
        <time>2026-04-25T09:49:05Z</time>
      </trkpt>
      <trkpt lat="59.079314516857266" lon="30.003683986142278">
        <ele>81.900000000000006</ele>
        <time>2026-04-25T09:49:24Z</time>
      </trkpt>
      <trkpt lat="59.07925458624959" lon="30.003398330882192">
        <ele>81.420000000000002</ele>
        <time>2026-04-25T09:49:44Z</time>
      </trkpt>
      <trkpt lat="59.079219130799174" lon="30.00326975248754">
        <ele>81.799999999999997</ele>
        <time>2026-04-25T09:50:02Z</time>
      </trkpt>
      <trkpt lat="59.079204881563783" lon="30.003186352550983">
        <ele>81.640000000000001</ele>
        <time>2026-04-25T09:50:32Z</time>
      </trkpt>
      <trkpt lat="59.079206390306354" lon="30.003195321187377">
        <ele>81.780000000000001</ele>
        <time>2026-04-25T09:51:03Z</time>
      </trkpt>
      <trkpt lat="59.079175880178809" lon="30.003187526017427">
        <ele>81.950000000000003</ele>
        <time>2026-04-25T09:51:33Z</time>
      </trkpt>
      <trkpt lat="59.079042607918382" lon="30.003213174641132">
        <ele>82.060000000000002</ele>
        <time>2026-04-25T09:51:53Z</time>
      </trkpt>
      <trkpt lat="59.078862983733416" lon="30.003345189616084">
        <ele>82.260000000000005</ele>
        <time>2026-04-25T09:52:16Z</time>
      </trkpt>
      <trkpt lat="59.078732142224908" lon="30.003422051668167">
        <ele>82.469999999999999</ele>
        <time>2026-04-25T09:52:37Z</time>
      </trkpt>
      <trkpt lat="59.078719485551119" lon="30.00348717905581">
        <ele>82.75</ele>
        <time>2026-04-25T09:53:05Z</time>
      </trkpt>
      <trkpt lat="59.078743038699031" lon="30.00353068113327">
        <ele>83.140000000000001</ele>
        <time>2026-04-25T09:53:35Z</time>
      </trkpt>
      <trkpt lat="59.07879333011806" lon="30.003691781312227">
        <ele>82.5</ele>
        <time>2026-04-25T09:53:54Z</time>
      </trkpt>
      <trkpt lat="59.078834149986506" lon="30.003987913951278">
        <ele>82.760000000000005</ele>
        <time>2026-04-25T09:54:14Z</time>
      </trkpt>
      <trkpt lat="59.078880921006203" lon="30.004265774041414">
        <ele>82.959999999999994</ele>
        <time>2026-04-25T09:54:34Z</time>
      </trkpt>
      <trkpt lat="59.078913442790508" lon="30.004539946094155">
        <ele>83.069999999999993</ele>
        <time>2026-04-25T09:54:54Z</time>
      </trkpt>
      <trkpt lat="59.078909670934081" lon="30.004667937755585">
        <ele>82.579999999999998</ele>
        <time>2026-04-25T09:55:14Z</time>
      </trkpt>
      <trkpt lat="59.079000446945429" lon="30.004973039031029">
        <ele>82.959999999999994</ele>
        <time>2026-04-25T09:55:37Z</time>
      </trkpt>
      <trkpt lat="59.079030873253942" lon="30.005332622677088">
        <ele>82.709999999999994</ele>
        <time>2026-04-25T09:56:03Z</time>
      </trkpt>
      <trkpt lat="59.079106729477644" lon="30.00566110946238">
        <ele>82.700000000000003</ele>
        <time>2026-04-25T09:56:26Z</time>
      </trkpt>
      <trkpt lat="59.079132461920381" lon="30.005874261260033">
        <ele>82.980000000000004</ele>
        <time>2026-04-25T09:56:46Z</time>
      </trkpt>
      <trkpt lat="59.079131204634905" lon="30.005916841328144">
        <ele>83.079999999999998</ele>
        <time>2026-04-25T09:57:14Z</time>
      </trkpt>
      <trkpt lat="59.079153081402183" lon="30.005882056429982">
        <ele>83.200000000000003</ele>
        <time>2026-04-25T09:57:34Z</time>
      </trkpt>
      <trkpt lat="59.079171940684319" lon="30.005850959569216">
        <ele>82.689999999999998</ele>
        <time>2026-04-25T09:57:59Z</time>
      </trkpt>
      <trkpt lat="59.079193482175469" lon="30.005832351744175">
        <ele>82.700000000000003</ele>
        <time>2026-04-25T09:58:23Z</time>
      </trkpt>
      <trkpt lat="59.079109830781817" lon="30.005901586264372">
        <ele>82.780000000000001</ele>
        <time>2026-04-25T09:58:47Z</time>
      </trkpt>
      <trkpt lat="59.078937666490674" lon="30.005936957895756">
        <ele>82.569999999999993</ele>
        <time>2026-04-25T09:59:05Z</time>
      </trkpt>
      <trkpt lat="59.078870695084333" lon="30.005937041714787">
        <ele>82.560000000000002</ele>
        <time>2026-04-25T09:59:13Z</time>
      </trkpt>
      <trkpt lat="59.078798610717058" lon="30.005938466638327">
        <ele>82.459999999999994</ele>
        <time>2026-04-25T09:59:22Z</time>
      </trkpt>
      <trkpt lat="59.078747648745775" lon="30.00592933036387">
        <ele>82.530000000000001</ele>
        <time>2026-04-25T09:59:28Z</time>
      </trkpt>
      <trkpt lat="59.078716887161136" lon="30.00592396594584">
        <ele>82.209999999999994</ele>
        <time>2026-04-25T09:59:34Z</time>
      </trkpt>
      <trkpt lat="59.078678162768483" lon="30.005960511043668">
        <ele>82.359999999999999</ele>
        <time>2026-04-25T09:59:40Z</time>
      </trkpt>
      <trkpt lat="59.078667853027582" lon="30.006011556833982">
        <ele>82.450000000000003</ele>
        <time>2026-04-25T09:59:47Z</time>
      </trkpt>
      <trkpt lat="59.078700458630919" lon="30.005989680066705">
        <ele>82.579999999999998</ele>
        <time>2026-04-25T10:00:10Z</time>
      </trkpt>
      <trkpt lat="59.078696770593524" lon="30.005951458588243">
        <ele>82.310000000000002</ele>
        <time>2026-04-25T10:00:28Z</time>
      </trkpt>
      <trkpt lat="59.078688556328416" lon="30.005917930975556">
        <ele>81.950000000000003</ele>
        <time>2026-04-25T10:00:39Z</time>
      </trkpt>
      <trkpt lat="59.078662153333426" lon="30.005814833566546">
        <ele>81.980000000000004</ele>
        <time>2026-04-25T10:00:49Z</time>
      </trkpt>
      <trkpt lat="59.078674307093024" lon="30.005605788901448">
        <ele>82.329999999999998</ele>
        <time>2026-04-25T10:01:10Z</time>
      </trkpt>
      <trkpt lat="59.078628877177835" lon="30.005365312099457">
        <ele>82.530000000000001</ele>
        <time>2026-04-25T10:01:31Z</time>
      </trkpt>
      <trkpt lat="59.078584369271994" lon="30.005062557756901">
        <ele>82.090000000000003</ele>
        <time>2026-04-25T10:01:54Z</time>
      </trkpt>
      <trkpt lat="59.078532233834267" lon="30.004724515601993">
        <ele>82.170000000000002</ele>
        <time>2026-04-25T10:02:16Z</time>
      </trkpt>
      <trkpt lat="59.078470710664988" lon="30.004473812878132">
        <ele>81.909999999999997</ele>
        <time>2026-04-25T10:02:36Z</time>
      </trkpt>
      <trkpt lat="59.078447911888361" lon="30.004186732694507">
        <ele>81.359999999999999</ele>
        <time>2026-04-25T10:02:55Z</time>
      </trkpt>
      <trkpt lat="59.078405080363154" lon="30.003878865391016">
        <ele>80.890000000000001</ele>
        <time>2026-04-25T10:03:19Z</time>
      </trkpt>
      <trkpt lat="59.078330146148801" lon="30.003623971715569">
        <ele>80.099999999999994</ele>
        <time>2026-04-25T10:03:38Z</time>
      </trkpt>
      <trkpt lat="59.078312292695045" lon="30.003537638112903">
        <ele>79.700000000000003</ele>
        <time>2026-04-25T10:04:05Z</time>
      </trkpt>
      <trkpt lat="59.078218247741461" lon="30.003498159348965">
        <ele>80.069999999999993</ele>
        <time>2026-04-25T10:04:31Z</time>
      </trkpt>
      <trkpt lat="59.07804423943162" lon="30.003504194319248">
        <ele>79.840000000000003</ele>
        <time>2026-04-25T10:04:51Z</time>
      </trkpt>
      <trkpt lat="59.077927730977535" lon="30.003632185980678">
        <ele>79.969999999999999</ele>
        <time>2026-04-25T10:05:10Z</time>
      </trkpt>
      <trkpt lat="59.077928904443979" lon="30.003787167370319">
        <ele>79.870000000000005</ele>
        <time>2026-04-25T10:05:32Z</time>
      </trkpt>
      <trkpt lat="59.077950697392225" lon="30.003956230357289">
        <ele>79.459999999999994</ele>
        <time>2026-04-25T10:06:08Z</time>
      </trkpt>
      <trkpt lat="59.07800811342895" lon="30.004138369113207">
        <ele>79.390000000000001</ele>
        <time>2026-04-25T10:06:26Z</time>
      </trkpt>
      <trkpt lat="59.078027475625277" lon="30.004442716017365">
        <ele>79.030000000000001</ele>
        <time>2026-04-25T10:06:50Z</time>
      </trkpt>
      <trkpt lat="59.078076761215925" lon="30.00468042679131">
        <ele>79.640000000000001</ele>
        <time>2026-04-25T10:07:12Z</time>
      </trkpt>
      <trkpt lat="59.078077096492052" lon="30.004800874739885">
        <ele>79.120000000000005</ele>
        <time>2026-04-25T10:07:29Z</time>
      </trkpt>
      <trkpt lat="59.078105511143804" lon="30.004957029595971">
        <ele>79.030000000000001</ele>
        <time>2026-04-25T10:07:44Z</time>
      </trkpt>
      <trkpt lat="59.078107858076692" lon="30.005169594660401">
        <ele>78.599999999999994</ele>
        <time>2026-04-25T10:08:00Z</time>
      </trkpt>
      <trkpt lat="59.0781644359231" lon="30.005414681509137">
        <ele>78.609999999999999</ele>
        <time>2026-04-25T10:08:20Z</time>
      </trkpt>
      <trkpt lat="59.078190503641963" lon="30.005696313455701">
        <ele>78.760000000000005</ele>
        <time>2026-04-25T10:08:41Z</time>
      </trkpt>
      <trkpt lat="59.078246578574181" lon="30.005895970389247">
        <ele>79.069999999999993</ele>
        <time>2026-04-25T10:08:56Z</time>
      </trkpt>
      <trkpt lat="59.078270634636283" lon="30.006148768588901">
        <ele>79.170000000000002</ele>
        <time>2026-04-25T10:09:14Z</time>
      </trkpt>
      <trkpt lat="59.078279351815581" lon="30.006228229030967">
        <ele>78.879999999999995</ele>
        <time>2026-04-25T10:09:33Z</time>
      </trkpt>
      <trkpt lat="59.078293181955814" lon="30.006271563470364">
        <ele>78.629999999999995</ele>
        <time>2026-04-25T10:09:50Z</time>
      </trkpt>
      <trkpt lat="59.078268203884363" lon="30.006305258721113">
        <ele>78.349999999999994</ele>
        <time>2026-04-25T10:10:34Z</time>
      </trkpt>
      <trkpt lat="59.078254457563162" lon="30.006286986172199">
        <ele>78.680000000000007</ele>
        <time>2026-04-25T10:10:56Z</time>
      </trkpt>
      <trkpt lat="59.078249176964164" lon="30.006280364468694">
        <ele>78.540000000000006</ele>
        <time>2026-04-25T10:11:08Z</time>
      </trkpt>
      <trkpt lat="59.078239034861326" lon="30.006256643682718">
        <ele>78.780000000000001</ele>
        <time>2026-04-25T10:11:29Z</time>
      </trkpt>
      <trkpt lat="59.078147755935788" lon="30.00622546300292">
        <ele>78.549999999999997</ele>
        <time>2026-04-25T10:11:46Z</time>
      </trkpt>
      <trkpt lat="59.078060332685709" lon="30.006228480488062">
        <ele>78.670000000000002</ele>
        <time>2026-04-25T10:12:01Z</time>
      </trkpt>
      <trkpt lat="59.077929742634296" lon="30.006332835182548">
        <ele>79.010000000000005</ele>
        <time>2026-04-25T10:12:21Z</time>
      </trkpt>
      <trkpt lat="59.077884312719107" lon="30.006382120773196">
        <ele>78.819999999999993</ele>
        <time>2026-04-25T10:12:49Z</time>
      </trkpt>
      <trkpt lat="59.077886743471026" lon="30.006298637017608">
        <ele>78.680000000000007</ele>
        <time>2026-04-25T10:13:07Z</time>
      </trkpt>
      <trkpt lat="59.077898310497403" lon="30.006104847416282">
        <ele>78.560000000000002</ele>
        <time>2026-04-25T10:13:24Z</time>
      </trkpt>
      <trkpt lat="59.077895628288388" lon="30.005865879356861">
        <ele>78.799999999999997</ele>
        <time>2026-04-25T10:13:43Z</time>
      </trkpt>
      <trkpt lat="59.077812479808927" lon="30.005676783621311">
        <ele>78.319999999999993</ele>
        <time>2026-04-25T10:14:01Z</time>
      </trkpt>
      <trkpt lat="59.077796302735806" lon="30.005537560209632">
        <ele>78.900000000000006</ele>
        <time>2026-04-25T10:14:18Z</time>
      </trkpt>
      <trkpt lat="59.077810049057007" lon="30.005392804741859">
        <ele>78.859999999999999</ele>
        <time>2026-04-25T10:14:32Z</time>
      </trkpt>
      <trkpt lat="59.077738719061017" lon="30.005217455327511">
        <ele>78.620000000000005</ele>
        <time>2026-04-25T10:14:47Z</time>
      </trkpt>
      <trkpt lat="59.077726062387228" lon="30.005166158080101">
        <ele>78.590000000000003</ele>
        <time>2026-04-25T10:14:52Z</time>
      </trkpt>
      <trkpt lat="59.077722877264023" lon="30.005073621869087">
        <ele>78.590000000000003</ele>
        <time>2026-04-25T10:14:59Z</time>
      </trkpt>
      <trkpt lat="59.077687505632639" lon="30.005035400390625">
        <ele>78.819999999999993</ele>
        <time>2026-04-25T10:15:03Z</time>
      </trkpt>
      <trkpt lat="59.077677195891738" lon="30.004903553053737">
        <ele>78.739999999999995</ele>
        <time>2026-04-25T10:15:16Z</time>
      </trkpt>
      <trkpt lat="59.077664706856012" lon="30.004731388762593">
        <ele>79.040000000000006</ele>
        <time>2026-04-25T10:15:29Z</time>
      </trkpt>
      <trkpt lat="59.077661102637649" lon="30.004567690193653">
        <ele>79.510000000000005</ele>
        <time>2026-04-25T10:15:42Z</time>
      </trkpt>
      <trkpt lat="59.077652301639318" lon="30.004395693540573">
        <ele>78.540000000000006</ele>
        <time>2026-04-25T10:15:56Z</time>
      </trkpt>
      <trkpt lat="59.077619444578886" lon="30.004154043272138">
        <ele>78.709999999999994</ele>
        <time>2026-04-25T10:16:13Z</time>
      </trkpt>
      <trkpt lat="59.077594550326467" lon="30.003991601988673">
        <ele>78.890000000000001</ele>
        <time>2026-04-25T10:16:27Z</time>
      </trkpt>
      <trkpt lat="59.077560603618622" lon="30.003894791007042">
        <ele>78.980000000000004</ele>
        <time>2026-04-25T10:16:38Z</time>
      </trkpt>
      <trkpt lat="59.077562196180224" lon="30.003770319744945">
        <ele>79.180000000000007</ele>
        <time>2026-04-25T10:16:49Z</time>
      </trkpt>
      <trkpt lat="59.077551551163197" lon="30.003797393292189">
        <ele>78.760000000000005</ele>
        <time>2026-04-25T10:17:11Z</time>
      </trkpt>
      <trkpt lat="59.077532272785902" lon="30.003807954490185">
        <ele>78.950000000000003</ele>
        <time>2026-04-25T10:17:46Z</time>
      </trkpt>
      <trkpt lat="59.077527746558189" lon="30.003779204562306">
        <ele>79.129999999999995</ele>
        <time>2026-04-25T10:18:41Z</time>
      </trkpt>
      <trkpt lat="59.077488770708442" lon="30.003706784918904">
        <ele>79.370000000000005</ele>
        <time>2026-04-25T10:18:52Z</time>
      </trkpt>
      <trkpt lat="59.077389277517796" lon="30.00369924120605">
        <ele>79.25</ele>
        <time>2026-04-25T10:19:07Z</time>
      </trkpt>
      <trkpt lat="59.077320965006948" lon="30.00378574244678">
        <ele>78.989999999999995</ele>
        <time>2026-04-25T10:19:19Z</time>
      </trkpt>
      <trkpt lat="59.077209150418639" lon="30.0038140732795">
        <ele>79.450000000000003</ele>
        <time>2026-04-25T10:19:35Z</time>
      </trkpt>
      <trkpt lat="59.07714712433517" lon="30.00390887260437">
        <ele>79.310000000000002</ele>
        <time>2026-04-25T10:19:49Z</time>
      </trkpt>
      <trkpt lat="59.077143687754869" lon="30.003923624753952">
        <ele>78.879999999999995</ele>
        <time>2026-04-25T10:20:17Z</time>
      </trkpt>
      <trkpt lat="59.077158020809293" lon="30.004083970561624">
        <ele>79.25</ele>
        <time>2026-04-25T10:20:43Z</time>
      </trkpt>
      <trkpt lat="59.077177383005619" lon="30.004197126254439">
        <ele>79.030000000000001</ele>
        <time>2026-04-25T10:20:53Z</time>
      </trkpt>
      <trkpt lat="59.077173778787255" lon="30.004379013553262">
        <ele>79.060000000000002</ele>
        <time>2026-04-25T10:21:08Z</time>
      </trkpt>
      <trkpt lat="59.077190291136503" lon="30.004400722682476">
        <ele>79.120000000000005</ele>
        <time>2026-04-25T10:21:11Z</time>
      </trkpt>
      <trkpt lat="59.077195655554533" lon="30.004588142037392">
        <ele>79.540000000000006</ele>
        <time>2026-04-25T10:21:25Z</time>
      </trkpt>
      <trkpt lat="59.077228512614965" lon="30.004775645211339">
        <ele>79.200000000000003</ele>
        <time>2026-04-25T10:21:39Z</time>
      </trkpt>
      <trkpt lat="59.07724728807807" lon="30.004962813109159">
        <ele>79.120000000000005</ele>
        <time>2026-04-25T10:21:54Z</time>
      </trkpt>
      <trkpt lat="59.077273774892092" lon="30.004984941333532">
        <ele>78.840000000000003</ele>
        <time>2026-04-25T10:21:58Z</time>
      </trkpt>
      <trkpt lat="59.077297998592257" lon="30.005072951316833">
        <ele>79.450000000000003</ele>
        <time>2026-04-25T10:22:07Z</time>
      </trkpt>
      <trkpt lat="59.07730738632381" lon="30.005255844444036">
        <ele>78.840000000000003</ele>
        <time>2026-04-25T10:22:21Z</time>
      </trkpt>
      <trkpt lat="59.077337309718132" lon="30.005393391475081">
        <ele>78.939999999999998</ele>
        <time>2026-04-25T10:22:33Z</time>
      </trkpt>
      <trkpt lat="59.07734795473516" lon="30.005518198013306">
        <ele>78.109999999999999</ele>
        <time>2026-04-25T10:22:46Z</time>
      </trkpt>
      <trkpt lat="59.077369915321469" lon="30.005594473332167">
        <ele>78.599999999999994</ele>
        <time>2026-04-25T10:22:59Z</time>
      </trkpt>
      <trkpt lat="59.077378381043673" lon="30.005653733387589">
        <ele>78.390000000000001</ele>
        <time>2026-04-25T10:23:12Z</time>
      </trkpt>
      <trkpt lat="59.077390618622303" lon="30.005707964301109">
        <ele>78.609999999999999</ele>
        <time>2026-04-25T10:23:23Z</time>
      </trkpt>
      <trkpt lat="59.07739925198257" lon="30.005855821073055">
        <ele>78.319999999999993</ele>
        <time>2026-04-25T10:23:36Z</time>
      </trkpt>
      <trkpt lat="59.077422972768545" lon="30.005997307598591">
        <ele>78.409999999999997</ele>
        <time>2026-04-25T10:23:48Z</time>
      </trkpt>
      <trkpt lat="59.077422302216291" lon="30.006066542118788">
        <ele>78.609999999999999</ele>
        <time>2026-04-25T10:23:59Z</time>
      </trkpt>
      <trkpt lat="59.077455494552851" lon="30.006235102191567">
        <ele>78.829999999999998</ele>
        <time>2026-04-25T10:24:14Z</time>
      </trkpt>
      <trkpt lat="59.077465049922466" lon="30.00632612966001">
        <ele>78.189999999999998</ele>
        <time>2026-04-25T10:24:29Z</time>
      </trkpt>
      <trkpt lat="59.077491872012615" lon="30.006446074694395">
        <ele>78.409999999999997</ele>
        <time>2026-04-25T10:24:40Z</time>
      </trkpt>
      <trkpt lat="59.077509557828307" lon="30.006542298942804">
        <ele>78.620000000000005</ele>
        <time>2026-04-25T10:24:55Z</time>
      </trkpt>
      <trkpt lat="59.077519364655018" lon="30.006551686674356">
        <ele>78.689999999999998</ele>
        <time>2026-04-25T10:25:22Z</time>
      </trkpt>
      <trkpt lat="59.077476114034653" lon="30.006555542349815">
        <ele>79.120000000000005</ele>
        <time>2026-04-25T10:25:46Z</time>
      </trkpt>
      <trkpt lat="59.077403862029314" lon="30.00654355622828">
        <ele>78.739999999999995</ele>
        <time>2026-04-25T10:26:01Z</time>
      </trkpt>
      <trkpt lat="59.077315097674727" lon="30.006562583148479">
        <ele>78.840000000000003</ele>
        <time>2026-04-25T10:26:16Z</time>
      </trkpt>
      <trkpt lat="59.077251311391592" lon="30.006553865969181">
        <ele>78.480000000000004</ele>
        <time>2026-04-25T10:26:30Z</time>
      </trkpt>
      <trkpt lat="59.077178221195936" lon="30.006590746343136">
        <ele>78.439999999999998</ele>
        <time>2026-04-25T10:26:44Z</time>
      </trkpt>
      <trkpt lat="59.077134719118476" lon="30.006597954779863">
        <ele>78.069999999999993</ele>
        <time>2026-04-25T10:27:00Z</time>
      </trkpt>
      <trkpt lat="59.077133378013968" lon="30.006582280620933">
        <ele>78.680000000000007</ele>
        <time>2026-04-25T10:27:48Z</time>
      </trkpt>
      <trkpt lat="59.077100353315473" lon="30.006463844329119">
        <ele>78.870000000000005</ele>
        <time>2026-04-25T10:28:10Z</time>
      </trkpt>
      <trkpt lat="59.0770782250911" lon="30.006273742765188">
        <ele>78.939999999999998</ele>
        <time>2026-04-25T10:28:26Z</time>
      </trkpt>
      <trkpt lat="59.077057018876076" lon="30.006097303703427">
        <ele>78.760000000000005</ele>
        <time>2026-04-25T10:28:43Z</time>
      </trkpt>
      <trkpt lat="59.077071100473404" lon="30.006003426387906">
        <ele>78.890000000000001</ele>
        <time>2026-04-25T10:28:58Z</time>
      </trkpt>
      <trkpt lat="59.077066071331501" lon="30.005909381434321">
        <ele>78.790000000000006</ele>
        <time>2026-04-25T10:29:09Z</time>
      </trkpt>
      <trkpt lat="59.077063808217645" lon="30.005820114165545">
        <ele>78.359999999999999</ele>
        <time>2026-04-25T10:29:21Z</time>
      </trkpt>
      <trkpt lat="59.077043188735843" lon="30.005726153030992">
        <ele>78.700000000000003</ele>
        <time>2026-04-25T10:29:35Z</time>
      </trkpt>
      <trkpt lat="59.077038243412971" lon="30.005693463608623">
        <ele>79.040000000000006</ele>
        <time>2026-04-25T10:29:48Z</time>
      </trkpt>
      <trkpt lat="59.077023323625326" lon="30.005604028701782">
        <ele>79.260000000000005</ele>
        <time>2026-04-25T10:30:05Z</time>
      </trkpt>
      <trkpt lat="59.077004799619317" lon="30.005564801394939">
        <ele>79.180000000000007</ele>
        <time>2026-04-25T10:30:15Z</time>
      </trkpt>
      <trkpt lat="59.077005386352539" lon="30.005512414500117">
        <ele>78.590000000000003</ele>
        <time>2026-04-25T10:30:30Z</time>
      </trkpt>
      <trkpt lat="59.076995495706797" lon="30.005449298769236">
        <ele>78.5</ele>
        <time>2026-04-25T10:30:41Z</time>
      </trkpt>
      <trkpt lat="59.076990382745862" lon="30.005375705659389">
        <ele>78.569999999999993</ele>
        <time>2026-04-25T10:30:55Z</time>
      </trkpt>
      <trkpt lat="59.076966745778918" lon="30.005350140854716">
        <ele>79.180000000000007</ele>
        <time>2026-04-25T10:31:08Z</time>
      </trkpt>
      <trkpt lat="59.07696733251214" lon="30.005349721759558">
        <ele>79.010000000000005</ele>
        <time>2026-04-25T10:31:26Z</time>
      </trkpt>
      <trkpt lat="59.076960626989603" lon="30.005224160850048">
        <ele>78.829999999999998</ele>
        <time>2026-04-25T10:31:42Z</time>
      </trkpt>
      <trkpt lat="59.076947886496782" lon="30.00509625300765">
        <ele>78.829999999999998</ele>
        <time>2026-04-25T10:31:55Z</time>
      </trkpt>
      <trkpt lat="59.076917124912143" lon="30.004968764260411">
        <ele>78.780000000000001</ele>
        <time>2026-04-25T10:32:08Z</time>
      </trkpt>
      <trkpt lat="59.076879238709807" lon="30.004780255258083">
        <ele>79.079999999999998</ele>
        <time>2026-04-25T10:32:26Z</time>
      </trkpt>
      <trkpt lat="59.076836491003633" lon="30.004653939977288">
        <ele>79.269999999999996</ele>
        <time>2026-04-25T10:32:39Z</time>
      </trkpt>
      <trkpt lat="59.076805226504803" lon="30.004486385732889">
        <ele>79.170000000000002</ele>
        <time>2026-04-25T10:32:55Z</time>
      </trkpt>
      <trkpt lat="59.076811848208308" lon="30.00435646623373">
        <ele>79.099999999999994</ele>
        <time>2026-04-25T10:33:10Z</time>
      </trkpt>
      <trkpt lat="59.076818553730845" lon="30.004185894504189">
        <ele>78.849999999999994</ele>
        <time>2026-04-25T10:33:25Z</time>
      </trkpt>
      <trkpt lat="59.076790725812316" lon="30.004076091572642">
        <ele>79.040000000000006</ele>
        <time>2026-04-25T10:33:42Z</time>
      </trkpt>
      <trkpt lat="59.076733645051718" lon="30.00405790284276">
        <ele>79.459999999999994</ele>
        <time>2026-04-25T10:34:22Z</time>
      </trkpt>
      <trkpt lat="59.076672289520502" lon="30.00404910184443">
        <ele>79.310000000000002</ele>
        <time>2026-04-25T10:34:36Z</time>
      </trkpt>
      <trkpt lat="59.076611185446382" lon="30.004028733819723">
        <ele>79.590000000000003</ele>
        <time>2026-04-25T10:34:49Z</time>
      </trkpt>
      <trkpt lat="59.076521918177605" lon="30.004076929762959">
        <ele>79.879999999999995</ele>
        <time>2026-04-25T10:35:03Z</time>
      </trkpt>
      <trkpt lat="59.076462993398309" lon="30.004173489287496">
        <ele>79.530000000000001</ele>
        <time>2026-04-25T10:35:16Z</time>
      </trkpt>
      <trkpt lat="59.076424101367593" lon="30.004213554784656">
        <ele>79.519999999999996</ele>
        <time>2026-04-25T10:35:28Z</time>
      </trkpt>
      <trkpt lat="59.076423095539212" lon="30.004285722970963">
        <ele>79.439999999999998</ele>
        <time>2026-04-25T10:36:00Z</time>
      </trkpt>
      <trkpt lat="59.07646450214088" lon="30.004544472321868">
        <ele>79.230000000000004</ele>
        <time>2026-04-25T10:36:18Z</time>
      </trkpt>
      <trkpt lat="59.076463747769594" lon="30.004568360745907">
        <ele>78.879999999999995</ele>
        <time>2026-04-25T10:36:31Z</time>
      </trkpt>
      <trkpt lat="59.076478835195303" lon="30.004680845886469">
        <ele>79.150000000000006</ele>
        <time>2026-04-25T10:36:49Z</time>
      </trkpt>
      <trkpt lat="59.076495599001646" lon="30.004881592467427">
        <ele>79.150000000000006</ele>
        <time>2026-04-25T10:37:05Z</time>
      </trkpt>
      <trkpt lat="59.076497610658407" lon="30.005020648241043">
        <ele>78.909999999999997</ele>
        <time>2026-04-25T10:37:19Z</time>
      </trkpt>
      <trkpt lat="59.076502891257405" lon="30.005162470042706">
        <ele>79.280000000000001</ele>
        <time>2026-04-25T10:37:31Z</time>
      </trkpt>
      <trkpt lat="59.076556116342545" lon="30.005279732868075">
        <ele>79.060000000000002</ele>
        <time>2026-04-25T10:37:46Z</time>
      </trkpt>
      <trkpt lat="59.076562570407987" lon="30.00532834790647">
        <ele>79.370000000000005</ele>
        <time>2026-04-25T10:38:02Z</time>
      </trkpt>
      <trkpt lat="59.076561983674765" lon="30.005339663475752">
        <ele>79.180000000000007</ele>
        <time>2026-04-25T10:38:16Z</time>
      </trkpt>
      <trkpt lat="59.076569695025682" lon="30.005346536636353">
        <ele>79.390000000000001</ele>
        <time>2026-04-25T10:38:32Z</time>
      </trkpt>
      <trkpt lat="59.076578160747886" lon="30.005343183875084">
        <ele>79.079999999999998</ele>
        <time>2026-04-25T10:38:53Z</time>
      </trkpt>
      <trkpt lat="59.07656466588378" lon="30.005500260740519">
        <ele>79.140000000000001</ele>
        <time>2026-04-25T10:39:08Z</time>
      </trkpt>
      <trkpt lat="59.076565336436033" lon="30.005664462223649">
        <ele>78.969999999999999</ele>
        <time>2026-04-25T10:39:22Z</time>
      </trkpt>
      <trkpt lat="59.076572293415666" lon="30.005800500512123">
        <ele>79.219999999999999</ele>
        <time>2026-04-25T10:39:36Z</time>
      </trkpt>
      <trkpt lat="59.07661403529346" lon="30.005961013957858">
        <ele>78.939999999999998</ele>
        <time>2026-04-25T10:39:50Z</time>
      </trkpt>
      <trkpt lat="59.076658794656396" lon="30.006129574030638">
        <ele>78.799999999999997</ele>
        <time>2026-04-25T10:40:05Z</time>
      </trkpt>
      <trkpt lat="59.076687125489116" lon="30.006347419694066">
        <ele>78.790000000000006</ele>
        <time>2026-04-25T10:40:21Z</time>
      </trkpt>
      <trkpt lat="59.076692992821336" lon="30.006545903161168">
        <ele>78.920000000000002</ele>
        <time>2026-04-25T10:40:37Z</time>
      </trkpt>
      <trkpt lat="59.076713696122169" lon="30.006703650578856">
        <ele>78.569999999999993</ele>
        <time>2026-04-25T10:40:51Z</time>
      </trkpt>
      <trkpt lat="59.076726017519832" lon="30.006774896755815">
        <ele>78.569999999999993</ele>
        <time>2026-04-25T10:41:10Z</time>
      </trkpt>
      <trkpt lat="59.076652592048049" lon="30.006780512630939">
        <ele>78.810000000000002</ele>
        <time>2026-04-25T10:41:28Z</time>
      </trkpt>
      <trkpt lat="59.076564917340875" lon="30.006711948662996">
        <ele>78.579999999999998</ele>
        <time>2026-04-25T10:41:45Z</time>
      </trkpt>
      <trkpt lat="59.076457377523184" lon="30.006756540387869">
        <ele>78</ele>
        <time>2026-04-25T10:42:01Z</time>
      </trkpt>
      <trkpt lat="59.076345646753907" lon="30.006852177903056">
        <ele>78.989999999999995</ele>
        <time>2026-04-25T10:42:18Z</time>
      </trkpt>
      <trkpt lat="59.076323267072439" lon="30.00688754953444">
        <ele>78.659999999999997</ele>
        <time>2026-04-25T10:42:40Z</time>
      </trkpt>
      <trkpt lat="59.076297953724861" lon="30.006751595064998">
        <ele>78.709999999999994</ele>
        <time>2026-04-25T10:43:02Z</time>
      </trkpt>
      <trkpt lat="59.076289823278785" lon="30.006621340289712">
        <ele>78.700000000000003</ele>
        <time>2026-04-25T10:43:19Z</time>
      </trkpt>
      <trkpt lat="59.076293678954244" lon="30.00661731697619">
        <ele>78.549999999999997</ele>
        <time>2026-04-25T10:43:38Z</time>
      </trkpt>
      <trkpt lat="59.076290661469102" lon="30.006629219278693">
        <ele>79.599999999999994</ele>
        <time>2026-04-25T10:43:56Z</time>
      </trkpt>
      <trkpt lat="59.076289320364594" lon="30.00661488622427">
        <ele>78.650000000000006</ele>
        <time>2026-04-25T10:44:27Z</time>
      </trkpt>
      <trkpt lat="59.076311532407999" lon="30.006598541513085">
        <ele>79.140000000000001</ele>
        <time>2026-04-25T10:44:57Z</time>
      </trkpt>
      <trkpt lat="59.076263252645731" lon="30.006676577031612">
        <ele>79.140000000000001</ele>
        <time>2026-04-25T10:45:35Z</time>
      </trkpt>
      <trkpt lat="59.076281441375613" lon="30.00668722204864">
        <ele>78.849999999999994</ele>
        <time>2026-04-25T10:46:03Z</time>
      </trkpt>
      <trkpt lat="59.076297031715512" lon="30.00663542188704">
        <ele>78.680000000000007</ele>
        <time>2026-04-25T10:46:34Z</time>
      </trkpt>
      <trkpt lat="59.076308850198984" lon="30.006582951173186">
        <ele>78.609999999999999</ele>
        <time>2026-04-25T10:47:07Z</time>
      </trkpt>
      <trkpt lat="59.076297450810671" lon="30.00666425563395">
        <ele>79.140000000000001</ele>
        <time>2026-04-25T10:47:36Z</time>
      </trkpt>
      <trkpt lat="59.076316226273775" lon="30.006671715527773">
        <ele>79.810000000000002</ele>
        <time>2026-04-25T10:48:06Z</time>
      </trkpt>
      <trkpt lat="59.076329888775945" lon="30.006651934236288">
        <ele>79.370000000000005</ele>
        <time>2026-04-25T10:48:37Z</time>
      </trkpt>
      <trkpt lat="59.076316561549902" lon="30.006667356938124">
        <ele>79.140000000000001</ele>
        <time>2026-04-25T10:49:07Z</time>
      </trkpt>
      <trkpt lat="59.076276747509837" lon="30.006559817120433">
        <ele>79.430000000000007</ele>
        <time>2026-04-25T10:49:33Z</time>
      </trkpt>
      <trkpt lat="59.076240118592978" lon="30.006333338096738">
        <ele>78.890000000000001</ele>
        <time>2026-04-25T10:49:49Z</time>
      </trkpt>
      <trkpt lat="59.076218828558922" lon="30.00610132701695">
        <ele>79.019999999999996</ele>
        <time>2026-04-25T10:50:05Z</time>
      </trkpt>
      <trkpt lat="59.076209189370275" lon="30.005956320092082">
        <ele>79.049999999999997</ele>
        <time>2026-04-25T10:50:20Z</time>
      </trkpt>
      <trkpt lat="59.076190078631043" lon="30.005733612924814">
        <ele>78.939999999999998</ele>
        <time>2026-04-25T10:50:37Z</time>
      </trkpt>
      <trkpt lat="59.076164597645402" lon="30.005552815273404">
        <ele>78.989999999999995</ele>
        <time>2026-04-25T10:50:52Z</time>
      </trkpt>
      <trkpt lat="59.076137691736221" lon="30.005348883569241">
        <ele>78.920000000000002</ele>
        <time>2026-04-25T10:51:07Z</time>
      </trkpt>
      <trkpt lat="59.076126292347908" lon="30.005137156695127">
        <ele>78.859999999999999</ele>
        <time>2026-04-25T10:51:23Z</time>
      </trkpt>
      <trkpt lat="59.076107768341899" lon="30.005038250237703">
        <ele>78.590000000000003</ele>
        <time>2026-04-25T10:51:35Z</time>
      </trkpt>
      <trkpt lat="59.07610391266644" lon="30.004878658801317">
        <ele>79.120000000000005</ele>
        <time>2026-04-25T10:51:50Z</time>
      </trkpt>
      <trkpt lat="59.076080108061433" lon="30.004738345742226">
        <ele>79.099999999999994</ele>
        <time>2026-04-25T10:52:03Z</time>
      </trkpt>
      <trkpt lat="59.076022608205676" lon="30.004575066268444">
        <ele>79.319999999999993</ele>
        <time>2026-04-25T10:52:18Z</time>
      </trkpt>
      <trkpt lat="59.076014561578631" lon="30.004444140940905">
        <ele>79.209999999999994</ele>
        <time>2026-04-25T10:52:30Z</time>
      </trkpt>
      <trkpt lat="59.075999641790986" lon="30.004350012168288">
        <ele>78.859999999999999</ele>
        <time>2026-04-25T10:52:48Z</time>
      </trkpt>
      <trkpt lat="59.075927054509521" lon="30.004332829266787">
        <ele>79.010000000000005</ele>
        <time>2026-04-25T10:53:24Z</time>
      </trkpt>
      <trkpt lat="59.075861256569624" lon="30.004392256960273">
        <ele>79.370000000000005</ele>
        <time>2026-04-25T10:53:35Z</time>
      </trkpt>
      <trkpt lat="59.075824962928891" lon="30.004423186182976">
        <ele>78.859999999999999</ele>
        <time>2026-04-25T10:53:49Z</time>
      </trkpt>
      <trkpt lat="59.075757404789329" lon="30.004477752372622">
        <ele>79.359999999999999</ele>
        <time>2026-04-25T10:54:03Z</time>
      </trkpt>
      <trkpt lat="59.075667969882488" lon="30.004494097083807">
        <ele>79.120000000000005</ele>
        <time>2026-04-25T10:54:17Z</time>
      </trkpt>
      <trkpt lat="59.075623461976647" lon="30.00451429747045">
        <ele>79.439999999999998</ele>
        <time>2026-04-25T10:54:29Z</time>
      </trkpt>
      <trkpt lat="59.075636370107532" lon="30.004569701850414">
        <ele>79.150000000000006</ele>
        <time>2026-04-25T10:55:08Z</time>
      </trkpt>
      <trkpt lat="59.075645757839084" lon="30.004592752084136">
        <ele>79.260000000000005</ele>
        <time>2026-04-25T10:55:29Z</time>
      </trkpt>
      <trkpt lat="59.075658330693841" lon="30.004719570279121">
        <ele>79.370000000000005</ele>
        <time>2026-04-25T10:55:42Z</time>
      </trkpt>
      <trkpt lat="59.07567098736763" lon="30.004791403189301">
        <ele>79.260000000000005</ele>
        <time>2026-04-25T10:55:56Z</time>
      </trkpt>
      <trkpt lat="59.075663946568966" lon="30.004808166995645">
        <ele>79.329999999999998</ele>
        <time>2026-04-25T10:56:19Z</time>
      </trkpt>
      <trkpt lat="59.075698899105191" lon="30.004866505041718">
        <ele>79.670000000000002</ele>
        <time>2026-04-25T10:56:38Z</time>
      </trkpt>
      <trkpt lat="59.075669981539249" lon="30.004972200840712">
        <ele>79.349999999999994</ele>
        <time>2026-04-25T10:56:51Z</time>
      </trkpt>
      <trkpt lat="59.07567149028182" lon="30.0051074847579">
        <ele>79.459999999999994</ele>
        <time>2026-04-25T10:57:05Z</time>
      </trkpt>
      <trkpt lat="59.075698144733906" lon="30.005273530259728">
        <ele>79.379999999999995</ele>
        <time>2026-04-25T10:57:21Z</time>
      </trkpt>
      <trkpt lat="59.075736114755273" lon="30.005443012341857">
        <ele>79.099999999999994</ele>
        <time>2026-04-25T10:57:37Z</time>
      </trkpt>
      <trkpt lat="59.075748771429062" lon="30.005618026480079">
        <ele>79.769999999999996</ele>
        <time>2026-04-25T10:57:51Z</time>
      </trkpt>
      <trkpt lat="59.075765535235405" lon="30.005763033404946">
        <ele>79.390000000000001</ele>
        <time>2026-04-25T10:58:03Z</time>
      </trkpt>
      <trkpt lat="59.075782718136907" lon="30.005939640104771">
        <ele>79.430000000000007</ele>
        <time>2026-04-25T10:58:19Z</time>
      </trkpt>
      <trkpt lat="59.07581222243607" lon="30.006102919578552">
        <ele>79.400000000000006</ele>
        <time>2026-04-25T10:58:33Z</time>
      </trkpt>
      <trkpt lat="59.075860166922212" lon="30.006291260942817">
        <ele>79.689999999999998</ele>
        <time>2026-04-25T10:58:49Z</time>
      </trkpt>
      <trkpt lat="59.075906602665782" lon="30.006497791036963">
        <ele>79.760000000000005</ele>
        <time>2026-04-25T10:59:06Z</time>
      </trkpt>
      <trkpt lat="59.075885815545917" lon="30.006741620600224">
        <ele>79.459999999999994</ele>
        <time>2026-04-25T10:59:24Z</time>
      </trkpt>
      <trkpt lat="59.075909117236733" lon="30.006943121552467">
        <ele>79.719999999999999</ele>
        <time>2026-04-25T10:59:40Z</time>
      </trkpt>
      <trkpt lat="59.07591188326478" lon="30.00704144127667">
        <ele>79.75</ele>
        <time>2026-04-25T10:59:55Z</time>
      </trkpt>
      <trkpt lat="59.075854886323214" lon="30.007031131535769">
        <ele>79.579999999999998</ele>
        <time>2026-04-25T11:00:26Z</time>
      </trkpt>
      <trkpt lat="59.075790010392666" lon="30.007039429619908">
        <ele>79.420000000000002</ele>
        <time>2026-04-25T11:00:42Z</time>
      </trkpt>
      <trkpt lat="59.075769642367959" lon="30.007051583379507">
        <ele>79.310000000000002</ele>
        <time>2026-04-25T11:00:51Z</time>
      </trkpt>
      <trkpt lat="59.075727229937911" lon="30.007078656926751">
        <ele>79.579999999999998</ele>
        <time>2026-04-25T11:01:14Z</time>
      </trkpt>
      <trkpt lat="59.075607368722558" lon="30.00709374435246">
        <ele>78.75</ele>
        <time>2026-04-25T11:01:32Z</time>
      </trkpt>
      <trkpt lat="59.075491530820727" lon="30.007110508158803">
        <ele>79</ele>
        <time>2026-04-25T11:01:50Z</time>
      </trkpt>
      <trkpt lat="59.075482478365302" lon="30.007097432389855">
        <ele>78.739999999999995</ele>
        <time>2026-04-25T11:02:15Z</time>
      </trkpt>
      <trkpt lat="59.075455237179995" lon="30.006991233676672">
        <ele>78.760000000000005</ele>
        <time>2026-04-25T11:02:39Z</time>
      </trkpt>
      <trkpt lat="59.075445514172316" lon="30.006705494597554">
        <ele>78.980000000000004</ele>
        <time>2026-04-25T11:02:59Z</time>
      </trkpt>
      <trkpt lat="59.075413914397359" lon="30.006468705832958">
        <ele>78.849999999999994</ele>
        <time>2026-04-25T11:03:17Z</time>
      </trkpt>
      <trkpt lat="59.075409136712551" lon="30.0064164865762">
        <ele>78.730000000000004</ele>
        <time>2026-04-25T11:03:21Z</time>
      </trkpt>
      <trkpt lat="59.075393714010715" lon="30.006200820207596">
        <ele>78.439999999999998</ele>
        <time>2026-04-25T11:03:37Z</time>
      </trkpt>
      <trkpt lat="59.075389690697193" lon="30.006043240427971">
        <ele>78.819999999999993</ele>
        <time>2026-04-25T11:03:53Z</time>
      </trkpt>
      <trkpt lat="59.075371418148279" lon="30.005920445546508">
        <ele>78.560000000000002</ele>
        <time>2026-04-25T11:04:07Z</time>
      </trkpt>
      <trkpt lat="59.075359515845776" lon="30.00579253770411">
        <ele>78.590000000000003</ele>
        <time>2026-04-25T11:04:27Z</time>
      </trkpt>
      <trkpt lat="59.075364293530583" lon="30.005695642903447">
        <ele>77.879999999999995</ele>
        <time>2026-04-25T11:04:39Z</time>
      </trkpt>
      <trkpt lat="59.075366975739598" lon="30.005595562979579">
        <ele>78.480000000000004</ele>
        <time>2026-04-25T11:04:50Z</time>
      </trkpt>
      <trkpt lat="59.075344512239099" lon="30.005423231050372">
        <ele>78.150000000000006</ele>
        <time>2026-04-25T11:05:05Z</time>
      </trkpt>
      <trkpt lat="59.075320456176996" lon="30.005223574116826">
        <ele>78.239999999999995</ele>
        <time>2026-04-25T11:05:21Z</time>
      </trkpt>
      <trkpt lat="59.075283911079168" lon="30.005048559978604">
        <ele>78.700000000000003</ele>
        <time>2026-04-25T11:05:36Z</time>
      </trkpt>
      <trkpt lat="59.075274188071489" lon="30.004767682403326">
        <ele>78.700000000000003</ele>
        <time>2026-04-25T11:05:56Z</time>
      </trkpt>
      <trkpt lat="59.07527326606214" lon="30.004605744034052">
        <ele>78.719999999999999</ele>
        <time>2026-04-25T11:06:11Z</time>
      </trkpt>
      <trkpt lat="59.075236888602376" lon="30.00460566021502">
        <ele>78.450000000000003</ele>
        <time>2026-04-25T11:06:47Z</time>
      </trkpt>
      <trkpt lat="59.0751544944942" lon="30.004661818966269">
        <ele>78.620000000000005</ele>
        <time>2026-04-25T11:07:01Z</time>
      </trkpt>
      <trkpt lat="59.075128845870495" lon="30.004670033231378">
        <ele>78.489999999999995</ele>
        <time>2026-04-25T11:07:15Z</time>
      </trkpt>
      <trkpt lat="59.075059862807393" lon="30.004731891676784">
        <ele>79.329999999999998</ele>
        <time>2026-04-25T11:07:40Z</time>
      </trkpt>
      <trkpt lat="59.074940588325262" lon="30.004724934697151">
        <ele>79.319999999999993</ele>
        <time>2026-04-25T11:07:57Z</time>
      </trkpt>
      <trkpt lat="59.074891470372677" lon="30.004776064306498">
        <ele>79.260000000000005</ele>
        <time>2026-04-25T11:08:08Z</time>
      </trkpt>
      <trkpt lat="59.074885686859488" lon="30.004842365160584">
        <ele>78.980000000000004</ele>
        <time>2026-04-25T11:08:44Z</time>
      </trkpt>
      <trkpt lat="59.074886608868837" lon="30.004982678219676">
        <ele>78.769999999999996</ele>
        <time>2026-04-25T11:08:58Z</time>
      </trkpt>
      <trkpt lat="59.074912508949637" lon="30.005170935764909">
        <ele>78.599999999999994</ele>
        <time>2026-04-25T11:09:13Z</time>
      </trkpt>
      <trkpt lat="59.074957016855478" lon="30.005407053977251">
        <ele>78.269999999999996</ele>
        <time>2026-04-25T11:09:30Z</time>
      </trkpt>
      <trkpt lat="59.075000938028097" lon="30.00552766956389">
        <ele>78.709999999999994</ele>
        <time>2026-04-25T11:09:42Z</time>
      </trkpt>
      <trkpt lat="59.074989454820752" lon="30.005723722279072">
        <ele>78.510000000000005</ele>
        <time>2026-04-25T11:09:57Z</time>
      </trkpt>
      <trkpt lat="59.075006218627095" lon="30.005892030894756">
        <ele>78.829999999999998</ele>
        <time>2026-04-25T11:10:11Z</time>
      </trkpt>
      <trkpt lat="59.075011918321252" lon="30.006083892658353">
        <ele>78.579999999999998</ele>
        <time>2026-04-25T11:10:25Z</time>
      </trkpt>
      <trkpt lat="59.075009906664491" lon="30.006202328950167">
        <ele>77.829999999999998</ele>
        <time>2026-04-25T11:10:39Z</time>
      </trkpt>
      <trkpt lat="59.075005045160651" lon="30.006226971745491">
        <ele>78.459999999999994</ele>
        <time>2026-04-25T11:10:58Z</time>
      </trkpt>
      <trkpt lat="59.07501719892025" lon="30.0063163228333">
        <ele>78.409999999999997</ele>
        <time>2026-04-25T11:11:16Z</time>
      </trkpt>
      <trkpt lat="59.075041841715574" lon="30.00645219348371">
        <ele>78.670000000000002</ele>
        <time>2026-04-25T11:11:34Z</time>
      </trkpt>
      <trkpt lat="59.075064137578011" lon="30.006719240918756">
        <ele>78.75</ele>
        <time>2026-04-25T11:11:53Z</time>
      </trkpt>
      <trkpt lat="59.075063299387693" lon="30.006771963089705">
        <ele>79</ele>
        <time>2026-04-25T11:11:57Z</time>
      </trkpt>
      <trkpt lat="59.07504896633327" lon="30.00699358060956">
        <ele>78.75</ele>
        <time>2026-04-25T11:12:14Z</time>
      </trkpt>
      <trkpt lat="59.07505483366549" lon="30.007176976650953">
        <ele>78.599999999999994</ele>
        <time>2026-04-25T11:12:29Z</time>
      </trkpt>
      <trkpt lat="59.075064808130264" lon="30.007298346608877">
        <ele>78.75</ele>
        <time>2026-04-25T11:12:45Z</time>
      </trkpt>
      <trkpt lat="59.075015438720584" lon="30.007277308031917">
        <ele>78.659999999999997</ele>
        <time>2026-04-25T11:13:31Z</time>
      </trkpt>
      <trkpt lat="59.074935726821423" lon="30.007297173142433">
        <ele>78.629999999999995</ele>
        <time>2026-04-25T11:13:44Z</time>
      </trkpt>
      <trkpt lat="59.074867330491543" lon="30.007367832586169">
        <ele>78.689999999999998</ele>
        <time>2026-04-25T11:13:57Z</time>
      </trkpt>
      <trkpt lat="59.074793066829443" lon="30.007393732666969">
        <ele>78.5</ele>
        <time>2026-04-25T11:14:11Z</time>
      </trkpt>
      <trkpt lat="59.074689550325274" lon="30.007421309128404">
        <ele>78.859999999999999</ele>
        <time>2026-04-25T11:14:28Z</time>
      </trkpt>
      <trkpt lat="59.074682174250484" lon="30.007406724616885">
        <ele>78.739999999999995</ele>
        <time>2026-04-25T11:14:51Z</time>
      </trkpt>
      <trkpt lat="59.074683347716928" lon="30.007327431812882">
        <ele>78.560000000000002</ele>
        <time>2026-04-25T11:15:06Z</time>
      </trkpt>
      <trkpt lat="59.074682174250484" lon="30.007266998291016">
        <ele>78.469999999999999</ele>
        <time>2026-04-25T11:15:22Z</time>
      </trkpt>
      <trkpt lat="59.074681084603071" lon="30.007174462080002">
        <ele>78.569999999999993</ele>
        <time>2026-04-25T11:15:43Z</time>
      </trkpt>
      <trkpt lat="59.074678402394056" lon="30.007087541744113">
        <ele>78.540000000000006</ele>
        <time>2026-04-25T11:15:59Z</time>
      </trkpt>
      <trkpt lat="59.074673540890217" lon="30.00704781152308">
        <ele>78.430000000000007</ele>
        <time>2026-04-25T11:16:16Z</time>
      </trkpt>
      <trkpt lat="59.074664656072855" lon="30.007037585601211">
        <ele>78.609999999999999</ele>
        <time>2026-04-25T11:16:37Z</time>
      </trkpt>
      <trkpt lat="59.074664739891887" lon="30.007024426013231">
        <ele>78.730000000000004</ele>
        <time>2026-04-25T11:16:57Z</time>
      </trkpt>
      <trkpt lat="59.074673540890217" lon="30.007023084908724">
        <ele>78.290000000000006</ele>
        <time>2026-04-25T11:17:23Z</time>
      </trkpt>
      <trkpt lat="59.074660381302238" lon="30.007029371336102">
        <ele>77.769999999999996</ele>
        <time>2026-04-25T11:17:48Z</time>
      </trkpt>
      <trkpt lat="59.074661303311586" lon="30.007020737975836">
        <ele>78.329999999999998</ele>
        <time>2026-04-25T11:18:23Z</time>
      </trkpt>
      <trkpt lat="59.074652837589383" lon="30.006985869258642">
        <ele>78.409999999999997</ele>
        <time>2026-04-25T11:18:51Z</time>
      </trkpt>
      <trkpt lat="59.074656022712588" lon="30.006948653608561">
        <ele>77.609999999999999</ele>
        <time>2026-04-25T11:19:21Z</time>
      </trkpt>
      <trkpt lat="59.074638923630118" lon="30.006954353302717">
        <ele>77.239999999999995</ele>
        <time>2026-04-25T11:19:43Z</time>
      </trkpt>
      <trkpt lat="59.074643533676863" lon="30.006976732984185">
        <ele>78.219999999999999</ele>
        <time>2026-04-25T11:20:11Z</time>
      </trkpt>
      <trkpt lat="59.074641186743975" lon="30.007022498175502">
        <ele>77.730000000000004</ele>
        <time>2026-04-25T11:20:42Z</time>
      </trkpt>
      <trkpt lat="59.074655771255493" lon="30.00688998028636">
        <ele>77.239999999999995</ele>
        <time>2026-04-25T11:21:06Z</time>
      </trkpt>
      <trkpt lat="59.074634732678533" lon="30.006650509312749">
        <ele>77.269999999999996</ele>
        <time>2026-04-25T11:21:23Z</time>
      </trkpt>
      <trkpt lat="59.074608078226447" lon="30.006435681134462">
        <ele>76.659999999999997</ele>
        <time>2026-04-25T11:21:39Z</time>
      </trkpt>
      <trkpt lat="59.074584022164345" lon="30.00631146132946">
        <ele>76.909999999999997</ele>
        <time>2026-04-25T11:21:52Z</time>
      </trkpt>
      <trkpt lat="59.074569940567017" lon="30.006137872114778">
        <ele>76.969999999999999</ele>
        <time>2026-04-25T11:22:10Z</time>
      </trkpt>
      <trkpt lat="59.074549237266183" lon="30.006006443873048">
        <ele>77.180000000000007</ele>
        <time>2026-04-25T11:22:22Z</time>
      </trkpt>
      <trkpt lat="59.074523001909256" lon="30.005827154964209">
        <ele>76.829999999999998</ele>
        <time>2026-04-25T11:22:38Z</time>
      </trkpt>
      <trkpt lat="59.074517218396068" lon="30.005657756701112">
        <ele>76.730000000000004</ele>
        <time>2026-04-25T11:22:53Z</time>
      </trkpt>
      <trkpt lat="59.074496012181044" lon="30.005566729232669">
        <ele>76.989999999999995</ele>
        <time>2026-04-25T11:23:09Z</time>
      </trkpt>
      <trkpt lat="59.074436500668526" lon="30.005468828603625">
        <ele>76.780000000000001</ele>
        <time>2026-04-25T11:23:23Z</time>
      </trkpt>
      <trkpt lat="59.074424263089895" lon="30.00528140924871">
        <ele>76.909999999999997</ele>
        <time>2026-04-25T11:23:38Z</time>
      </trkpt>
      <trkpt lat="59.074415881186724" lon="30.005153752863407">
        <ele>76.689999999999998</ele>
        <time>2026-04-25T11:23:51Z</time>
      </trkpt>
      <trkpt lat="59.074460975825787" lon="30.005011595785618">
        <ele>76.569999999999993</ele>
        <time>2026-04-25T11:24:05Z</time>
      </trkpt>
      <trkpt lat="59.07444060780108" lon="30.004939176142216">
        <ele>77.019999999999996</ele>
        <time>2026-04-25T11:24:13Z</time>
      </trkpt>
      <trkpt lat="59.074436500668526" lon="30.00490078702569">
        <ele>76.530000000000001</ele>
        <time>2026-04-25T11:24:27Z</time>
      </trkpt>
      <trkpt lat="59.074398195371032" lon="30.004939343780279">
        <ele>77.049999999999997</ele>
        <time>2026-04-25T11:24:58Z</time>
      </trkpt>
      <trkpt lat="59.0743463113904" lon="30.004940014332533">
        <ele>76.650000000000006</ele>
        <time>2026-04-25T11:25:12Z</time>
      </trkpt>
      <trkpt lat="59.074274143204093" lon="30.005070939660072">
        <ele>76.659999999999997</ele>
        <time>2026-04-25T11:25:28Z</time>
      </trkpt>
      <trkpt lat="59.074247907847166" lon="30.005028024315834">
        <ele>76.510000000000005</ele>
        <time>2026-04-25T11:25:39Z</time>
      </trkpt>
      <trkpt lat="59.074178589507937" lon="30.004999609664083">
        <ele>76.519999999999996</ele>
        <time>2026-04-25T11:25:52Z</time>
      </trkpt>
      <trkpt lat="59.074082616716623" lon="30.005099019035697">
        <ele>76.760000000000005</ele>
        <time>2026-04-25T11:26:07Z</time>
      </trkpt>
      <trkpt lat="59.074058141559362" lon="30.005116956308484">
        <ele>76.609999999999999</ele>
        <time>2026-04-25T11:26:24Z</time>
      </trkpt>
      <trkpt lat="59.074047245085239" lon="30.005126092582941">
        <ele>75.890000000000001</ele>
        <time>2026-04-25T11:26:49Z</time>
      </trkpt>
      <trkpt lat="59.074042299762368" lon="30.00513045117259">
        <ele>76.290000000000006</ele>
        <time>2026-04-25T11:27:19Z</time>
      </trkpt>
      <trkpt lat="59.074052106589079" lon="30.005200356245041">
        <ele>76.450000000000003</ele>
        <time>2026-04-25T11:27:35Z</time>
      </trkpt>
      <trkpt lat="59.074079180136323" lon="30.005248636007309">
        <ele>76.260000000000005</ele>
        <time>2026-04-25T11:27:49Z</time>
      </trkpt>
      <trkpt lat="59.074105750769377" lon="30.005187531933188">
        <ele>75.930000000000007</ele>
        <time>2026-04-25T11:28:04Z</time>
      </trkpt>
      <trkpt lat="59.074105499312282" lon="30.005164481699467">
        <ele>76.450000000000003</ele>
        <time>2026-04-25T11:28:30Z</time>
      </trkpt>
      <trkpt lat="59.074071552604437" lon="30.005306806415319">
        <ele>76.280000000000001</ele>
        <time>2026-04-25T11:28:48Z</time>
      </trkpt>
      <trkpt lat="59.074070295318961" lon="30.005318876355886">
        <ele>76.230000000000004</ele>
        <time>2026-04-25T11:29:00Z</time>
      </trkpt>
      <trkpt lat="59.07410642132163" lon="30.005494644865394">
        <ele>76.280000000000001</ele>
        <time>2026-04-25T11:29:15Z</time>
      </trkpt>
      <trkpt lat="59.07411907799542" lon="30.005586929619312">
        <ele>76.170000000000002</ele>
        <time>2026-04-25T11:29:23Z</time>
      </trkpt>
      <trkpt lat="59.074134500697255" lon="30.005620624870062">
        <ele>76.299999999999997</ele>
        <time>2026-04-25T11:29:38Z</time>
      </trkpt>
      <trkpt lat="59.074155706912279" lon="30.005545439198613">
        <ele>76.230000000000004</ele>
        <time>2026-04-25T11:29:54Z</time>
      </trkpt>
      <trkpt lat="59.074217565357685" lon="30.005539739504457">
        <ele>76.230000000000004</ele>
        <time>2026-04-25T11:30:07Z</time>
      </trkpt>
      <trkpt lat="59.074252434074879" lon="30.005489699542522">
        <ele>76.010000000000005</ele>
        <time>2026-04-25T11:30:28Z</time>
      </trkpt>
      <trkpt lat="59.074244135990739" lon="30.005448963493109">
        <ele>76.200000000000003</ele>
        <time>2026-04-25T11:30:53Z</time>
      </trkpt>
      <trkpt lat="59.074255870655179" lon="30.005449466407299">
        <ele>75.840000000000003</ele>
        <time>2026-04-25T11:31:12Z</time>
      </trkpt>
      <trkpt lat="59.074252685531974" lon="30.005450723692775">
        <ele>75.620000000000005</ele>
        <time>2026-04-25T11:31:31Z</time>
      </trkpt>
      <trkpt lat="59.074239358305931" lon="30.005452400073409">
        <ele>75.540000000000006</ele>
        <time>2026-04-25T11:31:55Z</time>
      </trkpt>
      <trkpt lat="59.074249668046832" lon="30.00545927323401">
        <ele>75.719999999999999</ele>
        <time>2026-04-25T11:32:23Z</time>
      </trkpt>
      <trkpt lat="59.074311694130301" lon="30.005414765328169">
        <ele>75.849999999999994</ele>
        <time>2026-04-25T11:32:59Z</time>
      </trkpt>
      <trkpt lat="59.074299959465861" lon="30.005431780591607">
        <ele>75.129999999999995</ele>
        <time>2026-04-25T11:33:25Z</time>
      </trkpt>
      <trkpt lat="59.074283447116613" lon="30.005426248535514">
        <ele>75.170000000000002</ele>
        <time>2026-04-25T11:33:53Z</time>
      </trkpt>
      <trkpt lat="59.074299959465861" lon="30.005444353446364">
        <ele>75.180000000000007</ele>
        <time>2026-04-25T11:34:34Z</time>
      </trkpt>
      <trkpt lat="59.074270203709602" lon="30.005387021228671">
        <ele>74.730000000000004</ele>
        <time>2026-04-25T11:35:08Z</time>
      </trkpt>
      <trkpt lat="59.074273640289903" lon="30.005430607125163">
        <ele>74.140000000000001</ele>
        <time>2026-04-25T11:35:37Z</time>
      </trkpt>
      <trkpt lat="59.074259726330638" lon="30.005422057583928">
        <ele>75.170000000000002</ele>
        <time>2026-04-25T11:36:01Z</time>
      </trkpt>
      <trkpt lat="59.074208345264196" lon="30.005528759211302">
        <ele>74.739999999999995</ele>
        <time>2026-04-25T11:36:18Z</time>
      </trkpt>
      <trkpt lat="59.074124861508608" lon="30.005460614338517">
        <ele>74.680000000000007</ele>
        <time>2026-04-25T11:36:32Z</time>
      </trkpt>
      <trkpt lat="59.074067026376724" lon="30.005427757278085">
        <ele>74.730000000000004</ele>
        <time>2026-04-25T11:36:42Z</time>
      </trkpt>
      <trkpt lat="59.074055207893252" lon="30.005523227155209">
        <ele>74.480000000000004</ele>
        <time>2026-04-25T11:36:48Z</time>
      </trkpt>
      <trkpt lat="59.074072558432817" lon="30.005760183557868">
        <ele>74.430000000000007</ele>
        <time>2026-04-25T11:37:03Z</time>
      </trkpt>
      <trkpt lat="59.074096698313951" lon="30.005922457203269">
        <ele>74.200000000000003</ele>
        <time>2026-04-25T11:37:15Z</time>
      </trkpt>
      <trkpt lat="59.074184959754348" lon="30.006028655916452">
        <ele>74.280000000000001</ele>
        <time>2026-04-25T11:37:30Z</time>
      </trkpt>
      <trkpt lat="59.07422561198473" lon="30.006175423040986">
        <ele>74.060000000000002</ele>
        <time>2026-04-25T11:37:43Z</time>
      </trkpt>
      <trkpt lat="59.074264168739319" lon="30.006302241235971">
        <ele>73.859999999999999</ele>
        <time>2026-04-25T11:37:52Z</time>
      </trkpt>
      <trkpt lat="59.074261821806431" lon="30.006378097459674">
        <ele>73.939999999999998</ele>
        <time>2026-04-25T11:37:57Z</time>
      </trkpt>
      <trkpt lat="59.074255703017116" lon="30.006444314494729">
        <ele>73.980000000000004</ele>
        <time>2026-04-25T11:38:01Z</time>
      </trkpt>
      <trkpt lat="59.074289901182055" lon="30.006652101874352">
        <ele>73.769999999999996</ele>
        <time>2026-04-25T11:38:15Z</time>
      </trkpt>
      <trkpt lat="59.074289565905929" lon="30.006752852350473">
        <ele>73.670000000000002</ele>
        <time>2026-04-25T11:38:25Z</time>
      </trkpt>
      <trkpt lat="59.074286380782723" lon="30.006886292248964">
        <ele>73.810000000000002</ele>
        <time>2026-04-25T11:38:39Z</time>
      </trkpt>
      <trkpt lat="59.074270371347666" lon="30.006951838731766">
        <ele>73.849999999999994</ele>
        <time>2026-04-25T11:38:49Z</time>
      </trkpt>
      <trkpt lat="59.074288224801421" lon="30.007162727415562">
        <ele>73.790000000000006</ele>
        <time>2026-04-25T11:39:03Z</time>
      </trkpt>
      <trkpt lat="59.074302976951003" lon="30.007320223376155">
        <ele>73.859999999999999</ele>
        <time>2026-04-25T11:39:14Z</time>
      </trkpt>
      <trkpt lat="59.07432971522212" lon="30.007494818419218">
        <ele>73.769999999999996</ele>
        <time>2026-04-25T11:39:25Z</time>
      </trkpt>
      <trkpt lat="59.074334157630801" lon="30.007599676027894">
        <ele>73.980000000000004</ele>
        <time>2026-04-25T11:39:33Z</time>
      </trkpt>
      <trkpt lat="59.074330637231469" lon="30.007624570280313">
        <ele>74.180000000000007</ele>
        <time>2026-04-25T11:39:47Z</time>
      </trkpt>
      <trkpt lat="59.074341366067529" lon="30.007623564451933">
        <ele>74.140000000000001</ele>
        <time>2026-04-25T11:39:58Z</time>
      </trkpt>
      <trkpt lat="59.074348490685225" lon="30.007623396813869">
        <ele>73.939999999999998</ele>
        <time>2026-04-25T11:40:12Z</time>
      </trkpt>
      <trkpt lat="59.074308760464191" lon="30.007659606635571">
        <ele>73.650000000000006</ele>
        <time>2026-04-25T11:40:24Z</time>
      </trkpt>
      <trkpt lat="59.074226701632142" lon="30.007631527259946">
        <ele>73.569999999999993</ele>
        <time>2026-04-25T11:40:37Z</time>
      </trkpt>
      <trkpt lat="59.074136847630143" lon="30.007604034617543">
        <ele>73.239999999999995</ele>
        <time>2026-04-25T11:40:49Z</time>
      </trkpt>
      <trkpt lat="59.074057471007109" lon="30.007609650492668">
        <ele>73.420000000000002</ele>
        <time>2026-04-25T11:41:01Z</time>
      </trkpt>
      <trkpt lat="59.074043892323971" lon="30.007607555016875">
        <ele>73.379999999999995</ele>
        <time>2026-04-25T11:41:04Z</time>
      </trkpt>
      <trkpt lat="59.073985386639833" lon="30.007648207247257">
        <ele>73.359999999999999</ele>
        <time>2026-04-25T11:41:12Z</time>
      </trkpt>
      <trkpt lat="59.073955630883574" lon="30.007664719596505">
        <ele>73.489999999999995</ele>
        <time>2026-04-25T11:41:18Z</time>
      </trkpt>
      <trkpt lat="59.073952697217464" lon="30.007713083177805">
        <ele>73.439999999999998</ele>
        <time>2026-04-25T11:41:35Z</time>
      </trkpt>
      <trkpt lat="59.073943393304944" lon="30.007547121495008">
        <ele>73.450000000000003</ele>
        <time>2026-04-25T11:41:55Z</time>
      </trkpt>
      <trkpt lat="59.073942638933659" lon="30.007516527548432">
        <ele>73.549999999999997</ele>
        <time>2026-04-25T11:41:57Z</time>
      </trkpt>
      <trkpt lat="59.073943980038166" lon="30.007436396554112">
        <ele>73.439999999999998</ele>
        <time>2026-04-25T11:42:01Z</time>
      </trkpt>
      <trkpt lat="59.073899388313293" lon="30.007323576137424">
        <ele>73.680000000000007</ele>
        <time>2026-04-25T11:42:13Z</time>
      </trkpt>
      <trkpt lat="59.073870554566383" lon="30.007222993299365">
        <ele>73.909999999999997</ele>
        <time>2026-04-25T11:42:22Z</time>
      </trkpt>
      <trkpt lat="59.073865190148354" lon="30.007133726030588">
        <ele>73.900000000000006</ele>
        <time>2026-04-25T11:42:28Z</time>
      </trkpt>
      <trkpt lat="59.07382981851697" lon="30.006904229521751">
        <ele>73.760000000000005</ele>
        <time>2026-04-25T11:42:45Z</time>
      </trkpt>
      <trkpt lat="59.073812467977405" lon="30.006536683067679">
        <ele>73.25</ele>
        <time>2026-04-25T11:43:12Z</time>
      </trkpt>
      <trkpt lat="59.073772989213467" lon="30.00625035725534">
        <ele>73.489999999999995</ele>
        <time>2026-04-25T11:43:32Z</time>
      </trkpt>
      <trkpt lat="59.073756979778409" lon="30.006015244871378">
        <ele>73.799999999999997</ele>
        <time>2026-04-25T11:43:55Z</time>
      </trkpt>
      <trkpt lat="59.073735773563385" lon="30.005667814984918">
        <ele>73.450000000000003</ele>
        <time>2026-04-25T11:44:19Z</time>
      </trkpt>
      <trkpt lat="59.073707442730665" lon="30.005430607125163">
        <ele>73.310000000000002</ele>
        <time>2026-04-25T11:44:36Z</time>
      </trkpt>
      <trkpt lat="59.073675340041518" lon="30.005286019295454">
        <ele>73.040000000000006</ele>
        <time>2026-04-25T11:44:52Z</time>
      </trkpt>
      <trkpt lat="59.073618594557047" lon="30.005329521372914">
        <ele>73.989999999999995</ele>
        <time>2026-04-25T11:45:20Z</time>
      </trkpt>
      <trkpt lat="59.073523543775082" lon="30.00540747307241">
        <ele>73.519999999999996</ele>
        <time>2026-04-25T11:45:35Z</time>
      </trkpt>
      <trkpt lat="59.073421200737357" lon="30.005410155281425">
        <ele>73.099999999999994</ele>
        <time>2026-04-25T11:45:49Z</time>
      </trkpt>
      <trkpt lat="59.073325730860233" lon="30.005413088947535">
        <ele>73.379999999999995</ele>
        <time>2026-04-25T11:46:03Z</time>
      </trkpt>
      <trkpt lat="59.073327239602804" lon="30.005545020103455">
        <ele>73.269999999999996</ele>
        <time>2026-04-25T11:46:44Z</time>
      </trkpt>
      <trkpt lat="59.073329167440534" lon="30.005627581849694">
        <ele>73.230000000000004</ele>
        <time>2026-04-25T11:46:49Z</time>
      </trkpt>
      <trkpt lat="59.07334509305656" lon="30.005861353129148">
        <ele>72.879999999999995</ele>
        <time>2026-04-25T11:47:05Z</time>
      </trkpt>
      <trkpt lat="59.073352301493287" lon="30.006014574319124">
        <ele>72.840000000000003</ele>
        <time>2026-04-25T11:47:18Z</time>
      </trkpt>
      <trkpt lat="59.073399240151048" lon="30.006153881549835">
        <ele>72.989999999999995</ele>
        <time>2026-04-25T11:47:31Z</time>
      </trkpt>
      <trkpt lat="59.073442658409476" lon="30.006317496299744">
        <ele>72.959999999999994</ele>
        <time>2026-04-25T11:47:44Z</time>
      </trkpt>
      <trkpt lat="59.073474006727338" lon="30.006429143249989">
        <ele>73.030000000000001</ele>
        <time>2026-04-25T11:47:52Z</time>
      </trkpt>
      <trkpt lat="59.07347752712667" lon="30.006693927571177">
        <ele>72.879999999999995</ele>
        <time>2026-04-25T11:48:09Z</time>
      </trkpt>
      <trkpt lat="59.073469312861562" lon="30.00694764778018">
        <ele>73.079999999999998</ele>
        <time>2026-04-25T11:48:25Z</time>
      </trkpt>
      <trkpt lat="59.073510719463229" lon="30.007165493443608">
        <ele>73.030000000000001</ele>
        <time>2026-04-25T11:48:40Z</time>
      </trkpt>
      <trkpt lat="59.073562771081924" lon="30.007378896698356">
        <ele>73.170000000000002</ele>
        <time>2026-04-25T11:48:54Z</time>
      </trkpt>
      <trkpt lat="59.073568386957049" lon="30.007438575848937">
        <ele>72.989999999999995</ele>
        <time>2026-04-25T11:48:58Z</time>
      </trkpt>
      <trkpt lat="59.073568386957049" lon="30.007702857255936">
        <ele>72.959999999999994</ele>
        <time>2026-04-25T11:49:19Z</time>
      </trkpt>
      <trkpt lat="59.073564112186432" lon="30.007854150608182">
        <ele>72.700000000000003</ele>
        <time>2026-04-25T11:49:35Z</time>
      </trkpt>
      <trkpt lat="59.073527064174414" lon="30.007896646857262">
        <ele>72.920000000000002</ele>
        <time>2026-04-25T11:49:57Z</time>
      </trkpt>
      <trkpt lat="59.07344282604754" lon="30.00789899379015">
        <ele>72.609999999999999</ele>
        <time>2026-04-25T11:50:10Z</time>
      </trkpt>
      <trkpt lat="59.073350373655558" lon="30.007862281054258">
        <ele>72.950000000000003</ele>
        <time>2026-04-25T11:50:24Z</time>
      </trkpt>
      <trkpt lat="59.073263872414827" lon="30.007888348773122">
        <ele>72.730000000000004</ele>
        <time>2026-04-25T11:50:39Z</time>
      </trkpt>
      <trkpt lat="59.073252556845546" lon="30.007893210276961">
        <ele>72.719999999999999</ele>
        <time>2026-04-25T11:50:41Z</time>
      </trkpt>
      <trkpt lat="59.073184914886951" lon="30.007905531674623">
        <ele>72.790000000000006</ele>
        <time>2026-04-25T11:50:59Z</time>
      </trkpt>
      <trkpt lat="59.073177874088287" lon="30.00787653028965">
        <ele>73.200000000000003</ele>
        <time>2026-04-25T11:51:31Z</time>
      </trkpt>
      <trkpt lat="59.07317309640348" lon="30.007942076772451">
        <ele>73.269999999999996</ele>
        <time>2026-04-25T11:51:56Z</time>
      </trkpt>
      <trkpt lat="59.07322246581316" lon="30.007946183905005">
        <ele>72.280000000000001</ele>
        <time>2026-04-25T11:52:23Z</time>
      </trkpt>
      <trkpt lat="59.073187680914998" lon="30.007723309099674">
        <ele>72.689999999999998</ele>
        <time>2026-04-25T11:52:39Z</time>
      </trkpt>
      <trkpt lat="59.073167312890291" lon="30.007691290229559">
        <ele>72.599999999999994</ele>
        <time>2026-04-25T11:52:42Z</time>
      </trkpt>
      <trkpt lat="59.073154656216502" lon="30.007600011304021">
        <ele>72.819999999999993</ele>
        <time>2026-04-25T11:52:47Z</time>
      </trkpt>
      <trkpt lat="59.073124481365085" lon="30.007405886426568">
        <ele>72.670000000000002</ele>
        <time>2026-04-25T11:53:01Z</time>
      </trkpt>
      <trkpt lat="59.073099587112665" lon="30.007148645818233">
        <ele>72.209999999999994</ele>
        <time>2026-04-25T11:53:19Z</time>
      </trkpt>
      <trkpt lat="59.07307393848896" lon="30.006970698013902">
        <ele>72.219999999999999</ele>
        <time>2026-04-25T11:53:32Z</time>
      </trkpt>
      <trkpt lat="59.073086762800813" lon="30.006841197609901">
        <ele>72.430000000000007</ele>
        <time>2026-04-25T11:53:45Z</time>
      </trkpt>
      <trkpt lat="59.073083829134703" lon="30.006699794903398">
        <ele>72.079999999999998</ele>
        <time>2026-04-25T11:53:58Z</time>
      </trkpt>
      <trkpt lat="59.073052899912" lon="30.006551016122103">
        <ele>72.560000000000002</ele>
        <time>2026-04-25T11:54:11Z</time>
      </trkpt>
      <trkpt lat="59.073035884648561" lon="30.00637792982161">
        <ele>72.390000000000001</ele>
        <time>2026-04-25T11:54:23Z</time>
      </trkpt>
      <trkpt lat="59.073030101135373" lon="30.00618296675384">
        <ele>72.530000000000001</ele>
        <time>2026-04-25T11:54:38Z</time>
      </trkpt>
      <trkpt lat="59.07298986800015" lon="30.006057908758521">
        <ele>72.540000000000006</ele>
        <time>2026-04-25T11:54:51Z</time>
      </trkpt>
      <trkpt lat="59.072953406721354" lon="30.005919020622969">
        <ele>72.459999999999994</ele>
        <time>2026-04-25T11:55:05Z</time>
      </trkpt>
      <trkpt lat="59.072938486933708" lon="30.005778623744845">
        <ele>72.689999999999998</ele>
        <time>2026-04-25T11:55:20Z</time>
      </trkpt>
      <trkpt lat="59.072940666228533" lon="30.005667563527822">
        <ele>72.790000000000006</ele>
        <time>2026-04-25T11:55:33Z</time>
      </trkpt>
      <trkpt lat="59.07292147167027" lon="30.005665216594934">
        <ele>72.549999999999997</ele>
        <time>2026-04-25T11:55:59Z</time>
      </trkpt>
      <trkpt lat="59.072812087833881" lon="30.005679884925485">
        <ele>72.459999999999994</ele>
        <time>2026-04-25T11:56:14Z</time>
      </trkpt>
      <trkpt lat="59.072747379541397" lon="30.00575297512114">
        <ele>72.379999999999995</ele>
        <time>2026-04-25T11:56:27Z</time>
      </trkpt>
      <trkpt lat="59.072641180828214" lon="30.005748616531491">
        <ele>72.030000000000001</ele>
        <time>2026-04-25T11:56:43Z</time>
      </trkpt>
      <trkpt lat="59.072548309341073" lon="30.005793208256364">
        <ele>72.430000000000007</ele>
        <time>2026-04-25T11:56:56Z</time>
      </trkpt>
      <trkpt lat="59.07252861186862" lon="30.005838721990585">
        <ele>72.370000000000005</ele>
        <time>2026-04-25T11:57:13Z</time>
      </trkpt>
      <trkpt lat="59.072542190551758" lon="30.00597040168941">
        <ele>72.379999999999995</ele>
        <time>2026-04-25T11:57:32Z</time>
      </trkpt>
      <trkpt lat="59.07256574369967" lon="30.006050951778889">
        <ele>72.480000000000004</ele>
        <time>2026-04-25T11:57:44Z</time>
      </trkpt>
      <trkpt lat="59.072567922994494" lon="30.006139297038317">
        <ele>72.450000000000003</ele>
        <time>2026-04-25T11:58:00Z</time>
      </trkpt>
      <trkpt lat="59.072576556354761" lon="30.006265696138144">
        <ele>72.439999999999998</ele>
        <time>2026-04-25T11:58:13Z</time>
      </trkpt>
      <trkpt lat="59.072604048997164" lon="30.006406344473362">
        <ele>72.099999999999994</ele>
        <time>2026-04-25T11:58:25Z</time>
      </trkpt>
      <trkpt lat="59.072633301839232" lon="30.006558811292052">
        <ele>72.040000000000006</ele>
        <time>2026-04-25T11:58:39Z</time>
      </trkpt>
      <trkpt lat="59.07262827269733" lon="30.006644641980529">
        <ele>72.010000000000005</ele>
        <time>2026-04-25T11:58:52Z</time>
      </trkpt>
      <trkpt lat="59.072618465870619" lon="30.00674338079989">
        <ele>72.209999999999994</ele>
        <time>2026-04-25T11:59:08Z</time>
      </trkpt>
      <trkpt lat="59.072620142251253" lon="30.006758635863662">
        <ele>72.459999999999994</ele>
        <time>2026-04-25T11:59:31Z</time>
      </trkpt>
      <trkpt lat="59.07263564877212" lon="30.006816973909736">
        <ele>72.340000000000003</ele>
        <time>2026-04-25T11:59:51Z</time>
      </trkpt>
      <trkpt lat="59.072647802531719" lon="30.006859386339784">
        <ele>72.150000000000006</ele>
        <time>2026-04-25T11:59:55Z</time>
      </trkpt>
      <trkpt lat="59.07270161435008" lon="30.006912108510733">
        <ele>72.260000000000005</ele>
        <time>2026-04-25T12:00:04Z</time>
      </trkpt>
      <trkpt lat="59.072722820565104" lon="30.007049739360809">
        <ele>72.120000000000005</ele>
        <time>2026-04-25T12:00:17Z</time>
      </trkpt>
      <trkpt lat="59.072713013738394" lon="30.007313266396523">
        <ele>72.030000000000001</ele>
        <time>2026-04-25T12:00:33Z</time>
      </trkpt>
      <trkpt lat="59.072698764503002" lon="30.007450226694345">
        <ele>72.159999999999997</ele>
        <time>2026-04-25T12:00:47Z</time>
      </trkpt>
      <trkpt lat="59.072686107829213" lon="30.007591964676976">
        <ele>72.069999999999993</ele>
        <time>2026-04-25T12:01:06Z</time>
      </trkpt>
      <trkpt lat="59.072728101164103" lon="30.007610572502017">
        <ele>72</ele>
        <time>2026-04-25T12:01:21Z</time>
      </trkpt>
      <trkpt lat="59.072800436988473" lon="30.007536476477981">
        <ele>72.019999999999996</ele>
        <time>2026-04-25T12:01:38Z</time>
      </trkpt>
      <trkpt lat="59.072741512209177" lon="30.007625408470631">
        <ele>72.25</ele>
        <time>2026-04-25T12:02:15Z</time>
      </trkpt>
      <trkpt lat="59.072707816958427" lon="30.007724650204182">
        <ele>71.950000000000003</ele>
        <time>2026-04-25T12:02:40Z</time>
      </trkpt>
      <trkpt lat="59.07275827601552" lon="30.007765050977468">
        <ele>71.560000000000002</ele>
        <time>2026-04-25T12:03:02Z</time>
      </trkpt>
      <trkpt lat="59.072806555777788" lon="30.008018687367439">
        <ele>71.890000000000001</ele>
        <time>2026-04-25T12:03:21Z</time>
      </trkpt>
      <trkpt lat="59.072785601019859" lon="30.008006114512682">
        <ele>72.599999999999994</ele>
        <time>2026-04-25T12:03:48Z</time>
      </trkpt>
      <trkpt lat="59.072744445875287" lon="30.008013322949409">
        <ele>72.409999999999997</ele>
        <time>2026-04-25T12:04:07Z</time>
      </trkpt>
      <trkpt lat="59.072685269638896" lon="30.008019106462598">
        <ele>72.459999999999994</ele>
        <time>2026-04-25T12:04:15Z</time>
      </trkpt>
      <trkpt lat="59.072565827518702" lon="30.008029500022531">
        <ele>71.959999999999994</ele>
        <time>2026-04-25T12:04:31Z</time>
      </trkpt>
      <trkpt lat="59.072476141154766" lon="30.008115833625197">
        <ele>71.989999999999995</ele>
        <time>2026-04-25T12:04:50Z</time>
      </trkpt>
      <trkpt lat="59.072356866672635" lon="30.008123377338052">
        <ele>72.25</ele>
        <time>2026-04-25T12:05:11Z</time>
      </trkpt>
      <trkpt lat="59.072343539446592" lon="30.008141649886966">
        <ele>72.129999999999995</ele>
        <time>2026-04-25T12:05:47Z</time>
      </trkpt>
      <trkpt lat="59.072294924408197" lon="30.00812673009932">
        <ele>72.370000000000005</ele>
        <time>2026-04-25T12:06:09Z</time>
      </trkpt>
      <trkpt lat="59.072229880839586" lon="30.007978621870279">
        <ele>72.730000000000004</ele>
        <time>2026-04-25T12:06:36Z</time>
      </trkpt>
      <trkpt lat="59.07228771597147" lon="30.007984237745404">
        <ele>72.129999999999995</ele>
        <time>2026-04-25T12:07:02Z</time>
      </trkpt>
      <trkpt lat="59.072275478392839" lon="30.008096722885966">
        <ele>72.640000000000001</ele>
        <time>2026-04-25T12:07:35Z</time>
      </trkpt>
      <trkpt lat="59.072257708758116" lon="30.008137375116348">
        <ele>72.469999999999999</ele>
        <time>2026-04-25T12:07:45Z</time>
      </trkpt>
      <trkpt lat="59.072257792577147" lon="30.008358489722013">
        <ele>73.069999999999993</ele>
        <time>2026-04-25T12:08:08Z</time>
      </trkpt>
      <trkpt lat="59.0721963532269" lon="30.008639534935355">
        <ele>72.989999999999995</ele>
        <time>2026-04-25T12:08:30Z</time>
      </trkpt>
      <trkpt lat="59.072163160890341" lon="30.008661914616823">
        <ele>73.209999999999994</ele>
        <time>2026-04-25T12:08:51Z</time>
      </trkpt>
      <trkpt lat="59.072211273014545" lon="30.008430825546384">
        <ele>72.810000000000002</ele>
        <time>2026-04-25T12:09:09Z</time>
      </trkpt>
      <trkpt lat="59.07228721305728" lon="30.008262265473604">
        <ele>72.969999999999999</ele>
        <time>2026-04-25T12:09:19Z</time>
      </trkpt>
      <trkpt lat="59.072303138673306" lon="30.008189678192139">
        <ele>73.379999999999995</ele>
        <time>2026-04-25T12:09:24Z</time>
      </trkpt>
      <trkpt lat="59.072317387908697" lon="30.008083311840892">
        <ele>73.140000000000001</ele>
        <time>2026-04-25T12:09:43Z</time>
      </trkpt>
      <trkpt lat="59.072308922186494" lon="30.007854904979467">
        <ele>73.25</ele>
        <time>2026-04-25T12:10:04Z</time>
      </trkpt>
      <trkpt lat="59.072325769811869" lon="30.007597580552101">
        <ele>73.349999999999994</ele>
        <time>2026-04-25T12:10:26Z</time>
      </trkpt>
      <trkpt lat="59.072282183915377" lon="30.007360121235251">
        <ele>72.989999999999995</ele>
        <time>2026-04-25T12:10:45Z</time>
      </trkpt>
      <trkpt lat="59.072222588583827" lon="30.007009003311396">
        <ele>73.939999999999998</ele>
        <time>2026-04-25T12:11:08Z</time>
      </trkpt>
      <trkpt lat="59.072199622169137" lon="30.006712200120091">
        <ele>73.159999999999997</ele>
        <time>2026-04-25T12:11:26Z</time>
      </trkpt>
      <trkpt lat="59.072173638269305" lon="30.006456049159169">
        <ele>73.019999999999996</ele>
        <time>2026-04-25T12:11:45Z</time>
      </trkpt>
      <trkpt lat="59.072158550843596" lon="30.006168633699417">
        <ele>73.439999999999998</ele>
        <time>2026-04-25T12:12:05Z</time>
      </trkpt>
      <trkpt lat="59.072164166718721" lon="30.005910973995924">
        <ele>73.409999999999997</ele>
        <time>2026-04-25T12:12:24Z</time>
      </trkpt>
      <trkpt lat="59.072146145626903" lon="30.005838554352522">
        <ele>73.719999999999999</ele>
        <time>2026-04-25T12:12:45Z</time>
      </trkpt>
      <trkpt lat="59.072130722925067" lon="30.005862526595592">
        <ele>73.349999999999994</ele>
        <time>2026-04-25T12:13:15Z</time>
      </trkpt>
      <trkpt lat="59.072082191705704" lon="30.005988758057356">
        <ele>73.299999999999997</ele>
        <time>2026-04-25T12:13:45Z</time>
      </trkpt>
      <trkpt lat="59.072072971612215" lon="30.006025386974216">
        <ele>72.760000000000005</ele>
        <time>2026-04-25T12:14:15Z</time>
      </trkpt>
      <trkpt lat="59.072024524211884" lon="30.006115157157183">
        <ele>72.890000000000001</ele>
        <time>2026-04-25T12:14:43Z</time>
      </trkpt>
      <trkpt lat="59.071988230571151" lon="30.006196042522788">
        <ele>72.909999999999997</ele>
        <time>2026-04-25T12:15:23Z</time>
      </trkpt>
      <trkpt lat="59.072011532261968" lon="30.006135776638985">
        <ele>72.489999999999995</ele>
        <time>2026-04-25T12:15:25Z</time>
      </trkpt>
      <trkpt lat="59.072022847831249" lon="30.00599579885602">
        <ele>72.760000000000005</ele>
        <time>2026-04-25T12:15:43Z</time>
      </trkpt>
      <trkpt lat="59.072028715163469" lon="30.00598163343966">
        <ele>72.469999999999999</ele>
        <time>2026-04-25T12:16:08Z</time>
      </trkpt>
      <trkpt lat="59.071941208094358" lon="30.005991775542498">
        <ele>72.459999999999994</ele>
        <time>2026-04-25T12:16:27Z</time>
      </trkpt>
      <trkpt lat="59.07184112817049" lon="30.006056651473045">
        <ele>72.819999999999993</ele>
        <time>2026-04-25T12:16:47Z</time>
      </trkpt>
      <trkpt lat="59.071816485375166" lon="30.00618145801127">
        <ele>72.549999999999997</ele>
        <time>2026-04-25T12:17:18Z</time>
      </trkpt>
      <trkpt lat="59.071839032694697" lon="30.006066458299756">
        <ele>73.569999999999993</ele>
        <time>2026-04-25T12:17:46Z</time>
      </trkpt>
      <trkpt lat="59.071789076551795" lon="30.006068302318454">
        <ele>72.870000000000005</ele>
        <time>2026-04-25T12:18:06Z</time>
      </trkpt>
      <trkpt lat="59.07172579318285" lon="30.006137369200587">
        <ele>73.450000000000003</ele>
        <time>2026-04-25T12:18:25Z</time>
      </trkpt>
      <trkpt lat="59.071679189801216" lon="30.006148936226964">
        <ele>73.469999999999999</ele>
        <time>2026-04-25T12:18:48Z</time>
      </trkpt>
      <trkpt lat="59.071663850918412" lon="30.006151283159852">
        <ele>73.969999999999999</ele>
        <time>2026-04-25T12:18:55Z</time>
      </trkpt>
      <trkpt lat="59.071713639423251" lon="30.006455294787884">
        <ele>73.780000000000001</ele>
        <time>2026-04-25T12:19:18Z</time>
      </trkpt>
      <trkpt lat="59.071726128458977" lon="30.006891572847962">
        <ele>73.829999999999998</ele>
        <time>2026-04-25T12:19:42Z</time>
      </trkpt>
      <trkpt lat="59.071792177855968" lon="30.007270099595189">
        <ele>73.689999999999998</ele>
        <time>2026-04-25T12:20:05Z</time>
      </trkpt>
      <trkpt lat="59.071768037974834" lon="30.007661953568459">
        <ele>72.879999999999995</ele>
        <time>2026-04-25T12:20:27Z</time>
      </trkpt>
      <trkpt lat="59.071766445413232" lon="30.00798306427896">
        <ele>73.349999999999994</ele>
        <time>2026-04-25T12:20:47Z</time>
      </trkpt>
      <trkpt lat="59.071834925562143" lon="30.008174004033208">
        <ele>72.959999999999994</ele>
        <time>2026-04-25T12:21:04Z</time>
      </trkpt>
      <trkpt lat="59.071871638298035" lon="30.008340049535036">
        <ele>72.909999999999997</ele>
        <time>2026-04-25T12:21:22Z</time>
      </trkpt>
      <trkpt lat="59.07181715592742" lon="30.008505675941706">
        <ele>73.510000000000005</ele>
        <time>2026-04-25T12:21:47Z</time>
      </trkpt>
      <trkpt lat="59.07181279733777" lon="30.008513554930687">
        <ele>73.790000000000006</ele>
        <time>2026-04-25T12:22:15Z</time>
      </trkpt>
      <trkpt lat="59.071815479546785" lon="30.008367877453566">
        <ele>73.609999999999999</ele>
        <time>2026-04-25T12:22:38Z</time>
      </trkpt>
      <trkpt lat="59.071747586131096" lon="30.008273581042886">
        <ele>73.920000000000002</ele>
        <time>2026-04-25T12:22:54Z</time>
      </trkpt>
      <trkpt lat="59.071657313033938" lon="30.008466113358736">
        <ele>74.019999999999996</ele>
        <time>2026-04-25T12:23:12Z</time>
      </trkpt>
      <trkpt lat="59.071524795144796" lon="30.008560325950384">
        <ele>74.480000000000004</ele>
        <time>2026-04-25T12:23:27Z</time>
      </trkpt>
      <trkpt lat="59.071472156792879" lon="30.008662166073918">
        <ele>73.909999999999997</ele>
        <time>2026-04-25T12:23:38Z</time>
      </trkpt>
      <trkpt lat="59.071419518440962" lon="30.008619166910648">
        <ele>73.790000000000006</ele>
        <time>2026-04-25T12:23:44Z</time>
      </trkpt>
      <trkpt lat="59.071276858448982" lon="30.008524702861905">
        <ele>74.129999999999995</ele>
        <time>2026-04-25T12:24:04Z</time>
      </trkpt>
      <trkpt lat="59.071260849013925" lon="30.008484302088618">
        <ele>74.25</ele>
        <time>2026-04-25T12:24:25Z</time>
      </trkpt>
      <trkpt lat="59.071270739659667" lon="30.008431160822511">
        <ele>73.579999999999998</ele>
        <time>2026-04-25T12:24:28Z</time>
      </trkpt>
      <trkpt lat="59.071279540657997" lon="30.008314149454236">
        <ele>73.540000000000006</ele>
        <time>2026-04-25T12:24:33Z</time>
      </trkpt>
      <trkpt lat="59.071232853457332" lon="30.007998319342732">
        <ele>73.590000000000003</ele>
        <time>2026-04-25T12:24:47Z</time>
      </trkpt>
      <trkpt lat="59.07118633389473" lon="30.007714256644249">
        <ele>74.010000000000005</ele>
        <time>2026-04-25T12:25:00Z</time>
      </trkpt>
      <trkpt lat="59.071175772696733" lon="30.007599340751767">
        <ele>74.010000000000005</ele>
        <time>2026-04-25T12:25:05Z</time>
      </trkpt>
      <trkpt lat="59.071157835423946" lon="30.007366491481662">
        <ele>73.709999999999994</ele>
        <time>2026-04-25T12:25:15Z</time>
      </trkpt>
      <trkpt lat="59.071152387186885" lon="30.007205978035927">
        <ele>73.560000000000002</ele>
        <time>2026-04-25T12:25:22Z</time>
      </trkpt>
      <trkpt lat="59.071136796846986" lon="30.006763329729438">
        <ele>74.290000000000006</ele>
        <time>2026-04-25T12:25:42Z</time>
      </trkpt>
      <trkpt lat="59.071100922301412" lon="30.006675152108073">
        <ele>74.079999999999998</ele>
        <time>2026-04-25T12:25:57Z</time>
      </trkpt>
      <trkpt lat="59.070985419675708" lon="30.006707422435284">
        <ele>73.040000000000006</ele>
        <time>2026-04-25T12:26:14Z</time>
      </trkpt>
      <trkpt lat="59.070901097729802" lon="30.006799455732107">
        <ele>73.189999999999998</ele>
        <time>2026-04-25T12:26:25Z</time>
      </trkpt>
      <trkpt lat="59.070767657831311" lon="30.006820494309068">
        <ele>72.659999999999997</ele>
        <time>2026-04-25T12:26:39Z</time>
      </trkpt>
      <trkpt lat="59.070655927062035" lon="30.006902469322085">
        <ele>72.799999999999997</ele>
        <time>2026-04-25T12:26:52Z</time>
      </trkpt>
      <trkpt lat="59.070645282045007" lon="30.006975475698709">
        <ele>72.670000000000002</ele>
        <time>2026-04-25T12:27:09Z</time>
      </trkpt>
      <trkpt lat="59.070647126063704" lon="30.007035238668323">
        <ele>72.680000000000007</ele>
        <time>2026-04-25T12:27:14Z</time>
      </trkpt>
      <trkpt lat="59.070689370855689" lon="30.007235398516059">
        <ele>72.430000000000007</ele>
        <time>2026-04-25T12:27:28Z</time>
      </trkpt>
      <trkpt lat="59.070694399997592" lon="30.007287701591849">
        <ele>72.230000000000004</ele>
        <time>2026-04-25T12:27:31Z</time>
      </trkpt>
      <trkpt lat="59.070683252066374" lon="30.007591713219881">
        <ele>71.900000000000006</ele>
        <time>2026-04-25T12:27:44Z</time>
      </trkpt>
      <trkpt lat="59.070685179904103" lon="30.007672347128391">
        <ele>72.069999999999993</ele>
        <time>2026-04-25T12:27:48Z</time>
      </trkpt>
      <trkpt lat="59.070674534887075" lon="30.007817521691322">
        <ele>72.269999999999996</ele>
        <time>2026-04-25T12:28:05Z</time>
      </trkpt>
      <trkpt lat="59.070706469938159" lon="30.007853815332055">
        <ele>72.370000000000005</ele>
        <time>2026-04-25T12:28:18Z</time>
      </trkpt>
      <trkpt lat="59.070785762742162" lon="30.007975855842233">
        <ele>72.439999999999998</ele>
        <time>2026-04-25T12:28:33Z</time>
      </trkpt>
      <trkpt lat="59.070767322555184" lon="30.008120946586132">
        <ele>71.799999999999997</ele>
        <time>2026-04-25T12:28:46Z</time>
      </trkpt>
      <trkpt lat="59.07074905000627" lon="30.008413139730692">
        <ele>71.799999999999997</ele>
        <time>2026-04-25T12:29:05Z</time>
      </trkpt>
      <trkpt lat="59.070781320333481" lon="30.008741039782763">
        <ele>71.939999999999998</ele>
        <time>2026-04-25T12:29:25Z</time>
      </trkpt>
      <trkpt lat="59.070811746641994" lon="30.008919406682253">
        <ele>71.909999999999997</ele>
        <time>2026-04-25T12:29:44Z</time>
      </trkpt>
      <trkpt lat="59.070826498791575" lon="30.008898535743356">
        <ele>72.090000000000003</ele>
        <time>2026-04-25T12:30:01Z</time>
      </trkpt>
      <trkpt lat="59.070776039734483" lon="30.009018648415804">
        <ele>72.060000000000002</ele>
        <time>2026-04-25T12:30:37Z</time>
      </trkpt>
      <trkpt lat="59.070777297019958" lon="30.009025102481246">
        <ele>72.219999999999999</ele>
        <time>2026-04-25T12:30:39Z</time>
      </trkpt>
      <trkpt lat="59.070809483528137" lon="30.009012026712298">
        <ele>72</ele>
        <time>2026-04-25T12:30:42Z</time>
      </trkpt>
      <trkpt lat="59.070826750248671" lon="30.009022001177073">
        <ele>72.060000000000002</ele>
        <time>2026-04-25T12:30:44Z</time>
      </trkpt>
      <trkpt lat="59.070874862372875" lon="30.008904905989766">
        <ele>72.379999999999995</ele>
        <time>2026-04-25T12:31:01Z</time>
      </trkpt>
      <trkpt lat="59.070966392755508" lon="30.009038345888257">
        <ele>72.459999999999994</ele>
        <time>2026-04-25T12:31:20Z</time>
      </trkpt>
      <trkpt lat="59.071136126294732" lon="30.009125769138336">
        <ele>73.049999999999997</ele>
        <time>2026-04-25T12:31:33Z</time>
      </trkpt>
      <trkpt lat="59.071167474612594" lon="30.009126272052526">
        <ele>73.049999999999997</ele>
        <time>2026-04-25T12:31:36Z</time>
      </trkpt>
      <trkpt lat="59.071259424090385" lon="30.009218724444509">
        <ele>73.25</ele>
        <time>2026-04-25T12:31:48Z</time>
      </trkpt>
      <trkpt lat="59.071315582841635" lon="30.009348141029477">
        <ele>73.859999999999999</ele>
        <time>2026-04-25T12:31:59Z</time>
      </trkpt>
      <trkpt lat="59.071345506235957" lon="30.009502284228802">
        <ele>73.150000000000006</ele>
        <time>2026-04-25T12:32:07Z</time>
      </trkpt>
      <trkpt lat="59.071366460993886" lon="30.009717112407088">
        <ele>73.519999999999996</ele>
        <time>2026-04-25T12:32:17Z</time>
      </trkpt>
      <trkpt lat="59.071418680250645" lon="30.010027578100562">
        <ele>73.680000000000007</ele>
        <time>2026-04-25T12:32:30Z</time>
      </trkpt>
      <trkpt lat="59.071424379944801" lon="30.010113660246134">
        <ele>73.799999999999997</ele>
        <time>2026-04-25T12:32:33Z</time>
      </trkpt>
      <trkpt lat="59.071475425735116" lon="30.010354891419411">
        <ele>73.829999999999998</ele>
        <time>2026-04-25T12:32:48Z</time>
      </trkpt>
      <trkpt lat="59.071523705497384" lon="30.010415073484182">
        <ele>73.489999999999995</ele>
        <time>2026-04-25T12:33:16Z</time>
      </trkpt>
      <trkpt lat="59.071545163169503" lon="30.010739536955953">
        <ele>73.269999999999996</ele>
        <time>2026-04-25T12:33:32Z</time>
      </trkpt>
      <trkpt lat="59.071571733802557" lon="30.011074561625719">
        <ele>73.180000000000007</ele>
        <time>2026-04-25T12:33:46Z</time>
      </trkpt>
      <trkpt lat="59.07156209461391" lon="30.011443784460425">
        <ele>72.980000000000004</ele>
        <time>2026-04-25T12:34:03Z</time>
      </trkpt>
      <trkpt lat="59.071611380204558" lon="30.011718207970262">
        <ele>72.700000000000003</ele>
        <time>2026-04-25T12:34:16Z</time>
      </trkpt>
      <trkpt lat="59.071694109588861" lon="30.012154234573245">
        <ele>72.870000000000005</ele>
        <time>2026-04-25T12:34:34Z</time>
      </trkpt>
      <trkpt lat="59.071727721020579" lon="30.012468975037336">
        <ele>73.040000000000006</ele>
        <time>2026-04-25T12:34:46Z</time>
      </trkpt>
      <trkpt lat="59.071798715740442" lon="30.012640552595258">
        <ele>73.159999999999997</ele>
        <time>2026-04-25T12:35:00Z</time>
      </trkpt>
      <trkpt lat="59.071834422647953" lon="30.013053696602583">
        <ele>72.819999999999993</ele>
        <time>2026-04-25T12:35:14Z</time>
      </trkpt>
      <trkpt lat="59.071828052401543" lon="30.013122344389558">
        <ele>73.120000000000005</ele>
        <time>2026-04-25T12:35:32Z</time>
      </trkpt>
      <trkpt lat="59.071859903633595" lon="30.013208594173193">
        <ele>72.420000000000002</ele>
        <time>2026-04-25T12:35:53Z</time>
      </trkpt>
      <trkpt lat="59.071889910846949" lon="30.013470277190208">
        <ele>72.780000000000001</ele>
        <time>2026-04-25T12:36:08Z</time>
      </trkpt>
      <trkpt lat="59.071928551420569" lon="30.013864059001207">
        <ele>72.459999999999994</ele>
        <time>2026-04-25T12:36:24Z</time>
      </trkpt>
      <trkpt lat="59.071933077648282" lon="30.014132279902697">
        <ele>72.180000000000007</ele>
        <time>2026-04-25T12:36:37Z</time>
      </trkpt>
      <trkpt lat="59.071976915001869" lon="30.014611557126045">
        <ele>72.480000000000004</ele>
        <time>2026-04-25T12:36:56Z</time>
      </trkpt>
      <trkpt lat="59.072008263319731" lon="30.014915904030204">
        <ele>72.590000000000003</ele>
        <time>2026-04-25T12:37:14Z</time>
      </trkpt>
      <trkpt lat="59.072007676586509" lon="30.015276661142707">
        <ele>72.489999999999995</ele>
        <time>2026-04-25T12:37:29Z</time>
      </trkpt>
      <trkpt lat="59.072044305503368" lon="30.015526860952377">
        <ele>72.189999999999998</ele>
        <time>2026-04-25T12:37:40Z</time>
      </trkpt>
      <trkpt lat="59.072108259424567" lon="30.015937741845846">
        <ele>72.269999999999996</ele>
        <time>2026-04-25T12:37:58Z</time>
      </trkpt>
      <trkpt lat="59.072117228060961" lon="30.016048634424806">
        <ele>72.459999999999994</ele>
        <time>2026-04-25T12:38:03Z</time>
      </trkpt>
      <trkpt lat="59.072116306051612" lon="30.016117533668876">
        <ele>72.219999999999999</ele>
        <time>2026-04-25T12:38:06Z</time>
      </trkpt>
      <trkpt lat="59.072151761502028" lon="30.016347784548998">
        <ele>72.030000000000001</ele>
        <time>2026-04-25T12:38:19Z</time>
      </trkpt>
      <trkpt lat="59.072166262194514" lon="30.016564205288887">
        <ele>72.180000000000007</ele>
        <time>2026-04-25T12:38:35Z</time>
      </trkpt>
      <trkpt lat="59.07218805514276" lon="30.016867211088538">
        <ele>72.109999999999999</ele>
        <time>2026-04-25T12:38:49Z</time>
      </trkpt>
      <trkpt lat="59.072195515036583" lon="30.01706225797534">
        <ele>72.219999999999999</ele>
        <time>2026-04-25T12:38:58Z</time>
      </trkpt>
      <trkpt lat="59.072182858362794" lon="30.017112381756306">
        <ele>72.219999999999999</ele>
        <time>2026-04-25T12:39:00Z</time>
      </trkpt>
      <trkpt lat="59.072180092334747" lon="30.01727532595396">
        <ele>72.260000000000005</ele>
        <time>2026-04-25T12:39:08Z</time>
      </trkpt>
      <trkpt lat="59.072168609127402" lon="30.017479509115219">
        <ele>72.159999999999997</ele>
        <time>2026-04-25T12:39:17Z</time>
      </trkpt>
      <trkpt lat="59.072185624390841" lon="30.017598364502192">
        <ele>72.030000000000001</ele>
        <time>2026-04-25T12:39:23Z</time>
      </trkpt>
      <trkpt lat="59.072189144790173" lon="30.017805313691497">
        <ele>71.579999999999998</ele>
        <time>2026-04-25T12:39:36Z</time>
      </trkpt>
      <trkpt lat="59.072188138961792" lon="30.017822664231062">
        <ele>70.859999999999999</ele>
        <time>2026-04-25T12:39:37Z</time>
      </trkpt>
      <trkpt lat="59.072215631604195" lon="30.017977561801672">
        <ele>71.420000000000002</ele>
        <time>2026-04-25T12:39:51Z</time>
      </trkpt>
      <trkpt lat="59.072216218337417" lon="30.018058950081468">
        <ele>71.939999999999998</ele>
        <time>2026-04-25T12:40:15Z</time>
      </trkpt>
      <trkpt lat="59.072230886667967" lon="30.018248548731208">
        <ele>72.340000000000003</ele>
        <time>2026-04-25T12:40:31Z</time>
      </trkpt>
      <trkpt lat="59.072234993800521" lon="30.01835466362536">
        <ele>71.420000000000002</ele>
        <time>2026-04-25T12:40:43Z</time>
      </trkpt>
      <trkpt lat="59.072269946336746" lon="30.018709804862738">
        <ele>71.209999999999994</ele>
        <time>2026-04-25T12:41:01Z</time>
      </trkpt>
      <trkpt lat="59.072282100096345" lon="30.018747020512819">
        <ele>71.189999999999998</ele>
        <time>2026-04-25T12:41:03Z</time>
      </trkpt>
      <trkpt lat="59.072335660457611" lon="30.019090762361884">
        <ele>71.379999999999995</ele>
        <time>2026-04-25T12:41:18Z</time>
      </trkpt>
      <trkpt lat="59.072343790903687" lon="30.019131163135171">
        <ele>71.129999999999995</ele>
        <time>2026-04-25T12:41:20Z</time>
      </trkpt>
      <trkpt lat="59.072367092594504" lon="30.019208611920476">
        <ele>71.379999999999995</ele>
        <time>2026-04-25T12:41:24Z</time>
      </trkpt>
      <trkpt lat="59.072388969361782" lon="30.019257897511125">
        <ele>71.200000000000003</ele>
        <time>2026-04-25T12:41:27Z</time>
      </trkpt>
      <trkpt lat="59.072432806715369" lon="30.019440874457359">
        <ele>71.030000000000001</ele>
        <time>2026-04-25T12:41:36Z</time>
      </trkpt>
      <trkpt lat="59.072462897747755" lon="30.019554030150175">
        <ele>70.810000000000002</ele>
        <time>2026-04-25T12:41:41Z</time>
      </trkpt>
      <trkpt lat="59.072503382340074" lon="30.019719153642654">
        <ele>70.950000000000003</ele>
        <time>2026-04-25T12:41:49Z</time>
      </trkpt>
      <trkpt lat="59.072514027357101" lon="30.019782772287726">
        <ele>70.930000000000007</ele>
        <time>2026-04-25T12:41:52Z</time>
      </trkpt>
      <trkpt lat="59.07257697544992" lon="30.020068343728781">
        <ele>70.379999999999995</ele>
        <time>2026-04-25T12:42:06Z</time>
      </trkpt>
      <trkpt lat="59.072636822238564" lon="30.020400770008564">
        <ele>69.950000000000003</ele>
        <time>2026-04-25T12:42:24Z</time>
      </trkpt>
      <trkpt lat="59.072655932977796" lon="30.020766472443938">
        <ele>70.859999999999999</ele>
        <time>2026-04-25T12:42:40Z</time>
      </trkpt>
      <trkpt lat="59.072652580216527" lon="30.020885914564133">
        <ele>70.280000000000001</ele>
        <time>2026-04-25T12:42:51Z</time>
      </trkpt>
      <trkpt lat="59.072634056210518" lon="30.021134521812201">
        <ele>70.409999999999997</ele>
        <time>2026-04-25T12:43:10Z</time>
      </trkpt>
      <trkpt lat="59.072633301839232" lon="30.0211794488132">
        <ele>70.409999999999997</ele>
        <time>2026-04-25T12:43:12Z</time>
      </trkpt>
      <trkpt lat="59.072626763954759" lon="30.021498212590814">
        <ele>70.760000000000005</ele>
        <time>2026-04-25T12:43:28Z</time>
      </trkpt>
      <trkpt lat="59.072638833895326" lon="30.021575326099992">
        <ele>70.209999999999994</ele>
        <time>2026-04-25T12:43:31Z</time>
      </trkpt>
      <trkpt lat="59.072629613801837" lon="30.021902471780777">
        <ele>70.209999999999994</ele>
        <time>2026-04-25T12:43:47Z</time>
      </trkpt>
      <trkpt lat="59.072617460042238" lon="30.022328272461891">
        <ele>70.439999999999998</ele>
        <time>2026-04-25T12:44:09Z</time>
      </trkpt>
      <trkpt lat="59.072596002370119" lon="30.022726412862539">
        <ele>70.170000000000002</ele>
        <time>2026-04-25T12:44:27Z</time>
      </trkpt>
      <trkpt lat="59.07259751111269" lon="30.022742925211787">
        <ele>70.170000000000002</ele>
        <time>2026-04-25T12:44:28Z</time>
      </trkpt>
      <trkpt lat="59.072614191100001" lon="30.02291165292263">
        <ele>70.310000000000002</ele>
        <time>2026-04-25T12:44:43Z</time>
      </trkpt>
      <trkpt lat="59.072596170008183" lon="30.022858595475554">
        <ele>70.219999999999999</ele>
        <time>2026-04-25T12:45:10Z</time>
      </trkpt>
      <trkpt lat="59.072589883580804" lon="30.022925734519958">
        <ele>70.310000000000002</ele>
        <time>2026-04-25T12:45:17Z</time>
      </trkpt>
      <trkpt lat="59.072583429515362" lon="30.022968482226133">
        <ele>70.310000000000002</ele>
        <time>2026-04-25T12:45:19Z</time>
      </trkpt>
      <trkpt lat="59.072561385110021" lon="30.023171743378043">
        <ele>70.010000000000005</ele>
        <time>2026-04-25T12:45:28Z</time>
      </trkpt>
      <trkpt lat="59.072570437565446" lon="30.023244833573699">
        <ele>69.849999999999994</ele>
        <time>2026-04-25T12:45:32Z</time>
      </trkpt>
      <trkpt lat="59.072605222463608" lon="30.023352960124612">
        <ele>69.670000000000002</ele>
        <time>2026-04-25T12:45:37Z</time>
      </trkpt>
      <trkpt lat="59.072619136422873" lon="30.023404257372022">
        <ele>69.340000000000003</ele>
        <time>2026-04-25T12:45:39Z</time>
      </trkpt>
      <trkpt lat="59.072632379829884" lon="30.023547671735287">
        <ele>69.069999999999993</ele>
        <time>2026-04-25T12:45:45Z</time>
      </trkpt>
      <trkpt lat="59.072659118101001" lon="30.023886971175671">
        <ele>69.510000000000005</ele>
        <time>2026-04-25T12:46:01Z</time>
      </trkpt>
      <trkpt lat="59.072699267417192" lon="30.02431645989418">
        <ele>69.269999999999996</ele>
        <time>2026-04-25T12:46:23Z</time>
      </trkpt>
      <trkpt lat="59.072759365662932" lon="30.024681659415364">
        <ele>68.709999999999994</ele>
        <time>2026-04-25T12:46:43Z</time>
      </trkpt>
      <trkpt lat="59.072806974872947" lon="30.024913419038057">
        <ele>68.170000000000002</ele>
        <time>2026-04-25T12:46:54Z</time>
      </trkpt>
      <trkpt lat="59.072866989299655" lon="30.025268224999309">
        <ele>68.790000000000006</ele>
        <time>2026-04-25T12:47:10Z</time>
      </trkpt>
      <trkpt lat="59.072940163314342" lon="30.025585312396288">
        <ele>68.829999999999998</ele>
        <time>2026-04-25T12:47:27Z</time>
      </trkpt>
      <trkpt lat="59.072939157485962" lon="30.025885384529829">
        <ele>68.909999999999997</ele>
        <time>2026-04-25T12:47:40Z</time>
      </trkpt>
      <trkpt lat="59.072956508025527" lon="30.026154359802604">
        <ele>68.519999999999996</ele>
        <time>2026-04-25T12:47:52Z</time>
      </trkpt>
      <trkpt lat="59.07301040366292" lon="30.026377653703094">
        <ele>69.170000000000002</ele>
        <time>2026-04-25T12:48:04Z</time>
      </trkpt>
      <trkpt lat="59.07308466732502" lon="30.026826336979866">
        <ele>68.930000000000007</ele>
        <time>2026-04-25T12:48:24Z</time>
      </trkpt>
      <trkpt lat="59.073139987885952" lon="30.027225986123085">
        <ele>68.629999999999995</ele>
        <time>2026-04-25T12:48:40Z</time>
      </trkpt>
      <trkpt lat="59.073080057278275" lon="30.027565788477659">
        <ele>68.459999999999994</ele>
        <time>2026-04-25T12:48:57Z</time>
      </trkpt>
      <trkpt lat="59.072963800281286" lon="30.027620019391179">
        <ele>68.819999999999993</ele>
        <time>2026-04-25T12:49:14Z</time>
      </trkpt>
      <trkpt lat="59.072773447260261" lon="30.027765780687332">
        <ele>67.670000000000002</ele>
        <time>2026-04-25T12:49:31Z</time>
      </trkpt>
      <trkpt lat="59.072631122544408" lon="30.027851946651936">
        <ele>68.040000000000006</ele>
        <time>2026-04-25T12:49:44Z</time>
      </trkpt>
      <trkpt lat="59.072570689022541" lon="30.027860580012202">
        <ele>68.140000000000001</ele>
        <time>2026-04-25T12:49:52Z</time>
      </trkpt>
      <trkpt lat="59.072420904412866" lon="30.027877679094672">
        <ele>67.519999999999996</ele>
        <time>2026-04-25T12:50:06Z</time>
      </trkpt>
      <trkpt lat="59.072414031252265" lon="30.027881031855941">
        <ele>68.019999999999996</ele>
        <time>2026-04-25T12:50:07Z</time>
      </trkpt>
      <trkpt lat="59.07235125079751" lon="30.027913302183151">
        <ele>67.599999999999994</ele>
        <time>2026-04-25T12:50:14Z</time>
      </trkpt>
      <trkpt lat="59.072249913588166" lon="30.02800215035677">
        <ele>66.890000000000001</ele>
        <time>2026-04-25T12:50:30Z</time>
      </trkpt>
      <trkpt lat="59.072110438719392" lon="30.027997875586152">
        <ele>67.560000000000002</ele>
        <time>2026-04-25T12:50:50Z</time>
      </trkpt>
      <trkpt lat="59.072088897228241" lon="30.027992175891995">
        <ele>67.379999999999995</ele>
        <time>2026-04-25T12:50:52Z</time>
      </trkpt>
      <trkpt lat="59.071952691301703" lon="30.028031654655933">
        <ele>67.019999999999996</ele>
        <time>2026-04-25T12:51:10Z</time>
      </trkpt>
      <trkpt lat="59.071833919733763" lon="30.028032576665282">
        <ele>67.150000000000006</ele>
        <time>2026-04-25T12:51:22Z</time>
      </trkpt>
      <trkpt lat="59.071783293038607" lon="30.028063338249922">
        <ele>67.069999999999993</ele>
        <time>2026-04-25T12:51:33Z</time>
      </trkpt>
      <trkpt lat="59.071739204227924" lon="30.028070379048586">
        <ele>67.219999999999999</ele>
        <time>2026-04-25T12:51:41Z</time>
      </trkpt>
      <trkpt lat="59.071681704372168" lon="30.02820398658514">
        <ele>66.620000000000005</ele>
        <time>2026-04-25T12:51:56Z</time>
      </trkpt>
      <trkpt lat="59.071529572829604" lon="30.02820591442287">
        <ele>66.670000000000002</ele>
        <time>2026-04-25T12:52:21Z</time>
      </trkpt>
      <trkpt lat="59.071294963359833" lon="30.028263833373785">
        <ele>66.819999999999993</ele>
        <time>2026-04-25T12:52:45Z</time>
      </trkpt>
      <trkpt lat="59.071048283949494" lon="30.02834958024323">
        <ele>66.489999999999995</ele>
        <time>2026-04-25T12:53:10Z</time>
      </trkpt>
      <trkpt lat="59.070772854611278" lon="30.028401128947735">
        <ele>66.650000000000006</ele>
        <time>2026-04-25T12:53:33Z</time>
      </trkpt>
      <trkpt lat="59.070466663688421" lon="30.028549740090966">
        <ele>66.689999999999998</ele>
        <time>2026-04-25T12:53:59Z</time>
      </trkpt>
      <trkpt lat="59.070244375616312" lon="30.028582429513335">
        <ele>67</ele>
        <time>2026-04-25T12:54:22Z</time>
      </trkpt>
      <trkpt lat="59.070007670670748" lon="30.028618304058909">
        <ele>66.569999999999993</ele>
        <time>2026-04-25T12:54:42Z</time>
      </trkpt>
      <trkpt lat="59.069860903546214" lon="30.028696758672595">
        <ele>66.359999999999999</ele>
        <time>2026-04-25T12:54:58Z</time>
      </trkpt>
      <trkpt lat="59.069599052891135" lon="30.028787702322006">
        <ele>66.430000000000007</ele>
        <time>2026-04-25T12:55:20Z</time>
      </trkpt>
      <trkpt lat="59.069306943565607" lon="30.028820727020502">
        <ele>66.060000000000002</ele>
        <time>2026-04-25T12:55:43Z</time>
      </trkpt>
      <trkpt lat="59.069065544754267" lon="30.028919214382768">
        <ele>65.549999999999997</ele>
        <time>2026-04-25T12:56:05Z</time>
      </trkpt>
      <trkpt lat="59.068754827603698" lon="30.029097413644195">
        <ele>64.640000000000001</ele>
        <time>2026-04-25T12:56:33Z</time>
      </trkpt>
      <trkpt lat="59.068550812080503" lon="30.029103364795446">
        <ele>64.739999999999995</ele>
        <time>2026-04-25T12:56:50Z</time>
      </trkpt>
      <trkpt lat="59.068383257836103" lon="30.029193889349699">
        <ele>64.370000000000005</ele>
        <time>2026-04-25T12:57:10Z</time>
      </trkpt>
      <trkpt lat="59.068380743265152" lon="30.029199840500951">
        <ele>64.560000000000002</ele>
        <time>2026-04-25T12:57:11Z</time>
      </trkpt>
      <trkpt lat="59.068163651973009" lon="30.029205707833171">
        <ele>63.890000000000001</ele>
        <time>2026-04-25T12:57:31Z</time>
      </trkpt>
      <trkpt lat="59.067932479083538" lon="30.029263962060213">
        <ele>63.740000000000002</ele>
        <time>2026-04-25T12:57:54Z</time>
      </trkpt>
      <trkpt lat="59.067759811878204" lon="30.029381727799773">
        <ele>63.219999999999999</ele>
        <time>2026-04-25T12:58:14Z</time>
      </trkpt>
      <trkpt lat="59.067561998963356" lon="30.029432103037834">
        <ele>62.68</ele>
        <time>2026-04-25T12:58:33Z</time>
      </trkpt>
      <trkpt lat="59.067355385050178" lon="30.02944853156805">
        <ele>62.359999999999999</ele>
        <time>2026-04-25T12:58:55Z</time>
      </trkpt>
      <trkpt lat="59.06725681386888" lon="30.029469151049852">
        <ele>61.710000000000001</ele>
        <time>2026-04-25T12:59:12Z</time>
      </trkpt>
      <trkpt lat="59.067100659012794" lon="30.029510054737329">
        <ele>61.409999999999997</ele>
        <time>2026-04-25T12:59:32Z</time>
      </trkpt>
      <trkpt lat="59.066907707601786" lon="30.029623545706272">
        <ele>61.229999999999997</ele>
        <time>2026-04-25T12:59:53Z</time>
      </trkpt>
      <trkpt lat="59.0667256526649" lon="30.029641482979059">
        <ele>60.840000000000003</ele>
        <time>2026-04-25T13:00:18Z</time>
      </trkpt>
      <trkpt lat="59.066594308242202" lon="30.029592867940664">
        <ele>60.280000000000001</ele>
        <time>2026-04-25T13:00:32Z</time>
      </trkpt>
      <trkpt lat="59.066495904698968" lon="30.029677273705602">
        <ele>60.770000000000003</ele>
        <time>2026-04-25T13:00:47Z</time>
      </trkpt>
      <trkpt lat="59.066363302990794" lon="30.029757907614112">
        <ele>59.799999999999997</ele>
        <time>2026-04-25T13:01:10Z</time>
      </trkpt>
      <trkpt lat="59.066255260258913" lon="30.02975975163281">
        <ele>59.789999999999999</ele>
        <time>2026-04-25T13:01:33Z</time>
      </trkpt>
      <trkpt lat="59.066148893907666" lon="30.029797805473208">
        <ele>59.140000000000001</ele>
        <time>2026-04-25T13:01:49Z</time>
      </trkpt>
      <trkpt lat="59.06606012955308" lon="30.029896963387728">
        <ele>59.479999999999997</ele>
        <time>2026-04-25T13:02:10Z</time>
      </trkpt>
      <trkpt lat="59.065992655232549" lon="30.029929904267192">
        <ele>59.359999999999999</ele>
        <time>2026-04-25T13:02:37Z</time>
      </trkpt>
      <trkpt lat="59.065978908911347" lon="30.029965778812766">
        <ele>59.18</ele>
        <time>2026-04-25T13:02:59Z</time>
      </trkpt>
      <trkpt lat="59.06598687171936" lon="30.030003832653165">
        <ele>58.810000000000002</ele>
        <time>2026-04-25T13:03:27Z</time>
      </trkpt>
      <trkpt lat="59.065976645797491" lon="30.030011460185051">
        <ele>58.799999999999997</ele>
        <time>2026-04-25T13:03:53Z</time>
      </trkpt>
      <trkpt lat="59.065984524786472" lon="30.030010370537639">
        <ele>58.979999999999997</ele>
        <time>2026-04-25T13:04:21Z</time>
      </trkpt>
      <trkpt lat="59.065963486209512" lon="30.030036773532629">
        <ele>59.18</ele>
        <time>2026-04-25T13:04:49Z</time>
      </trkpt>
      <trkpt lat="59.065958708524704" lon="30.030104499310255">
        <ele>59.25</ele>
        <time>2026-04-25T13:05:22Z</time>
      </trkpt>
      <trkpt lat="59.065976478159428" lon="30.030006431043148">
        <ele>59.719999999999999</ele>
        <time>2026-04-25T13:05:51Z</time>
      </trkpt>
      <trkpt lat="59.065964743494987" lon="30.030041467398405">
        <ele>59.490000000000002</ele>
        <time>2026-04-25T13:06:46Z</time>
      </trkpt>
      <trkpt lat="59.066015789285302" lon="30.02999821677804">
        <ele>59.100000000000001</ele>
        <time>2026-04-25T13:07:15Z</time>
      </trkpt>
      <trkpt lat="59.066021321341395" lon="30.030001485720277">
        <ele>59.390000000000001</ele>
        <time>2026-04-25T13:07:50Z</time>
      </trkpt>
      <trkpt lat="59.065994834527373" lon="30.030018165707588">
        <ele>59.869999999999997</ele>
        <time>2026-04-25T13:08:14Z</time>
      </trkpt>
      <trkpt lat="59.065986117348075" lon="30.029990086331964">
        <ele>59.759999999999998</ele>
        <time>2026-04-25T13:08:39Z</time>
      </trkpt>
      <trkpt lat="59.065937837585807" lon="30.030055968090892">
        <ele>60.32</ele>
        <time>2026-04-25T13:09:05Z</time>
      </trkpt>
      <trkpt lat="59.065969018265605" lon="30.029999138787389">
        <ele>60.439999999999998</ele>
        <time>2026-04-25T13:10:00Z</time>
      </trkpt>
      <trkpt lat="59.065891401842237" lon="30.030017411336303">
        <ele>60.630000000000003</ele>
        <time>2026-04-25T13:10:21Z</time>
      </trkpt>
      <trkpt lat="59.065803727135062" lon="30.030095111578703">
        <ele>61.119999999999997</ele>
        <time>2026-04-25T13:10:39Z</time>
      </trkpt>
      <trkpt lat="59.065698785707355" lon="30.030146408826113">
        <ele>60.759999999999998</ele>
        <time>2026-04-25T13:10:56Z</time>
      </trkpt>
      <trkpt lat="59.06553290784359" lon="30.030233832076192">
        <ele>61</ele>
        <time>2026-04-25T13:11:16Z</time>
      </trkpt>
      <trkpt lat="59.065321180969477" lon="30.030269958078861">
        <ele>60.960000000000001</ele>
        <time>2026-04-25T13:11:37Z</time>
      </trkpt>
      <trkpt lat="59.065083302557468" lon="30.030363500118256">
        <ele>60.810000000000002</ele>
        <time>2026-04-25T13:11:58Z</time>
      </trkpt>
      <trkpt lat="59.064842155203223" lon="30.03040574491024">
        <ele>60.329999999999998</ele>
        <time>2026-04-25T13:12:22Z</time>
      </trkpt>
      <trkpt lat="59.064594302326441" lon="30.03051227889955">
        <ele>59.840000000000003</ele>
        <time>2026-04-25T13:12:44Z</time>
      </trkpt>
      <trkpt lat="59.06445792876184" lon="30.030601462349296">
        <ele>59.909999999999997</ele>
        <time>2026-04-25T13:13:06Z</time>
      </trkpt>
      <trkpt lat="59.064269503578544" lon="30.030612610280514">
        <ele>59.799999999999997</ele>
        <time>2026-04-25T13:13:26Z</time>
      </trkpt>
      <trkpt lat="59.06408803537488" lon="30.030661225318909">
        <ele>59.740000000000002</ele>
        <time>2026-04-25T13:13:44Z</time>
      </trkpt>
      <trkpt lat="59.063983764499426" lon="30.030695172026753">
        <ele>59.039999999999999</ele>
        <time>2026-04-25T13:14:03Z</time>
      </trkpt>
      <trkpt lat="59.063845630735159" lon="30.030771614983678">
        <ele>58.649999999999999</ele>
        <time>2026-04-25T13:14:24Z</time>
      </trkpt>
      <trkpt lat="59.063715878874063" lon="30.030767004936934">
        <ele>58.869999999999997</ele>
        <time>2026-04-25T13:14:44Z</time>
      </trkpt>
      <trkpt lat="59.063612781465054" lon="30.030845543369651">
        <ele>59.539999999999999</ele>
        <time>2026-04-25T13:14:56Z</time>
      </trkpt>
      <trkpt lat="59.063497446477413" lon="30.030945539474487">
        <ele>59.509999999999998</ele>
        <time>2026-04-25T13:15:20Z</time>
      </trkpt>
      <trkpt lat="59.06346601434052" lon="30.031105633825064">
        <ele>59.439999999999998</ele>
        <time>2026-04-25T13:15:36Z</time>
      </trkpt>
      <trkpt lat="59.063517143949866" lon="30.031545264646411">
        <ele>59.210000000000001</ele>
        <time>2026-04-25T13:16:01Z</time>
      </trkpt>
      <trkpt lat="59.063532650470734" lon="30.031615337356925">
        <ele>58.859999999999999</ele>
        <time>2026-04-25T13:16:24Z</time>
      </trkpt>
      <trkpt lat="59.063500380143523" lon="30.031655738130212">
        <ele>58.850000000000001</ele>
        <time>2026-04-25T13:16:55Z</time>
      </trkpt>
      <trkpt lat="59.063499793410301" lon="30.031625311821699">
        <ele>59.130000000000003</ele>
        <time>2026-04-25T13:18:03Z</time>
      </trkpt>
      <trkpt lat="59.063491243869066" lon="30.031679039821029">
        <ele>59.280000000000001</ele>
        <time>2026-04-25T13:18:56Z</time>
      </trkpt>
      <trkpt lat="59.063502391800284" lon="30.031464966014028">
        <ele>59.850000000000001</ele>
        <time>2026-04-25T13:20:27Z</time>
      </trkpt>
      <trkpt lat="59.063502810895443" lon="30.031195655465126">
        <ele>60.039999999999999</ele>
        <time>2026-04-25T13:20:40Z</time>
      </trkpt>
      <trkpt lat="59.06348411925137" lon="30.031046541407704">
        <ele>60.060000000000002</ele>
        <time>2026-04-25T13:20:50Z</time>
      </trkpt>
      <trkpt lat="59.063319079577923" lon="30.030972948297858">
        <ele>59.770000000000003</ele>
        <time>2026-04-25T13:21:05Z</time>
      </trkpt>
      <trkpt lat="59.063285971060395" lon="30.030988370999694">
        <ele>59.869999999999997</ele>
        <time>2026-04-25T13:21:21Z</time>
      </trkpt>
      <trkpt lat="59.063309440389276" lon="30.030982168391347">
        <ele>59.990000000000002</ele>
        <time>2026-04-25T13:21:23Z</time>
      </trkpt>
      <trkpt lat="59.063419159501791" lon="30.030915532261133">
        <ele>60.189999999999998</ele>
        <time>2026-04-25T13:21:33Z</time>
      </trkpt>
      <trkpt lat="59.063530387356877" lon="30.030882423743606">
        <ele>60.200000000000003</ele>
        <time>2026-04-25T13:21:40Z</time>
      </trkpt>
      <trkpt lat="59.063601298257709" lon="30.030862642452121">
        <ele>59.200000000000003</ele>
        <time>2026-04-25T13:21:50Z</time>
      </trkpt>
      <trkpt lat="59.063623007386923" lon="30.030832216143608">
        <ele>59.130000000000003</ele>
        <time>2026-04-25T13:22:02Z</time>
      </trkpt>
      <trkpt lat="59.063655529171228" lon="30.030838586390018">
        <ele>58.990000000000002</ele>
        <time>2026-04-25T13:22:05Z</time>
      </trkpt>
      <trkpt lat="59.063812857493758" lon="30.030767759308219">
        <ele>59.259999999999998</ele>
        <time>2026-04-25T13:22:20Z</time>
      </trkpt>
      <trkpt lat="59.063849067315459" lon="30.030740769580007">
        <ele>59.130000000000003</ele>
        <time>2026-04-25T13:22:26Z</time>
      </trkpt>
      <trkpt lat="59.063886953517795" lon="30.030711181461811">
        <ele>59.060000000000002</ele>
        <time>2026-04-25T13:22:30Z</time>
      </trkpt>
      <trkpt lat="59.063916960731149" lon="30.030718222260475">
        <ele>59.170000000000002</ele>
        <time>2026-04-25T13:22:34Z</time>
      </trkpt>
      <trkpt lat="59.064004635438323" lon="30.030700033530593">
        <ele>59.170000000000002</ele>
        <time>2026-04-25T13:22:45Z</time>
      </trkpt>
      <trkpt lat="59.064104128628969" lon="30.030692405998707">
        <ele>59.490000000000002</ele>
        <time>2026-04-25T13:22:59Z</time>
      </trkpt>
      <trkpt lat="59.064126089215279" lon="30.030672792345285">
        <ele>59.310000000000002</ele>
        <time>2026-04-25T13:23:02Z</time>
      </trkpt>
      <trkpt lat="59.064170094206929" lon="30.030645551159978">
        <ele>59.859999999999999</ele>
        <time>2026-04-25T13:23:06Z</time>
      </trkpt>
      <trkpt lat="59.064197754487395" lon="30.030657621100545">
        <ele>59.560000000000002</ele>
        <time>2026-04-25T13:23:10Z</time>
      </trkpt>
      <trkpt lat="59.064238741993904" lon="30.030636163428426">
        <ele>59.630000000000003</ele>
        <time>2026-04-25T13:23:13Z</time>
      </trkpt>
      <trkpt lat="59.064309485256672" lon="30.030593080446124">
        <ele>59.780000000000001</ele>
        <time>2026-04-25T13:23:22Z</time>
      </trkpt>
      <trkpt lat="59.064389616250992" lon="30.030523343011737">
        <ele>59.689999999999998</ele>
        <time>2026-04-25T13:23:33Z</time>
      </trkpt>
      <trkpt lat="59.064430017024279" lon="30.030511524528265">
        <ele>59.909999999999997</ele>
        <time>2026-04-25T13:23:37Z</time>
      </trkpt>
      <trkpt lat="59.064476871863008" lon="30.030495263636112">
        <ele>60.039999999999999</ele>
        <time>2026-04-25T13:23:43Z</time>
      </trkpt>
      <trkpt lat="59.064625483006239" lon="30.030440362170339">
        <ele>60.140000000000001</ele>
        <time>2026-04-25T13:23:57Z</time>
      </trkpt>
      <trkpt lat="59.064711146056652" lon="30.030398201197386">
        <ele>59.990000000000002</ele>
        <time>2026-04-25T13:24:07Z</time>
      </trkpt>
      <trkpt lat="59.064856572076678" lon="30.030375905334949">
        <ele>60.509999999999998</ele>
        <time>2026-04-25T13:24:19Z</time>
      </trkpt>
      <trkpt lat="59.06501691788435" lon="30.030357884243131">
        <ele>60.759999999999998</ele>
        <time>2026-04-25T13:24:29Z</time>
      </trkpt>
      <trkpt lat="59.06508975662291" lon="30.030350089073181">
        <ele>60.920000000000002</ele>
        <time>2026-04-25T13:24:34Z</time>
      </trkpt>
      <trkpt lat="59.06512638553977" lon="30.030325781553984">
        <ele>60.829999999999998</ele>
        <time>2026-04-25T13:24:37Z</time>
      </trkpt>
      <trkpt lat="59.065319923684001" lon="30.030225282534957">
        <ele>60.890000000000001</ele>
        <time>2026-04-25T13:24:52Z</time>
      </trkpt>
      <trkpt lat="59.065537182614207" lon="30.030141128227115">
        <ele>60.909999999999997</ele>
        <time>2026-04-25T13:25:09Z</time>
      </trkpt>
      <trkpt lat="59.065590910613537" lon="30.030140457674861">
        <ele>60.960000000000001</ele>
        <time>2026-04-25T13:25:19Z</time>
      </trkpt>
      <trkpt lat="59.065677579492331" lon="30.030071139335632">
        <ele>60.670000000000002</ele>
        <time>2026-04-25T13:25:37Z</time>
      </trkpt>
      <trkpt lat="59.065696941688657" lon="30.030080359429121">
        <ele>60.490000000000002</ele>
        <time>2026-04-25T13:25:41Z</time>
      </trkpt>
      <trkpt lat="59.065734324976802" lon="30.030158394947648">
        <ele>60.700000000000003</ele>
        <time>2026-04-25T13:25:46Z</time>
      </trkpt>
      <trkpt lat="59.065749915316701" lon="30.030188066884875">
        <ele>60.549999999999997</ele>
        <time>2026-04-25T13:25:49Z</time>
      </trkpt>
      <trkpt lat="59.065770199522376" lon="30.030192593112588">
        <ele>60.200000000000003</ele>
        <time>2026-04-25T13:25:51Z</time>
      </trkpt>
      <trkpt lat="59.065803224220872" lon="30.03019125200808">
        <ele>60.490000000000002</ele>
        <time>2026-04-25T13:25:54Z</time>
      </trkpt>
      <trkpt lat="59.065988129004836" lon="30.030024535953999">
        <ele>61</ele>
        <time>2026-04-25T13:26:13Z</time>
      </trkpt>
      <trkpt lat="59.066038839519024" lon="30.029887827113271">
        <ele>61.109999999999999</ele>
        <time>2026-04-25T13:26:33Z</time>
      </trkpt>
      <trkpt lat="59.066064320504665" lon="30.029751285910606">
        <ele>61.289999999999999</ele>
        <time>2026-04-25T13:26:50Z</time>
      </trkpt>
      <trkpt lat="59.06612710095942" lon="30.029737623408437">
        <ele>61.590000000000003</ele>
        <time>2026-04-25T13:27:14Z</time>
      </trkpt>
      <trkpt lat="59.066119557246566" lon="30.029853042215109">
        <ele>61.82</ele>
        <time>2026-04-25T13:27:36Z</time>
      </trkpt>
      <trkpt lat="59.066103547811508" lon="30.02983988262713">
        <ele>62.420000000000002</ele>
        <time>2026-04-25T13:28:00Z</time>
      </trkpt>
      <trkpt lat="59.066103044897318" lon="30.029792943969369">
        <ele>62.200000000000003</ele>
        <time>2026-04-25T13:28:16Z</time>
      </trkpt>
      <trkpt lat="59.06605233438313" lon="30.02972798421979">
        <ele>62.170000000000002</ele>
        <time>2026-04-25T13:28:59Z</time>
      </trkpt>
      <trkpt lat="59.066012017428875" lon="30.029696552082896">
        <ele>62.840000000000003</ele>
        <time>2026-04-25T13:29:28Z</time>
      </trkpt>
      <trkpt lat="59.065978322178125" lon="30.029739467427135">
        <ele>63.119999999999997</ele>
        <time>2026-04-25T13:29:58Z</time>
      </trkpt>
      <trkpt lat="59.065936245024204" lon="30.029795374721289">
        <ele>62.890000000000001</ele>
        <time>2026-04-25T13:30:14Z</time>
      </trkpt>
      <trkpt lat="59.065929120406508" lon="30.029870057478547">
        <ele>63.020000000000003</ele>
        <time>2026-04-25T13:30:35Z</time>
      </trkpt>
      <trkpt lat="59.066051915287971" lon="30.029690936207771">
        <ele>63.280000000000001</ele>
        <time>2026-04-25T13:31:03Z</time>
      </trkpt>
      <trkpt lat="59.065989889204502" lon="30.029684398323298">
        <ele>63.579999999999998</ele>
        <time>2026-04-25T13:31:31Z</time>
      </trkpt>
      <trkpt lat="59.065992487594485" lon="30.029569901525974">
        <ele>64.069999999999993</ele>
        <time>2026-04-25T13:32:04Z</time>
      </trkpt>
      <trkpt lat="59.066031547263265" lon="30.029482897371054">
        <ele>64.209999999999994</ele>
        <time>2026-04-25T13:32:36Z</time>
      </trkpt>
      <trkpt lat="59.066053926944733" lon="30.029448196291924">
        <ele>64.430000000000007</ele>
        <time>2026-04-25T13:33:04Z</time>
      </trkpt>
      <trkpt lat="59.065994080156088" lon="30.029684649780393">
        <ele>64.819999999999993</ele>
        <time>2026-04-25T13:33:38Z</time>
      </trkpt>
      <trkpt lat="59.065963989123702" lon="30.029648020863533">
        <ele>64.609999999999999</ele>
        <time>2026-04-25T13:34:14Z</time>
      </trkpt>
      <trkpt lat="59.06598050147295" lon="30.029657827690244">
        <ele>65.170000000000002</ele>
        <time>2026-04-25T13:34:27Z</time>
      </trkpt>
      <trkpt lat="59.066129783168435" lon="30.029740305617452">
        <ele>65.359999999999999</ele>
        <time>2026-04-25T13:35:09Z</time>
      </trkpt>
      <trkpt lat="59.066159455105662" lon="30.029856394976377">
        <ele>65.859999999999999</ele>
        <time>2026-04-25T13:35:47Z</time>
      </trkpt>
      <trkpt lat="59.066072115674615" lon="30.030036605894566">
        <ele>66.239999999999995</ele>
        <time>2026-04-25T13:36:18Z</time>
      </trkpt>
      <trkpt lat="59.06609583646059" lon="30.029980279505253">
        <ele>66.439999999999998</ele>
        <time>2026-04-25T13:36:43Z</time>
      </trkpt>
      <trkpt lat="59.066154425963759" lon="30.02986092120409">
        <ele>66.299999999999997</ele>
        <time>2026-04-25T13:37:08Z</time>
      </trkpt>
      <trkpt lat="59.066151157021523" lon="30.029745921492577">
        <ele>66.75</ele>
        <time>2026-04-25T13:37:31Z</time>
      </trkpt>
      <trkpt lat="59.066106900572777" lon="30.029702670872211">
        <ele>67.060000000000002</ele>
        <time>2026-04-25T13:38:04Z</time>
      </trkpt>
      <trkpt lat="59.066161550581455" lon="30.029663778841496">
        <ele>67.420000000000002</ele>
        <time>2026-04-25T13:38:33Z</time>
      </trkpt>
      <trkpt lat="59.066129699349403" lon="30.029744831845164">
        <ele>67.170000000000002</ele>
        <time>2026-04-25T13:39:04Z</time>
      </trkpt>
      <trkpt lat="59.066133890300989" lon="30.029856981709599">
        <ele>67.599999999999994</ele>
        <time>2026-04-25T13:39:35Z</time>
      </trkpt>
      <trkpt lat="59.066071026027203" lon="30.029842900112271">
        <ele>68.120000000000005</ele>
        <time>2026-04-25T13:40:05Z</time>
      </trkpt>
      <trkpt lat="59.066187953576446" lon="30.029760170727968">
        <ele>69.549999999999997</ele>
        <time>2026-04-25T13:42:23Z</time>
      </trkpt>
      <trkpt lat="59.066115785390139" lon="30.02986284904182">
        <ele>70.049999999999997</ele>
        <time>2026-04-25T13:43:07Z</time>
      </trkpt>
      <trkpt lat="59.066111091524363" lon="30.02992931753397">
        <ele>70.030000000000001</ele>
        <time>2026-04-25T13:43:16Z</time>
      </trkpt>
      <trkpt lat="59.066094746813178" lon="30.029956558719277">
        <ele>69.989999999999995</ele>
        <time>2026-04-25T13:43:30Z</time>
      </trkpt>
      <trkpt lat="59.066108157858253" lon="30.029791183769703">
        <ele>69.439999999999998</ele>
        <time>2026-04-25T13:44:20Z</time>
      </trkpt>
      <trkpt lat="59.066098853945732" lon="30.029684901237488">
        <ele>70.280000000000001</ele>
        <time>2026-04-25T13:46:04Z</time>
      </trkpt>
      <trkpt lat="59.066072953864932" lon="30.029704179614782">
        <ele>70.170000000000002</ele>
        <time>2026-04-25T13:46:07Z</time>
      </trkpt>
      <trkpt lat="59.066012520343065" lon="30.02974072471261">
        <ele>70.849999999999994</ele>
        <time>2026-04-25T13:47:06Z</time>
      </trkpt>
      <trkpt lat="59.066037246957421" lon="30.029740557074547">
        <ele>70.519999999999996</ele>
        <time>2026-04-25T13:47:10Z</time>
      </trkpt>
      <trkpt lat="59.066063901409507" lon="30.029737204313278">
        <ele>70.680000000000007</ele>
        <time>2026-04-25T13:47:13Z</time>
      </trkpt>
      <trkpt lat="59.066116623580456" lon="30.029777521267533">
        <ele>70.790000000000006</ele>
        <time>2026-04-25T13:47:25Z</time>
      </trkpt>
      <trkpt lat="59.066348215565085" lon="30.030064936727285">
        <ele>71.540000000000006</ele>
        <time>2026-04-25T13:48:00Z</time>
      </trkpt>
      <trkpt lat="59.066320722922683" lon="30.030043981969357">
        <ele>71.480000000000004</ele>
        <time>2026-04-25T13:48:03Z</time>
      </trkpt>
      <trkpt lat="59.066290631890297" lon="30.030026966705918">
        <ele>71.260000000000005</ele>
        <time>2026-04-25T13:48:06Z</time>
      </trkpt>
      <trkpt lat="59.066253332421184" lon="30.029998552054167">
        <ele>71.469999999999999</ele>
        <time>2026-04-25T13:48:10Z</time>
      </trkpt>
      <trkpt lat="59.066050322726369" lon="30.029805852100253">
        <ele>71.469999999999999</ele>
        <time>2026-04-25T13:49:34Z</time>
      </trkpt>
      <trkpt lat="59.066246962174773" lon="30.029717674478889">
        <ele>72.680000000000007</ele>
        <time>2026-04-25T13:51:46Z</time>
      </trkpt>
      <trkpt lat="59.066221229732037" lon="30.029651876538992">
        <ele>72.969999999999999</ele>
        <time>2026-04-25T13:51:57Z</time>
      </trkpt>
      <trkpt lat="59.066232796758413" lon="30.029637543484569">
        <ele>73.900000000000006</ele>
        <time>2026-04-25T13:52:34Z</time>
      </trkpt>
      <trkpt lat="59.066173117607832" lon="30.02965422347188">
        <ele>74.060000000000002</ele>
        <time>2026-04-25T13:52:45Z</time>
      </trkpt>
      <trkpt lat="59.06610656529665" lon="30.029855640605092">
        <ele>74.099999999999994</ele>
        <time>2026-04-25T13:53:23Z</time>
      </trkpt>
      <trkpt lat="59.066032720729709" lon="30.03012134693563">
        <ele>74.189999999999998</ele>
        <time>2026-04-25T13:53:48Z</time>
      </trkpt>
      <trkpt lat="59.065852677449584" lon="30.030298875644803">
        <ele>74.390000000000001</ele>
        <time>2026-04-25T13:54:11Z</time>
      </trkpt>
      <trkpt lat="59.065649919211864" lon="30.030231988057494">
        <ele>74.25</ele>
        <time>2026-04-25T13:54:30Z</time>
      </trkpt>
      <trkpt lat="59.065546989440918" lon="30.030208183452487">
        <ele>74.959999999999994</ele>
        <time>2026-04-25T13:54:45Z</time>
      </trkpt>
      <trkpt lat="59.065401898697019" lon="30.030277501791716">
        <ele>74.760000000000005</ele>
        <time>2026-04-25T13:55:08Z</time>
      </trkpt>
      <trkpt lat="59.065382536500692" lon="30.030268700793386">
        <ele>74.519999999999996</ele>
        <time>2026-04-25T13:55:10Z</time>
      </trkpt>
      <trkpt lat="59.065274996683002" lon="30.030282028019428">
        <ele>75.359999999999999</ele>
        <time>2026-04-25T13:55:22Z</time>
      </trkpt>
      <trkpt lat="59.065226884558797" lon="30.030298205092549">
        <ele>74.900000000000006</ele>
        <time>2026-04-25T13:55:27Z</time>
      </trkpt>
      <trkpt lat="59.065183717757463" lon="30.03030264750123">
        <ele>75.019999999999996</ele>
        <time>2026-04-25T13:55:30Z</time>
      </trkpt>
      <trkpt lat="59.065013565123081" lon="30.030364925041795">
        <ele>74.659999999999997</ele>
        <time>2026-04-25T13:55:45Z</time>
      </trkpt>
      <trkpt lat="59.064893955364823" lon="30.030434327200055">
        <ele>74.760000000000005</ele>
        <time>2026-04-25T13:56:04Z</time>
      </trkpt>
      <trkpt lat="59.064785744994879" lon="30.030442960560322">
        <ele>74.450000000000003</ele>
        <time>2026-04-25T13:56:14Z</time>
      </trkpt>
      <trkpt lat="59.064719444140792" lon="30.030460897833109">
        <ele>74.370000000000005</ele>
        <time>2026-04-25T13:56:22Z</time>
      </trkpt>
      <trkpt lat="59.064562954008579" lon="30.030508590862155">
        <ele>74.489999999999995</ele>
        <time>2026-04-25T13:56:38Z</time>
      </trkpt>
      <trkpt lat="59.06443010084331" lon="30.030612275004387">
        <ele>74.5</ele>
        <time>2026-04-25T13:56:53Z</time>
      </trkpt>
      <trkpt lat="59.064331278204918" lon="30.030691064894199">
        <ele>74.780000000000001</ele>
        <time>2026-04-25T13:57:08Z</time>
      </trkpt>
      <trkpt lat="59.064217451959848" lon="30.030728867277503">
        <ele>74.230000000000004</ele>
        <time>2026-04-25T13:57:23Z</time>
      </trkpt>
      <trkpt lat="59.064151318743825" lon="30.03070623613894">
        <ele>74.379999999999995</ele>
        <time>2026-04-25T13:57:31Z</time>
      </trkpt>
      <trkpt lat="59.064104296267033" lon="30.030700620263815">
        <ele>74</ele>
        <time>2026-04-25T13:57:36Z</time>
      </trkpt>
      <trkpt lat="59.064023829996586" lon="30.030705984681845">
        <ele>74.299999999999997</ele>
        <time>2026-04-25T13:57:44Z</time>
      </trkpt>
      <trkpt lat="59.063906148076057" lon="30.030773123726249">
        <ele>74.129999999999995</ele>
        <time>2026-04-25T13:58:00Z</time>
      </trkpt>
      <trkpt lat="59.063798105344176" lon="30.030827103182673">
        <ele>74.329999999999998</ele>
        <time>2026-04-25T13:58:15Z</time>
      </trkpt>
      <trkpt lat="59.063739599660039" lon="30.030833808705211">
        <ele>74.049999999999997</ele>
        <time>2026-04-25T13:58:33Z</time>
      </trkpt>
      <trkpt lat="59.063599873334169" lon="30.030886195600033">
        <ele>74.829999999999998</ele>
        <time>2026-04-25T13:58:51Z</time>
      </trkpt>
      <trkpt lat="59.063375070691109" lon="30.030996752902865">
        <ele>74.640000000000001</ele>
        <time>2026-04-25T13:59:15Z</time>
      </trkpt>
      <trkpt lat="59.063334334641695" lon="30.031036315485835">
        <ele>74.459999999999994</ele>
        <time>2026-04-25T13:59:43Z</time>
      </trkpt>
      <trkpt lat="59.063316648826003" lon="30.031008487567306">
        <ele>74.739999999999995</ele>
        <time>2026-04-25T14:00:15Z</time>
      </trkpt>
      <trkpt lat="59.06330868601799" lon="30.030993819236755">
        <ele>74.579999999999998</ele>
        <time>2026-04-25T14:00:51Z</time>
      </trkpt>
      <trkpt lat="59.063320085406303" lon="30.031000021845102">
        <ele>74.480000000000004</ele>
        <time>2026-04-25T14:01:18Z</time>
      </trkpt>
      <trkpt lat="59.06332042068243" lon="30.030986610800028">
        <ele>74.290000000000006</ele>
        <time>2026-04-25T14:01:49Z</time>
      </trkpt>
      <trkpt lat="59.06333458609879" lon="30.031003709882498">
        <ele>74.310000000000002</ele>
        <time>2026-04-25T14:02:20Z</time>
      </trkpt>
      <trkpt lat="59.0633150562644" lon="30.031019384041429">
        <ele>74.280000000000001</ele>
        <time>2026-04-25T14:02:46Z</time>
      </trkpt>
      <trkpt lat="59.06332285143435" lon="30.031026508659124">
        <ele>74.370000000000005</ele>
        <time>2026-04-25T14:03:17Z</time>
      </trkpt>
      <trkpt lat="59.063325617462397" lon="30.030976971611381">
        <ele>74.540000000000006</ele>
        <time>2026-04-25T14:03:47Z</time>
      </trkpt>
      <trkpt lat="59.063321510329843" lon="30.031025586649776">
        <ele>74.180000000000007</ele>
        <time>2026-04-25T14:04:16Z</time>
      </trkpt>
      <trkpt lat="59.063332574442029" lon="30.031034722924232">
        <ele>74.180000000000007</ele>
        <time>2026-04-25T14:04:46Z</time>
      </trkpt>
      <trkpt lat="59.063318744301796" lon="30.031023323535919">
        <ele>74.609999999999999</ele>
        <time>2026-04-25T14:05:15Z</time>
      </trkpt>
      <trkpt lat="59.06331648118794" lon="30.03112155944109">
        <ele>74.269999999999996</ele>
        <time>2026-04-25T14:05:48Z</time>
      </trkpt>
      <trkpt lat="59.063305500894785" lon="30.031054504215717">
        <ele>74.620000000000005</ele>
        <time>2026-04-25T14:06:18Z</time>
      </trkpt>
      <trkpt lat="59.063317654654384" lon="30.031004380434752">
        <ele>74.659999999999997</ele>
        <time>2026-04-25T14:06:47Z</time>
      </trkpt>
      <trkpt lat="59.063339782878757" lon="30.031038243323565">
        <ele>74.799999999999997</ele>
        <time>2026-04-25T14:07:23Z</time>
      </trkpt>
      <trkpt lat="59.063311284407973" lon="30.03096817061305">
        <ele>74.950000000000003</ele>
        <time>2026-04-25T14:08:00Z</time>
      </trkpt>
      <trkpt lat="59.063305333256721" lon="30.030954256653786">
        <ele>75.040000000000006</ele>
        <time>2026-04-25T14:08:28Z</time>
      </trkpt>
      <trkpt lat="59.063310278579593" lon="30.030963141471148">
        <ele>74.980000000000004</ele>
        <time>2026-04-25T14:08:56Z</time>
      </trkpt>
      <trkpt lat="59.063317906111479" lon="30.030949730426073">
        <ele>75.170000000000002</ele>
        <time>2026-04-25T14:09:11Z</time>
      </trkpt>
      <trkpt lat="59.063300304114819" lon="30.030981162562966">
        <ele>75.159999999999997</ele>
        <time>2026-04-25T14:09:37Z</time>
      </trkpt>
      <trkpt lat="59.063320672139525" lon="30.031037656590343">
        <ele>75.280000000000001</ele>
        <time>2026-04-25T14:10:05Z</time>
      </trkpt>
      <trkpt lat="59.063324695453048" lon="30.030997507274151">
        <ele>75.129999999999995</ele>
        <time>2026-04-25T14:10:32Z</time>
      </trkpt>
      <trkpt lat="59.063319079577923" lon="30.031010499224067">
        <ele>75.689999999999998</ele>
        <time>2026-04-25T14:10:59Z</time>
      </trkpt>
      <trkpt lat="59.063313966616988" lon="30.031033465638757">
        <ele>75.569999999999993</ele>
        <time>2026-04-25T14:11:22Z</time>
      </trkpt>
      <trkpt lat="59.063325449824333" lon="30.031001614406705">
        <ele>75.709999999999994</ele>
        <time>2026-04-25T14:11:46Z</time>
      </trkpt>
      <trkpt lat="59.063333915546536" lon="30.030987532809377">
        <ele>75.790000000000006</ele>
        <time>2026-04-25T14:12:16Z</time>
      </trkpt>
      <trkpt lat="59.063414633274078" lon="30.031009325757623">
        <ele>75.969999999999999</ele>
        <time>2026-04-25T14:12:42Z</time>
      </trkpt>
      <trkpt lat="59.063408598303795" lon="30.030948640778661">
        <ele>76.140000000000001</ele>
        <time>2026-04-25T14:13:09Z</time>
      </trkpt>
      <trkpt lat="59.063404826447368" lon="30.030938666313887">
        <ele>76.810000000000002</ele>
        <time>2026-04-25T14:13:11Z</time>
      </trkpt>
      <trkpt lat="59.063373059034348" lon="30.030982503667474">
        <ele>76.060000000000002</ele>
        <time>2026-04-25T14:13:40Z</time>
      </trkpt>
      <trkpt lat="59.063412621617317" lon="30.030961465090513">
        <ele>76.829999999999998</ele>
        <time>2026-04-25T14:14:06Z</time>
      </trkpt>
      <trkpt lat="59.063409939408302" lon="30.030970182269812">
        <ele>76.200000000000003</ele>
        <time>2026-04-25T14:14:26Z</time>
      </trkpt>
      <trkpt lat="59.063393175601959" lon="30.030955681577325">
        <ele>76.989999999999995</ele>
        <time>2026-04-25T14:15:00Z</time>
      </trkpt>
      <trkpt lat="59.063406754285097" lon="30.030998261645436">
        <ele>76.930000000000007</ele>
        <time>2026-04-25T14:15:31Z</time>
      </trkpt>
      <trkpt lat="59.063398540019989" lon="30.031012007966638">
        <ele>76.829999999999998</ele>
        <time>2026-04-25T14:16:01Z</time>
      </trkpt>
      <trkpt lat="59.063398791477084" lon="30.031002871692181">
        <ele>76.739999999999995</ele>
        <time>2026-04-25T14:16:04Z</time>
      </trkpt>
      <trkpt lat="59.063312206417322" lon="30.030973367393017">
        <ele>76.700000000000003</ele>
        <time>2026-04-25T14:16:41Z</time>
      </trkpt>
      <trkpt lat="59.063315726816654" lon="30.030925255268812">
        <ele>76.890000000000001</ele>
        <time>2026-04-25T14:17:06Z</time>
      </trkpt>
      <trkpt lat="59.063322516158223" lon="30.031007900834084">
        <ele>76.420000000000002</ele>
        <time>2026-04-25T14:17:33Z</time>
      </trkpt>
      <trkpt lat="59.063340956345201" lon="30.030976301059127">
        <ele>77.079999999999998</ele>
        <time>2026-04-25T14:18:05Z</time>
      </trkpt>
      <trkpt lat="59.063364677131176" lon="30.031029107049108">
        <ele>76.709999999999994</ele>
        <time>2026-04-25T14:18:33Z</time>
      </trkpt>
      <trkpt lat="59.06336291693151" lon="30.030995830893517">
        <ele>76.569999999999993</ele>
        <time>2026-04-25T14:19:05Z</time>
      </trkpt>
      <trkpt lat="59.063370376825333" lon="30.030954340472817">
        <ele>76.870000000000005</ele>
        <time>2026-04-25T14:19:28Z</time>
      </trkpt>
      <trkpt lat="59.063335005193949" lon="30.031022569164634">
        <ele>76.569999999999993</ele>
        <time>2026-04-25T14:19:53Z</time>
      </trkpt>
      <trkpt lat="59.063336681574583" lon="30.031095826998353">
        <ele>76.480000000000004</ele>
        <time>2026-04-25T14:20:16Z</time>
      </trkpt>
      <trkpt lat="59.063332993537188" lon="30.031101191416383">
        <ele>76.480000000000004</ele>
        <time>2026-04-25T14:20:17Z</time>
      </trkpt>
    </trkseg>
  </trk>

</gpx>